<?xml version="1.0" encoding="UTF-8"?>
<gpx xmlns="http://www.topografix.com/GPX/1/1" xmlns:xsi="http://www.w3.org/2001/XMLSchema-instance" version="1.1" xsi:schemaLocation="http://www.topografix.com/GPX/1/1 http://www.topografix.com/GPX/1/1/gpx.xsd">
  <metadata>
    <name>A Day In The Lakes Triathlon</name>
  </metadata>
  <trk>
    <name>A Day In The Lakes Triathlon</name>
    <trkseg>
      <trkpt lat="54.606274" lon="-2.824138">
        <ele>155.266118</ele>
        <time>2020-06-21T09:10:00.000Z</time>
      </trkpt>
      <trkpt lat="54.606118" lon="-2.823982">
        <ele>155.266115</ele>
        <time>2020-06-21T09:10:02.000Z</time>
      </trkpt>
      <trkpt lat="54.60507" lon="-2.823069">
        <ele>156.04107</ele>
        <time>2020-06-21T09:10:15.000Z</time>
      </trkpt>
      <trkpt lat="54.60493" lon="-2.822933">
        <ele>156.308493</ele>
        <time>2020-06-21T09:10:17.000Z</time>
      </trkpt>
      <trkpt lat="54.605072" lon="-2.822792">
        <ele>156.591058</ele>
        <time>2020-06-21T09:10:19.000Z</time>
      </trkpt>
      <trkpt lat="54.605523" lon="-2.822042">
        <ele>157.644124</ele>
        <time>2020-06-21T09:10:26.000Z</time>
      </trkpt>
      <trkpt lat="54.605846" lon="-2.82122">
        <ele>158.425649</ele>
        <time>2020-06-21T09:10:32.000Z</time>
      </trkpt>
      <trkpt lat="54.605988" lon="-2.820986">
        <ele>158.578535</ele>
        <time>2020-06-21T09:10:34.000Z</time>
      </trkpt>
      <trkpt lat="54.606014" lon="-2.820969">
        <ele>158.595424</ele>
        <time>2020-06-21T09:10:34.000Z</time>
      </trkpt>
      <trkpt lat="54.606149" lon="-2.820787">
        <ele>158.727707</ele>
        <time>2020-06-21T09:10:36.000Z</time>
      </trkpt>
      <trkpt lat="54.606533" lon="-2.820313">
        <ele>159.103083</ele>
        <time>2020-06-21T09:10:41.000Z</time>
      </trkpt>
      <trkpt lat="54.606956" lon="-2.819634">
        <ele>159.570544</ele>
        <time>2020-06-21T09:10:47.000Z</time>
      </trkpt>
      <trkpt lat="54.607876" lon="-2.818577">
        <ele>160.349177</ele>
        <time>2020-06-21T09:10:59.000Z</time>
      </trkpt>
      <trkpt lat="54.608137" lon="-2.818263">
        <ele>160.562158</ele>
        <time>2020-06-21T09:11:03.000Z</time>
      </trkpt>
      <trkpt lat="54.608475" lon="-2.817452">
        <ele>160.984092</ele>
        <time>2020-06-21T09:11:09.000Z</time>
      </trkpt>
      <trkpt lat="54.609393" lon="-2.816865">
        <ele>161.895667</ele>
        <time>2020-06-21T09:11:20.000Z</time>
      </trkpt>
      <trkpt lat="54.61067" lon="-2.815464">
        <ele>163.29673</ele>
        <time>2020-06-21T09:11:37.000Z</time>
      </trkpt>
      <trkpt lat="54.611475" lon="-2.814955">
        <ele>164.085846</ele>
        <time>2020-06-21T09:11:47.000Z</time>
      </trkpt>
      <trkpt lat="54.611787" lon="-2.814618">
        <ele>164.480613</ele>
        <time>2020-06-21T09:11:51.000Z</time>
      </trkpt>
      <trkpt lat="54.611836" lon="-2.814589">
        <ele>164.553749</ele>
        <time>2020-06-21T09:11:52.000Z</time>
      </trkpt>
      <trkpt lat="54.611955" lon="-2.814547">
        <ele>164.71584</ele>
        <time>2020-06-21T09:11:53.000Z</time>
      </trkpt>
      <trkpt lat="54.612382" lon="-2.814296">
        <ele>165.292007</ele>
        <time>2020-06-21T09:11:58.000Z</time>
      </trkpt>
      <trkpt lat="54.61263" lon="-2.813988">
        <ele>165.681977</ele>
        <time>2020-06-21T09:12:01.000Z</time>
      </trkpt>
      <trkpt lat="54.612779" lon="-2.813766">
        <ele>165.935662</ele>
        <time>2020-06-21T09:12:03.000Z</time>
      </trkpt>
      <trkpt lat="54.613511" lon="-2.813658">
        <ele>167.280514</ele>
        <time>2020-06-21T09:12:11.000Z</time>
      </trkpt>
      <trkpt lat="54.613855" lon="-2.813632">
        <ele>168.420248</ele>
        <time>2020-06-21T09:12:15.000Z</time>
      </trkpt>
      <trkpt lat="54.614399" lon="-2.813206">
        <ele>170.332414</ele>
        <time>2020-06-21T09:12:22.000Z</time>
      </trkpt>
      <trkpt lat="54.614583" lon="-2.813066">
        <ele>170.956896</ele>
        <time>2020-06-21T09:12:24.000Z</time>
      </trkpt>
      <trkpt lat="54.615106" lon="-2.812442">
        <ele>173.07394</ele>
        <time>2020-06-21T09:12:31.000Z</time>
      </trkpt>
      <trkpt lat="54.615361" lon="-2.812168">
        <ele>174.049268</ele>
        <time>2020-06-21T09:12:34.000Z</time>
      </trkpt>
      <trkpt lat="54.615981" lon="-2.811307">
        <ele>176.723193</ele>
        <time>2020-06-21T09:12:43.000Z</time>
      </trkpt>
      <trkpt lat="54.616216" lon="-2.811087">
        <ele>177.596747</ele>
        <time>2020-06-21T09:12:46.000Z</time>
      </trkpt>
      <trkpt lat="54.616251" lon="-2.811048">
        <ele>177.730279</ele>
        <time>2020-06-21T09:12:46.000Z</time>
      </trkpt>
      <trkpt lat="54.616894" lon="-2.810366">
        <ele>178.829278</ele>
        <time>2020-06-21T09:12:54.000Z</time>
      </trkpt>
      <trkpt lat="54.617432" lon="-2.809376">
        <ele>179.42998</ele>
        <time>2020-06-21T09:13:03.000Z</time>
      </trkpt>
      <trkpt lat="54.617883" lon="-2.808081">
        <ele>179.919517</ele>
        <time>2020-06-21T09:13:13.000Z</time>
      </trkpt>
      <trkpt lat="54.618093" lon="-2.807477">
        <ele>180.069202</ele>
        <time>2020-06-21T09:13:18.000Z</time>
      </trkpt>
      <trkpt lat="54.618321" lon="-2.806861">
        <ele>180.216619</ele>
        <time>2020-06-21T09:13:23.000Z</time>
      </trkpt>
      <trkpt lat="54.61848" lon="-2.806414">
        <ele>180.324962</ele>
        <time>2020-06-21T09:13:26.000Z</time>
      </trkpt>
      <trkpt lat="54.618567" lon="-2.805973">
        <ele>180.441436</ele>
        <time>2020-06-21T09:13:29.000Z</time>
      </trkpt>
      <trkpt lat="54.618693" lon="-2.80542">
        <ele>180.831101</ele>
        <time>2020-06-21T09:13:33.000Z</time>
      </trkpt>
      <trkpt lat="54.618946" lon="-2.804444">
        <ele>181.518147</ele>
        <time>2020-06-21T09:13:40.000Z</time>
      </trkpt>
      <trkpt lat="54.619307" lon="-2.802771">
        <ele>182.130212</ele>
        <time>2020-06-21T09:13:51.000Z</time>
      </trkpt>
      <trkpt lat="54.619487" lon="-2.801869">
        <ele>181.47768</ele>
        <time>2020-06-21T09:13:57.000Z</time>
      </trkpt>
      <trkpt lat="54.619828" lon="-2.801449">
        <ele>180.990595</ele>
        <time>2020-06-21T09:14:02.000Z</time>
      </trkpt>
      <trkpt lat="54.621194" lon="-2.799887">
        <ele>177.300257</ele>
        <time>2020-06-21T09:14:20.000Z</time>
      </trkpt>
      <trkpt lat="54.621916" lon="-2.79881">
        <ele>174.57448</ele>
        <time>2020-06-21T09:14:31.000Z</time>
      </trkpt>
      <trkpt lat="54.62341" lon="-2.797211">
        <ele>169.568335</ele>
        <time>2020-06-21T09:14:51.000Z</time>
      </trkpt>
      <trkpt lat="54.624158" lon="-2.79641">
        <ele>167.1156</ele>
        <time>2020-06-21T09:15:01.000Z</time>
      </trkpt>
      <trkpt lat="54.625396" lon="-2.795344">
        <ele>163.759653</ele>
        <time>2020-06-21T09:15:16.000Z</time>
      </trkpt>
      <trkpt lat="54.626069" lon="-2.794651">
        <ele>162.233121</ele>
        <time>2020-06-21T09:15:25.000Z</time>
      </trkpt>
      <trkpt lat="54.626308" lon="-2.794469">
        <ele>161.716488</ele>
        <time>2020-06-21T09:15:28.000Z</time>
      </trkpt>
      <trkpt lat="54.626816" lon="-2.794325">
        <ele>161.499258</ele>
        <time>2020-06-21T09:15:34.000Z</time>
      </trkpt>
      <trkpt lat="54.627293" lon="-2.793905">
        <ele>161.563215</ele>
        <time>2020-06-21T09:15:40.000Z</time>
      </trkpt>
      <trkpt lat="54.627492" lon="-2.793472">
        <ele>161.601798</ele>
        <time>2020-06-21T09:15:44.000Z</time>
      </trkpt>
      <trkpt lat="54.627622" lon="-2.793127">
        <ele>161.629149</ele>
        <time>2020-06-21T09:15:47.000Z</time>
      </trkpt>
      <trkpt lat="54.627763" lon="-2.792435">
        <ele>161.749422</ele>
        <time>2020-06-21T09:15:52.000Z</time>
      </trkpt>
      <trkpt lat="54.627849" lon="-2.79161">
        <ele>162.161214</ele>
        <time>2020-06-21T09:15:57.000Z</time>
      </trkpt>
      <trkpt lat="54.628029" lon="-2.790907">
        <ele>162.534987</ele>
        <time>2020-06-21T09:16:02.000Z</time>
      </trkpt>
      <trkpt lat="54.628069" lon="-2.790745">
        <ele>162.619953</ele>
        <time>2020-06-21T09:16:03.000Z</time>
      </trkpt>
      <trkpt lat="54.628089" lon="-2.790717">
        <ele>162.640154</ele>
        <time>2020-06-21T09:16:03.000Z</time>
      </trkpt>
      <trkpt lat="54.628134" lon="-2.790574">
        <ele>162.720715</ele>
        <time>2020-06-21T09:16:04.000Z</time>
      </trkpt>
      <trkpt lat="54.62863" lon="-2.789579">
        <ele>163.339336</ele>
        <time>2020-06-21T09:16:12.000Z</time>
      </trkpt>
      <trkpt lat="54.629202" lon="-2.788153">
        <ele>164.127713</ele>
        <time>2020-06-21T09:16:23.000Z</time>
      </trkpt>
      <trkpt lat="54.629374" lon="-2.787548">
        <ele>164.438319</ele>
        <time>2020-06-21T09:16:27.000Z</time>
      </trkpt>
      <trkpt lat="54.629401" lon="-2.786475">
        <ele>165.658405</ele>
        <time>2020-06-21T09:16:34.000Z</time>
      </trkpt>
      <trkpt lat="54.629227" lon="-2.784623">
        <ele>168.348184</ele>
        <time>2020-06-21T09:16:46.000Z</time>
      </trkpt>
      <trkpt lat="54.629224" lon="-2.783816">
        <ele>169.488584</ele>
        <time>2020-06-21T09:16:51.000Z</time>
      </trkpt>
      <trkpt lat="54.629246" lon="-2.783033">
        <ele>170.604028</ele>
        <time>2020-06-21T09:16:56.000Z</time>
      </trkpt>
      <trkpt lat="54.629317" lon="-2.782288">
        <ele>171.666137</ele>
        <time>2020-06-21T09:17:01.000Z</time>
      </trkpt>
      <trkpt lat="54.629392" lon="-2.781843">
        <ele>172.32745</ele>
        <time>2020-06-21T09:17:04.000Z</time>
      </trkpt>
      <trkpt lat="54.629597" lon="-2.781137">
        <ele>173.451088</ele>
        <time>2020-06-21T09:17:09.000Z</time>
      </trkpt>
      <trkpt lat="54.629775" lon="-2.780801">
        <ele>173.324917</ele>
        <time>2020-06-21T09:17:12.000Z</time>
      </trkpt>
      <trkpt lat="54.630404" lon="-2.779509">
        <ele>172.861113</ele>
        <time>2020-06-21T09:17:23.000Z</time>
      </trkpt>
      <trkpt lat="54.630591" lon="-2.779086">
        <ele>172.718183</ele>
        <time>2020-06-21T09:17:26.000Z</time>
      </trkpt>
      <trkpt lat="54.631165" lon="-2.777762">
        <ele>171.451681</ele>
        <time>2020-06-21T09:17:37.000Z</time>
      </trkpt>
      <trkpt lat="54.63144" lon="-2.777144">
        <ele>170.722387</ele>
        <time>2020-06-21T09:17:42.000Z</time>
      </trkpt>
      <trkpt lat="54.631499" lon="-2.776895">
        <ele>170.475262</ele>
        <time>2020-06-21T09:17:44.000Z</time>
      </trkpt>
      <trkpt lat="54.631548" lon="-2.776553">
        <ele>170.152526</ele>
        <time>2020-06-21T09:17:46.000Z</time>
      </trkpt>
      <trkpt lat="54.631695" lon="-2.776019">
        <ele>169.668761</ele>
        <time>2020-06-21T09:17:50.000Z</time>
      </trkpt>
      <trkpt lat="54.632253" lon="-2.77493">
        <ele>169.36635</ele>
        <time>2020-06-21T09:17:59.000Z</time>
      </trkpt>
      <trkpt lat="54.632357" lon="-2.774709">
        <ele>169.308619</ele>
        <time>2020-06-21T09:18:01.000Z</time>
      </trkpt>
      <trkpt lat="54.632504" lon="-2.7741">
        <ele>169.171737</ele>
        <time>2020-06-21T09:18:05.000Z</time>
      </trkpt>
      <trkpt lat="54.632669" lon="-2.773166">
        <ele>169.262002</ele>
        <time>2020-06-21T09:18:11.000Z</time>
      </trkpt>
      <trkpt lat="54.632703" lon="-2.773028">
        <ele>169.347232</ele>
        <time>2020-06-21T09:18:12.000Z</time>
      </trkpt>
      <trkpt lat="54.6327" lon="-2.772817">
        <ele>169.467678</ele>
        <time>2020-06-21T09:18:13.000Z</time>
      </trkpt>
      <trkpt lat="54.632706" lon="-2.772309">
        <ele>169.762143</ele>
        <time>2020-06-21T09:18:16.000Z</time>
      </trkpt>
      <trkpt lat="54.632722" lon="-2.771634">
        <ele>170.145401</ele>
        <time>2020-06-21T09:18:20.000Z</time>
      </trkpt>
      <trkpt lat="54.632761" lon="-2.770764">
        <ele>170.651951</ele>
        <time>2020-06-21T09:18:26.000Z</time>
      </trkpt>
      <trkpt lat="54.632863" lon="-2.770359">
        <ele>170.760419</ele>
        <time>2020-06-21T09:18:29.000Z</time>
      </trkpt>
      <trkpt lat="54.632985" lon="-2.770015">
        <ele>170.50278</ele>
        <time>2020-06-21T09:18:32.000Z</time>
      </trkpt>
      <trkpt lat="54.633083" lon="-2.769845">
        <ele>170.348232</ele>
        <time>2020-06-21T09:18:34.000Z</time>
      </trkpt>
      <trkpt lat="54.633235" lon="-2.769586">
        <ele>170.103981</ele>
        <time>2020-06-21T09:18:36.000Z</time>
      </trkpt>
      <trkpt lat="54.633796" lon="-2.769275">
        <ele>169.452913</ele>
        <time>2020-06-21T09:18:43.000Z</time>
      </trkpt>
      <trkpt lat="54.634421" lon="-2.768619">
        <ele>168.500643</ele>
        <time>2020-06-21T09:18:51.000Z</time>
      </trkpt>
      <trkpt lat="54.63472" lon="-2.768101">
        <ele>167.739176</ele>
        <time>2020-06-21T09:18:56.000Z</time>
      </trkpt>
      <trkpt lat="54.635301" lon="-2.767051">
        <ele>166.23985</ele>
        <time>2020-06-21T09:19:05.000Z</time>
      </trkpt>
      <trkpt lat="54.63581" lon="-2.766106">
        <ele>165.287378</ele>
        <time>2020-06-21T09:19:13.000Z</time>
      </trkpt>
      <trkpt lat="54.636494" lon="-2.764803">
        <ele>164.468728</ele>
        <time>2020-06-21T09:19:24.000Z</time>
      </trkpt>
      <trkpt lat="54.637313" lon="-2.763208">
        <ele>163.190702</ele>
        <time>2020-06-21T09:19:38.000Z</time>
      </trkpt>
      <trkpt lat="54.63772" lon="-2.76247">
        <ele>162.532071</ele>
        <time>2020-06-21T09:19:45.000Z</time>
      </trkpt>
      <trkpt lat="54.638058" lon="-2.761898">
        <ele>161.877144</ele>
        <time>2020-06-21T09:19:50.000Z</time>
      </trkpt>
      <trkpt lat="54.638237" lon="-2.761677">
        <ele>161.455495</ele>
        <time>2020-06-21T09:19:52.000Z</time>
      </trkpt>
      <trkpt lat="54.638904" lon="-2.761226">
        <ele>160.008753</ele>
        <time>2020-06-21T09:20:00.000Z</time>
      </trkpt>
      <trkpt lat="54.640276" lon="-2.760054">
        <ele>158.285173</ele>
        <time>2020-06-21T09:20:17.000Z</time>
      </trkpt>
      <trkpt lat="54.640314" lon="-2.760031">
        <ele>158.278206</ele>
        <time>2020-06-21T09:20:17.000Z</time>
      </trkpt>
      <trkpt lat="54.640658" lon="-2.759753">
        <ele>158.188053</ele>
        <time>2020-06-21T09:20:21.000Z</time>
      </trkpt>
      <trkpt lat="54.63967" lon="-2.759765">
        <ele>159.314589</ele>
        <time>2020-06-21T09:20:32.000Z</time>
      </trkpt>
      <trkpt lat="54.637002" lon="-2.759565">
        <ele>168.699923</ele>
        <time>2020-06-21T09:21:02.000Z</time>
      </trkpt>
      <trkpt lat="54.633881" lon="-2.759318">
        <ele>178.533715</ele>
        <time>2020-06-21T09:21:37.000Z</time>
      </trkpt>
      <trkpt lat="54.632514" lon="-2.759321">
        <ele>182.299491</ele>
        <time>2020-06-21T09:21:52.000Z</time>
      </trkpt>
      <trkpt lat="54.631665" lon="-2.759519">
        <ele>184.711716</ele>
        <time>2020-06-21T09:22:02.000Z</time>
      </trkpt>
      <trkpt lat="54.630967" lon="-2.759268">
        <ele>186.771016</ele>
        <time>2020-06-21T09:22:10.000Z</time>
      </trkpt>
      <trkpt lat="54.629965" lon="-2.758785">
        <ele>190.182551</ele>
        <time>2020-06-21T09:22:22.000Z</time>
      </trkpt>
      <trkpt lat="54.628217" lon="-2.757995">
        <ele>195.613166</ele>
        <time>2020-06-21T09:22:42.000Z</time>
      </trkpt>
      <trkpt lat="54.626697" lon="-2.7571">
        <ele>199.272447</ele>
        <time>2020-06-21T09:23:00.000Z</time>
      </trkpt>
      <trkpt lat="54.624791" lon="-2.75633">
        <ele>202.80571</ele>
        <time>2020-06-21T09:23:22.000Z</time>
      </trkpt>
      <trkpt lat="54.622402" lon="-2.75642">
        <ele>207.640574</ele>
        <time>2020-06-21T09:23:49.000Z</time>
      </trkpt>
      <trkpt lat="54.621778" lon="-2.756451">
        <ele>209.239985</ele>
        <time>2020-06-21T09:23:56.000Z</time>
      </trkpt>
      <trkpt lat="54.619461" lon="-2.756392">
        <ele>213.684777</ele>
        <time>2020-06-21T09:24:22.000Z</time>
      </trkpt>
      <trkpt lat="54.618921" lon="-2.756203">
        <ele>214.309146</ele>
        <time>2020-06-21T09:24:28.000Z</time>
      </trkpt>
      <trkpt lat="54.61789" lon="-2.755688">
        <ele>212.235124</ele>
        <time>2020-06-21T09:24:40.000Z</time>
      </trkpt>
      <trkpt lat="54.61736" lon="-2.755648">
        <ele>210.905104</ele>
        <time>2020-06-21T09:24:46.000Z</time>
      </trkpt>
      <trkpt lat="54.616848" lon="-2.755776">
        <ele>209.501168</ele>
        <time>2020-06-21T09:24:52.000Z</time>
      </trkpt>
      <trkpt lat="54.616257" lon="-2.75526">
        <ele>207.383574</ele>
        <time>2020-06-21T09:24:59.000Z</time>
      </trkpt>
      <trkpt lat="54.615102" lon="-2.755422">
        <ele>203.922612</ele>
        <time>2020-06-21T09:25:12.000Z</time>
      </trkpt>
      <trkpt lat="54.614431" lon="-2.755365">
        <ele>203.037019</ele>
        <time>2020-06-21T09:25:19.000Z</time>
      </trkpt>
      <trkpt lat="54.613409" lon="-2.755946">
        <ele>201.922765</ele>
        <time>2020-06-21T09:25:31.000Z</time>
      </trkpt>
      <trkpt lat="54.612652" lon="-2.7561">
        <ele>202.938413</ele>
        <time>2020-06-21T09:25:39.000Z</time>
      </trkpt>
      <trkpt lat="54.611512" lon="-2.756265">
        <ele>204.561459</ele>
        <time>2020-06-21T09:25:52.000Z</time>
      </trkpt>
      <trkpt lat="54.610303" lon="-2.756724">
        <ele>206.818997</ele>
        <time>2020-06-21T09:26:06.000Z</time>
      </trkpt>
      <trkpt lat="54.609506" lon="-2.756788">
        <ele>207.506676</ele>
        <time>2020-06-21T09:26:15.000Z</time>
      </trkpt>
      <trkpt lat="54.608012" lon="-2.757462">
        <ele>207.586565</ele>
        <time>2020-06-21T09:26:32.000Z</time>
      </trkpt>
      <trkpt lat="54.607357" lon="-2.756923">
        <ele>206.99512</ele>
        <time>2020-06-21T09:26:40.000Z</time>
      </trkpt>
      <trkpt lat="54.607099" lon="-2.756708">
        <ele>206.757136</ele>
        <time>2020-06-21T09:26:43.000Z</time>
      </trkpt>
      <trkpt lat="54.607066" lon="-2.756674">
        <ele>206.721614</ele>
        <time>2020-06-21T09:26:43.000Z</time>
      </trkpt>
      <trkpt lat="54.606753" lon="-2.75618">
        <ele>206.366757</ele>
        <time>2020-06-21T09:26:48.000Z</time>
      </trkpt>
      <trkpt lat="54.606482" lon="-2.75596">
        <ele>206.065075</ele>
        <time>2020-06-21T09:26:51.000Z</time>
      </trkpt>
      <trkpt lat="54.60636" lon="-2.755922">
        <ele>205.938244</ele>
        <time>2020-06-21T09:26:52.000Z</time>
      </trkpt>
      <trkpt lat="54.605913" lon="-2.755788">
        <ele>205.403222</ele>
        <time>2020-06-21T09:26:57.000Z</time>
      </trkpt>
      <trkpt lat="54.60584" lon="-2.755683">
        <ele>205.311493</ele>
        <time>2020-06-21T09:26:58.000Z</time>
      </trkpt>
      <trkpt lat="54.605704" lon="-2.755342">
        <ele>205.028677</ele>
        <time>2020-06-21T09:27:01.000Z</time>
      </trkpt>
      <trkpt lat="54.605623" lon="-2.755219">
        <ele>204.896585</ele>
        <time>2020-06-21T09:27:02.000Z</time>
      </trkpt>
      <trkpt lat="54.605521" lon="-2.755115">
        <ele>204.774468</ele>
        <time>2020-06-21T09:27:03.000Z</time>
      </trkpt>
      <trkpt lat="54.605256" lon="-2.754863">
        <ele>204.417387</ele>
        <time>2020-06-21T09:27:06.000Z</time>
      </trkpt>
      <trkpt lat="54.604849" lon="-2.754456">
        <ele>203.655141</ele>
        <time>2020-06-21T09:27:11.000Z</time>
      </trkpt>
      <trkpt lat="54.60447" lon="-2.75411">
        <ele>202.792008</ele>
        <time>2020-06-21T09:27:16.000Z</time>
      </trkpt>
      <trkpt lat="54.603429" lon="-2.753249">
        <ele>200.523047</ele>
        <time>2020-06-21T09:27:29.000Z</time>
      </trkpt>
      <trkpt lat="54.60227" lon="-2.752956">
        <ele>199.260505</ele>
        <time>2020-06-21T09:27:42.000Z</time>
      </trkpt>
      <trkpt lat="54.601997" lon="-2.752955">
        <ele>198.954718</ele>
        <time>2020-06-21T09:27:45.000Z</time>
      </trkpt>
      <trkpt lat="54.601738" lon="-2.753072">
        <ele>198.66339</ele>
        <time>2020-06-21T09:27:48.000Z</time>
      </trkpt>
      <trkpt lat="54.600016" lon="-2.754201">
        <ele>201.091333</ele>
        <time>2020-06-21T09:28:08.000Z</time>
      </trkpt>
      <trkpt lat="54.599693" lon="-2.754271">
        <ele>201.533117</ele>
        <time>2020-06-21T09:28:12.000Z</time>
      </trkpt>
      <trkpt lat="54.599546" lon="-2.754286">
        <ele>201.737558</ele>
        <time>2020-06-21T09:28:14.000Z</time>
      </trkpt>
      <trkpt lat="54.599045" lon="-2.754492">
        <ele>202.427974</ele>
        <time>2020-06-21T09:28:20.000Z</time>
      </trkpt>
      <trkpt lat="54.597973" lon="-2.75543">
        <ele>203.640656</ele>
        <time>2020-06-21T09:28:33.000Z</time>
      </trkpt>
      <trkpt lat="54.597739" lon="-2.755534">
        <ele>203.738822</ele>
        <time>2020-06-21T09:28:36.000Z</time>
      </trkpt>
      <trkpt lat="54.597503" lon="-2.75556">
        <ele>203.830356</ele>
        <time>2020-06-21T09:28:39.000Z</time>
      </trkpt>
      <trkpt lat="54.596039" lon="-2.755128">
        <ele>204.468222</ele>
        <time>2020-06-21T09:28:56.000Z</time>
      </trkpt>
      <trkpt lat="54.59498" lon="-2.755179">
        <ele>204.983227</ele>
        <time>2020-06-21T09:29:08.000Z</time>
      </trkpt>
      <trkpt lat="54.594046" lon="-2.755884">
        <ele>206.534841</ele>
        <time>2020-06-21T09:29:19.000Z</time>
      </trkpt>
      <trkpt lat="54.593668" lon="-2.756298">
        <ele>207.287567</ele>
        <time>2020-06-21T09:29:24.000Z</time>
      </trkpt>
      <trkpt lat="54.593077" lon="-2.756541">
        <ele>208.285588</ele>
        <time>2020-06-21T09:29:31.000Z</time>
      </trkpt>
      <trkpt lat="54.592689" lon="-2.756944">
        <ele>208.965212</ele>
        <time>2020-06-21T09:29:36.000Z</time>
      </trkpt>
      <trkpt lat="54.592548" lon="-2.757236">
        <ele>209.307917</ele>
        <time>2020-06-21T09:29:38.000Z</time>
      </trkpt>
      <trkpt lat="54.592324" lon="-2.757674">
        <ele>209.805968</ele>
        <time>2020-06-21T09:29:42.000Z</time>
      </trkpt>
      <trkpt lat="54.592118" lon="-2.757926">
        <ele>210.206618</ele>
        <time>2020-06-21T09:29:45.000Z</time>
      </trkpt>
      <trkpt lat="54.591811" lon="-2.758144">
        <ele>210.70834</ele>
        <time>2020-06-21T09:29:49.000Z</time>
      </trkpt>
      <trkpt lat="54.590699" lon="-2.75829">
        <ele>210.563578</ele>
        <time>2020-06-21T09:30:01.000Z</time>
      </trkpt>
      <trkpt lat="54.59044" lon="-2.758371">
        <ele>210.498879</ele>
        <time>2020-06-21T09:30:04.000Z</time>
      </trkpt>
      <trkpt lat="54.590254" lon="-2.758436">
        <ele>210.447821</ele>
        <time>2020-06-21T09:30:06.000Z</time>
      </trkpt>
      <trkpt lat="54.589472" lon="-2.758507">
        <ele>211.01958</ele>
        <time>2020-06-21T09:30:15.000Z</time>
      </trkpt>
      <trkpt lat="54.589295" lon="-2.758521">
        <ele>211.249974</ele>
        <time>2020-06-21T09:30:17.000Z</time>
      </trkpt>
      <trkpt lat="54.589179" lon="-2.758578">
        <ele>211.417493</ele>
        <time>2020-06-21T09:30:18.000Z</time>
      </trkpt>
      <trkpt lat="54.588512" lon="-2.759073">
        <ele>212.403831</ele>
        <time>2020-06-21T09:30:26.000Z</time>
      </trkpt>
      <trkpt lat="54.588122" lon="-2.759574">
        <ele>213.249733</ele>
        <time>2020-06-21T09:30:31.000Z</time>
      </trkpt>
      <trkpt lat="54.587929" lon="-2.759919">
        <ele>213.919993</ele>
        <time>2020-06-21T09:30:34.000Z</time>
      </trkpt>
      <trkpt lat="54.587811" lon="-2.760044">
        <ele>214.22399</ele>
        <time>2020-06-21T09:30:36.000Z</time>
      </trkpt>
      <trkpt lat="54.587021" lon="-2.760572">
        <ele>216.243659</ele>
        <time>2020-06-21T09:30:45.000Z</time>
      </trkpt>
      <trkpt lat="54.586498" lon="-2.76076">
        <ele>217.372365</ele>
        <time>2020-06-21T09:30:51.000Z</time>
      </trkpt>
      <trkpt lat="54.586438" lon="-2.760805">
        <ele>217.494013</ele>
        <time>2020-06-21T09:30:52.000Z</time>
      </trkpt>
      <trkpt lat="54.58636" lon="-2.760881">
        <ele>217.62615</ele>
        <time>2020-06-21T09:30:53.000Z</time>
      </trkpt>
      <trkpt lat="54.585504" lon="-2.762575">
        <ele>219.718245</ele>
        <time>2020-06-21T09:31:07.000Z</time>
      </trkpt>
      <trkpt lat="54.585454" lon="-2.762633">
        <ele>219.813404</ele>
        <time>2020-06-21T09:31:08.000Z</time>
      </trkpt>
      <trkpt lat="54.585348" lon="-2.762809">
        <ele>219.970571</ele>
        <time>2020-06-21T09:31:10.000Z</time>
      </trkpt>
      <trkpt lat="54.585077" lon="-2.763203">
        <ele>220.002294</ele>
        <time>2020-06-21T09:31:14.000Z</time>
      </trkpt>
      <trkpt lat="54.583997" lon="-2.764039">
        <ele>220.110949</ele>
        <time>2020-06-21T09:31:27.000Z</time>
      </trkpt>
      <trkpt lat="54.583544" lon="-2.764366">
        <ele>219.323637</ele>
        <time>2020-06-21T09:31:32.000Z</time>
      </trkpt>
      <trkpt lat="54.582953" lon="-2.764626">
        <ele>217.611576</ele>
        <time>2020-06-21T09:31:39.000Z</time>
      </trkpt>
      <trkpt lat="54.582576" lon="-2.764789">
        <ele>216.509504</ele>
        <time>2020-06-21T09:31:43.000Z</time>
      </trkpt>
      <trkpt lat="54.582485" lon="-2.764813">
        <ele>216.238893</ele>
        <time>2020-06-21T09:31:44.000Z</time>
      </trkpt>
      <trkpt lat="54.582426" lon="-2.764821">
        <ele>216.038515</ele>
        <time>2020-06-21T09:31:45.000Z</time>
      </trkpt>
      <trkpt lat="54.580903" lon="-2.764829">
        <ele>209.606636</ele>
        <time>2020-06-21T09:32:02.000Z</time>
      </trkpt>
      <trkpt lat="54.579652" lon="-2.764627">
        <ele>203.689692</ele>
        <time>2020-06-21T09:32:16.000Z</time>
      </trkpt>
      <trkpt lat="54.577705" lon="-2.763527">
        <ele>194.455322</ele>
        <time>2020-06-21T09:32:39.000Z</time>
      </trkpt>
      <trkpt lat="54.577145" lon="-2.76286">
        <ele>191.715802</ele>
        <time>2020-06-21T09:32:47.000Z</time>
      </trkpt>
      <trkpt lat="54.576077" lon="-2.760773">
        <ele>186.497668</ele>
        <time>2020-06-21T09:33:05.000Z</time>
      </trkpt>
      <trkpt lat="54.575717" lon="-2.760521">
        <ele>185.258007</ele>
        <time>2020-06-21T09:33:09.000Z</time>
      </trkpt>
      <trkpt lat="54.57504" lon="-2.759625">
        <ele>182.997083</ele>
        <time>2020-06-21T09:33:18.000Z</time>
      </trkpt>
      <trkpt lat="54.574702" lon="-2.759138">
        <ele>181.833218</ele>
        <time>2020-06-21T09:33:23.000Z</time>
      </trkpt>
      <trkpt lat="54.574671" lon="-2.759076">
        <ele>181.697095</ele>
        <time>2020-06-21T09:33:24.000Z</time>
      </trkpt>
      <trkpt lat="54.574559" lon="-2.758858">
        <ele>181.257683</ele>
        <time>2020-06-21T09:33:26.000Z</time>
      </trkpt>
      <trkpt lat="54.574222" lon="-2.758626">
        <ele>180.331235</ele>
        <time>2020-06-21T09:33:30.000Z</time>
      </trkpt>
      <trkpt lat="54.57127" lon="-2.757746">
        <ele>176.17987</ele>
        <time>2020-06-21T09:34:03.000Z</time>
      </trkpt>
      <trkpt lat="54.570629" lon="-2.757769">
        <ele>175.501504</ele>
        <time>2020-06-21T09:34:10.000Z</time>
      </trkpt>
      <trkpt lat="54.569388" lon="-2.758172">
        <ele>175.17379</ele>
        <time>2020-06-21T09:34:24.000Z</time>
      </trkpt>
      <trkpt lat="54.568897" lon="-2.758116">
        <ele>175.053325</ele>
        <time>2020-06-21T09:34:29.000Z</time>
      </trkpt>
      <trkpt lat="54.568861" lon="-2.758129">
        <ele>175.065678</ele>
        <time>2020-06-21T09:34:29.000Z</time>
      </trkpt>
      <trkpt lat="54.568582" lon="-2.758179">
        <ele>175.144112</ele>
        <time>2020-06-21T09:34:32.000Z</time>
      </trkpt>
      <trkpt lat="54.56841" lon="-2.758109">
        <ele>175.196093</ele>
        <time>2020-06-21T09:34:34.000Z</time>
      </trkpt>
      <trkpt lat="54.568231" lon="-2.758047">
        <ele>175.244473</ele>
        <time>2020-06-21T09:34:36.000Z</time>
      </trkpt>
      <trkpt lat="54.567808" lon="-2.758023">
        <ele>175.365302</ele>
        <time>2020-06-21T09:34:41.000Z</time>
      </trkpt>
      <trkpt lat="54.567411" lon="-2.758129">
        <ele>175.479377</ele>
        <time>2020-06-21T09:34:45.000Z</time>
      </trkpt>
      <trkpt lat="54.56664" lon="-2.758246">
        <ele>175.702438</ele>
        <time>2020-06-21T09:34:54.000Z</time>
      </trkpt>
      <trkpt lat="54.566611" lon="-2.758237">
        <ele>175.711507</ele>
        <time>2020-06-21T09:34:54.000Z</time>
      </trkpt>
      <trkpt lat="54.565781" lon="-2.758112">
        <ele>175.942286</ele>
        <time>2020-06-21T09:35:03.000Z</time>
      </trkpt>
      <trkpt lat="54.565253" lon="-2.757851">
        <ele>176.085739</ele>
        <time>2020-06-21T09:35:09.000Z</time>
      </trkpt>
      <trkpt lat="54.564841" lon="-2.75781">
        <ele>176.143341</ele>
        <time>2020-06-21T09:35:14.000Z</time>
      </trkpt>
      <trkpt lat="54.56443" lon="-2.757939">
        <ele>176.204904</ele>
        <time>2020-06-21T09:35:19.000Z</time>
      </trkpt>
      <trkpt lat="54.563702" lon="-2.757792">
        <ele>176.310889</ele>
        <time>2020-06-21T09:35:27.000Z</time>
      </trkpt>
      <trkpt lat="54.562861" lon="-2.757615">
        <ele>177.307009</ele>
        <time>2020-06-21T09:35:36.000Z</time>
      </trkpt>
      <trkpt lat="54.562804" lon="-2.757637">
        <ele>177.393865</ele>
        <time>2020-06-21T09:35:37.000Z</time>
      </trkpt>
      <trkpt lat="54.562291" lon="-2.757834">
        <ele>178.113763</ele>
        <time>2020-06-21T09:35:43.000Z</time>
      </trkpt>
      <trkpt lat="54.561914" lon="-2.758107">
        <ele>178.656014</ele>
        <time>2020-06-21T09:35:48.000Z</time>
      </trkpt>
      <trkpt lat="54.561733" lon="-2.758134">
        <ele>179.004643</ele>
        <time>2020-06-21T09:35:50.000Z</time>
      </trkpt>
      <trkpt lat="54.56116" lon="-2.757903">
        <ele>180.285846</ele>
        <time>2020-06-21T09:35:57.000Z</time>
      </trkpt>
      <trkpt lat="54.560789" lon="-2.757454">
        <ele>181.271917</ele>
        <time>2020-06-21T09:36:02.000Z</time>
      </trkpt>
      <trkpt lat="54.56025" lon="-2.756649">
        <ele>182.816812</ele>
        <time>2020-06-21T09:36:10.000Z</time>
      </trkpt>
      <trkpt lat="54.559961" lon="-2.756392">
        <ele>183.246558</ele>
        <time>2020-06-21T09:36:14.000Z</time>
      </trkpt>
      <trkpt lat="54.559623" lon="-2.756201">
        <ele>183.74257</ele>
        <time>2020-06-21T09:36:18.000Z</time>
      </trkpt>
      <trkpt lat="54.559334" lon="-2.756137">
        <ele>184.163885</ele>
        <time>2020-06-21T09:36:21.000Z</time>
      </trkpt>
      <trkpt lat="54.559119" lon="-2.755854">
        <ele>184.512534</ele>
        <time>2020-06-21T09:36:24.000Z</time>
      </trkpt>
      <trkpt lat="54.558776" lon="-2.754947">
        <ele>185.122405</ele>
        <time>2020-06-21T09:36:31.000Z</time>
      </trkpt>
      <trkpt lat="54.55803" lon="-2.754011">
        <ele>184.211163</ele>
        <time>2020-06-21T09:36:41.000Z</time>
      </trkpt>
      <trkpt lat="54.557792" lon="-2.753459">
        <ele>183.812606</ele>
        <time>2020-06-21T09:36:45.000Z</time>
      </trkpt>
      <trkpt lat="54.557528" lon="-2.752862">
        <ele>183.312815</ele>
        <time>2020-06-21T09:36:50.000Z</time>
      </trkpt>
      <trkpt lat="54.557339" lon="-2.75263">
        <ele>182.835566</ele>
        <time>2020-06-21T09:36:53.000Z</time>
      </trkpt>
      <trkpt lat="54.557118" lon="-2.752323">
        <ele>182.260333</ele>
        <time>2020-06-21T09:36:56.000Z</time>
      </trkpt>
      <trkpt lat="54.557015" lon="-2.752052">
        <ele>181.889806</ele>
        <time>2020-06-21T09:36:58.000Z</time>
      </trkpt>
      <trkpt lat="54.556987" lon="-2.751806">
        <ele>181.606241</ele>
        <time>2020-06-21T09:37:00.000Z</time>
      </trkpt>
      <trkpt lat="54.556956" lon="-2.751717">
        <ele>181.483061</ele>
        <time>2020-06-21T09:37:01.000Z</time>
      </trkpt>
      <trkpt lat="54.556726" lon="-2.751476">
        <ele>180.936499</ele>
        <time>2020-06-21T09:37:04.000Z</time>
      </trkpt>
      <trkpt lat="54.55664" lon="-2.751455">
        <ele>180.773416</ele>
        <time>2020-06-21T09:37:05.000Z</time>
      </trkpt>
      <trkpt lat="54.556614" lon="-2.751336">
        <ele>180.63071</ele>
        <time>2020-06-21T09:37:06.000Z</time>
      </trkpt>
      <trkpt lat="54.556542" lon="-2.750827">
        <ele>180.024166</ele>
        <time>2020-06-21T09:37:09.000Z</time>
      </trkpt>
      <trkpt lat="54.556597" lon="-2.749984">
        <ele>179.417477</ele>
        <time>2020-06-21T09:37:14.000Z</time>
      </trkpt>
      <trkpt lat="54.55653" lon="-2.748864">
        <ele>178.695699</ele>
        <time>2020-06-21T09:37:21.000Z</time>
      </trkpt>
      <trkpt lat="54.556448" lon="-2.748637">
        <ele>178.527425</ele>
        <time>2020-06-21T09:37:23.000Z</time>
      </trkpt>
      <trkpt lat="54.556389" lon="-2.748399">
        <ele>178.361902</ele>
        <time>2020-06-21T09:37:25.000Z</time>
      </trkpt>
      <trkpt lat="54.556044" lon="-2.747007">
        <ele>177.710747</ele>
        <time>2020-06-21T09:37:35.000Z</time>
      </trkpt>
      <trkpt lat="54.555727" lon="-2.746151">
        <ele>177.467111</ele>
        <time>2020-06-21T09:37:42.000Z</time>
      </trkpt>
      <trkpt lat="54.555697" lon="-2.746065">
        <ele>177.447749</ele>
        <time>2020-06-21T09:37:43.000Z</time>
      </trkpt>
      <trkpt lat="54.555649" lon="-2.745911">
        <ele>177.407182</ele>
        <time>2020-06-21T09:37:44.000Z</time>
      </trkpt>
      <trkpt lat="54.555563" lon="-2.745517">
        <ele>177.307652</ele>
        <time>2020-06-21T09:37:47.000Z</time>
      </trkpt>
      <trkpt lat="54.555442" lon="-2.745061">
        <ele>177.192068</ele>
        <time>2020-06-21T09:37:50.000Z</time>
      </trkpt>
      <trkpt lat="54.555269" lon="-2.744377">
        <ele>177.352863</ele>
        <time>2020-06-21T09:37:55.000Z</time>
      </trkpt>
      <trkpt lat="54.554905" lon="-2.743537">
        <ele>177.663071</ele>
        <time>2020-06-21T09:38:02.000Z</time>
      </trkpt>
      <trkpt lat="54.554709" lon="-2.743123">
        <ele>177.823971</ele>
        <time>2020-06-21T09:38:05.000Z</time>
      </trkpt>
      <trkpt lat="54.554672" lon="-2.742993">
        <ele>177.866148</ele>
        <time>2020-06-21T09:38:06.000Z</time>
      </trkpt>
      <trkpt lat="54.55473" lon="-2.742912">
        <ele>177.900005</ele>
        <time>2020-06-21T09:38:07.000Z</time>
      </trkpt>
      <trkpt lat="54.554913" lon="-2.742861">
        <ele>177.995728</ele>
        <time>2020-06-21T09:38:09.000Z</time>
      </trkpt>
      <trkpt lat="54.554955" lon="-2.742786">
        <ele>178.02733</ele>
        <time>2020-06-21T09:38:10.000Z</time>
      </trkpt>
      <trkpt lat="54.555197" lon="-2.742276">
        <ele>178.492344</ele>
        <time>2020-06-21T09:38:14.000Z</time>
      </trkpt>
      <trkpt lat="54.555312" lon="-2.741934">
        <ele>178.841656</ele>
        <time>2020-06-21T09:38:17.000Z</time>
      </trkpt>
      <trkpt lat="54.555444" lon="-2.741567">
        <ele>179.203508</ele>
        <time>2020-06-21T09:38:20.000Z</time>
      </trkpt>
      <trkpt lat="54.555514" lon="-2.741203">
        <ele>179.527171</ele>
        <time>2020-06-21T09:38:22.000Z</time>
      </trkpt>
      <trkpt lat="54.555513" lon="-2.741142">
        <ele>179.574106</ele>
        <time>2020-06-21T09:38:22.000Z</time>
      </trkpt>
      <trkpt lat="54.555545" lon="-2.740826">
        <ele>179.849627</ele>
        <time>2020-06-21T09:38:24.000Z</time>
      </trkpt>
      <trkpt lat="54.555583" lon="-2.740157">
        <ele>180.433266</ele>
        <time>2020-06-21T09:38:28.000Z</time>
      </trkpt>
      <trkpt lat="54.555669" lon="-2.739636">
        <ele>181.194315</ele>
        <time>2020-06-21T09:38:31.000Z</time>
      </trkpt>
      <trkpt lat="54.555798" lon="-2.738949">
        <ele>183.087001</ele>
        <time>2020-06-21T09:38:36.000Z</time>
      </trkpt>
      <trkpt lat="54.555865" lon="-2.738601">
        <ele>184.071733</ele>
        <time>2020-06-21T09:38:38.000Z</time>
      </trkpt>
      <trkpt lat="54.556024" lon="-2.738087">
        <ele>185.572868</ele>
        <time>2020-06-21T09:38:42.000Z</time>
      </trkpt>
      <trkpt lat="54.556224" lon="-2.737561">
        <ele>187.25925</ele>
        <time>2020-06-21T09:38:46.000Z</time>
      </trkpt>
      <trkpt lat="54.556323" lon="-2.736985">
        <ele>188.814846</ele>
        <time>2020-06-21T09:38:50.000Z</time>
      </trkpt>
      <trkpt lat="54.556343" lon="-2.736943">
        <ele>188.971217</ele>
        <time>2020-06-21T09:38:50.000Z</time>
      </trkpt>
      <trkpt lat="54.556203" lon="-2.735693">
        <ele>193.008849</ele>
        <time>2020-06-21T09:38:58.000Z</time>
      </trkpt>
      <trkpt lat="54.555847" lon="-2.734042">
        <ele>198.567221</ele>
        <time>2020-06-21T09:39:09.000Z</time>
      </trkpt>
      <trkpt lat="54.555821" lon="-2.732439">
        <ele>202.716188</ele>
        <time>2020-06-21T09:39:19.000Z</time>
      </trkpt>
      <trkpt lat="54.555847" lon="-2.731803">
        <ele>204.32373</ele>
        <time>2020-06-21T09:39:23.000Z</time>
      </trkpt>
      <trkpt lat="54.556141" lon="-2.730804">
        <ele>207.243944</ele>
        <time>2020-06-21T09:39:30.000Z</time>
      </trkpt>
      <trkpt lat="54.556309" lon="-2.730392">
        <ele>208.734967</ele>
        <time>2020-06-21T09:39:33.000Z</time>
      </trkpt>
      <trkpt lat="54.556908" lon="-2.729678">
        <ele>212.374802</ele>
        <time>2020-06-21T09:39:41.000Z</time>
      </trkpt>
      <trkpt lat="54.557268" lon="-2.729138">
        <ele>214.761686</ele>
        <time>2020-06-21T09:39:46.000Z</time>
      </trkpt>
      <trkpt lat="54.557399" lon="-2.728822">
        <ele>216.042807</ele>
        <time>2020-06-21T09:39:49.000Z</time>
      </trkpt>
      <trkpt lat="54.557398" lon="-2.728458">
        <ele>217.475383</ele>
        <time>2020-06-21T09:39:51.000Z</time>
      </trkpt>
      <trkpt lat="54.55731" lon="-2.72718">
        <ele>222.744026</ele>
        <time>2020-06-21T09:39:59.000Z</time>
      </trkpt>
      <trkpt lat="54.557426" lon="-2.725234">
        <ele>231.173481</ele>
        <time>2020-06-21T09:40:12.000Z</time>
      </trkpt>
      <trkpt lat="54.557418" lon="-2.72475">
        <ele>233.500721</ele>
        <time>2020-06-21T09:40:15.000Z</time>
      </trkpt>
      <trkpt lat="54.55725" lon="-2.723632">
        <ele>239.090576</ele>
        <time>2020-06-21T09:40:22.000Z</time>
      </trkpt>
      <trkpt lat="54.557204" lon="-2.723489">
        <ele>239.902426</ele>
        <time>2020-06-21T09:40:23.000Z</time>
      </trkpt>
      <trkpt lat="54.556869" lon="-2.723074">
        <ele>243.359263</ele>
        <time>2020-06-21T09:40:28.000Z</time>
      </trkpt>
      <trkpt lat="54.556723" lon="-2.722769">
        <ele>245.012958</ele>
        <time>2020-06-21T09:40:31.000Z</time>
      </trkpt>
      <trkpt lat="54.556102" lon="-2.72117">
        <ele>253.381447</ele>
        <time>2020-06-21T09:40:43.000Z</time>
      </trkpt>
      <trkpt lat="54.555904" lon="-2.720436">
        <ele>256.826238</ele>
        <time>2020-06-21T09:40:48.000Z</time>
      </trkpt>
      <trkpt lat="54.555874" lon="-2.720156">
        <ele>257.495667</ele>
        <time>2020-06-21T09:40:50.000Z</time>
      </trkpt>
      <trkpt lat="54.555828" lon="-2.720057">
        <ele>257.796888</ele>
        <time>2020-06-21T09:40:51.000Z</time>
      </trkpt>
      <trkpt lat="54.55557" lon="-2.719793">
        <ele>258.943994</ele>
        <time>2020-06-21T09:40:54.000Z</time>
      </trkpt>
      <trkpt lat="54.55545" lon="-2.719746">
        <ele>259.46095</ele>
        <time>2020-06-21T09:40:55.000Z</time>
      </trkpt>
      <trkpt lat="54.555316" lon="-2.719791">
        <ele>259.961628</ele>
        <time>2020-06-21T09:40:57.000Z</time>
      </trkpt>
      <trkpt lat="54.555049" lon="-2.719763">
        <ele>261.071287</ele>
        <time>2020-06-21T09:41:00.000Z</time>
      </trkpt>
      <trkpt lat="54.553815" lon="-2.71907">
        <ele>264.704946</ele>
        <time>2020-06-21T09:41:14.000Z</time>
      </trkpt>
      <trkpt lat="54.553723" lon="-2.719062">
        <ele>264.840859</ele>
        <time>2020-06-21T09:41:15.000Z</time>
      </trkpt>
      <trkpt lat="54.553613" lon="-2.719121">
        <ele>264.994466</ele>
        <time>2020-06-21T09:41:16.000Z</time>
      </trkpt>
      <trkpt lat="54.553422" lon="-2.719283">
        <ele>265.319503</ele>
        <time>2020-06-21T09:41:18.000Z</time>
      </trkpt>
      <trkpt lat="54.552248" lon="-2.719389">
        <ele>266.909506</ele>
        <time>2020-06-21T09:41:31.000Z</time>
      </trkpt>
      <trkpt lat="54.551951" lon="-2.719319">
        <ele>267.253309</ele>
        <time>2020-06-21T09:41:34.000Z</time>
      </trkpt>
      <trkpt lat="54.551103" lon="-2.719029">
        <ele>268.222139</ele>
        <time>2020-06-21T09:41:44.000Z</time>
      </trkpt>
      <trkpt lat="54.550103" lon="-2.718382">
        <ele>269.730044</ele>
        <time>2020-06-21T09:41:56.000Z</time>
      </trkpt>
      <trkpt lat="54.549977" lon="-2.718099">
        <ele>270.054943</ele>
        <time>2020-06-21T09:41:58.000Z</time>
      </trkpt>
      <trkpt lat="54.549806" lon="-2.717743">
        <ele>270.455328</ele>
        <time>2020-06-21T09:42:01.000Z</time>
      </trkpt>
      <trkpt lat="54.549741" lon="-2.71759">
        <ele>270.628843</ele>
        <time>2020-06-21T09:42:02.000Z</time>
      </trkpt>
      <trkpt lat="54.549253" lon="-2.71711">
        <ele>271.418776</ele>
        <time>2020-06-21T09:42:08.000Z</time>
      </trkpt>
      <trkpt lat="54.548843" lon="-2.716453">
        <ele>272.100947</ele>
        <time>2020-06-21T09:42:14.000Z</time>
      </trkpt>
      <trkpt lat="54.548544" lon="-2.716186">
        <ele>272.492874</ele>
        <time>2020-06-21T09:42:18.000Z</time>
      </trkpt>
      <trkpt lat="54.548516" lon="-2.716152">
        <ele>272.535637</ele>
        <time>2020-06-21T09:42:18.000Z</time>
      </trkpt>
      <trkpt lat="54.547353" lon="-2.714221">
        <ele>274.23483</ele>
        <time>2020-06-21T09:42:36.000Z</time>
      </trkpt>
      <trkpt lat="54.547224" lon="-2.713772">
        <ele>274.496392</ele>
        <time>2020-06-21T09:42:39.000Z</time>
      </trkpt>
      <trkpt lat="54.546991" lon="-2.713394">
        <ele>274.792535</ele>
        <time>2020-06-21T09:42:43.000Z</time>
      </trkpt>
      <trkpt lat="54.546046" lon="-2.71134">
        <ele>275.34337</ele>
        <time>2020-06-21T09:43:00.000Z</time>
      </trkpt>
      <trkpt lat="54.545775" lon="-2.710616">
        <ele>275.457212</ele>
        <time>2020-06-21T09:43:06.000Z</time>
      </trkpt>
      <trkpt lat="54.545683" lon="-2.710039">
        <ele>275.21351</ele>
        <time>2020-06-21T09:43:10.000Z</time>
      </trkpt>
      <trkpt lat="54.54552" lon="-2.709124">
        <ele>274.687579</ele>
        <time>2020-06-21T09:43:16.000Z</time>
      </trkpt>
      <trkpt lat="54.545409" lon="-2.708703">
        <ele>274.431628</ele>
        <time>2020-06-21T09:43:19.000Z</time>
      </trkpt>
      <trkpt lat="54.544897" lon="-2.707074">
        <ele>273.984097</ele>
        <time>2020-06-21T09:43:31.000Z</time>
      </trkpt>
      <trkpt lat="54.544712" lon="-2.706497">
        <ele>274.199424</ele>
        <time>2020-06-21T09:43:35.000Z</time>
      </trkpt>
      <trkpt lat="54.544308" lon="-2.705248">
        <ele>274.674191</ele>
        <time>2020-06-21T09:43:44.000Z</time>
      </trkpt>
      <trkpt lat="54.543016" lon="-2.702458">
        <ele>279.271826</ele>
        <time>2020-06-21T09:44:07.000Z</time>
      </trkpt>
      <trkpt lat="54.542234" lon="-2.701775">
        <ele>280.325902</ele>
        <time>2020-06-21T09:44:17.000Z</time>
      </trkpt>
      <trkpt lat="54.542065" lon="-2.701517">
        <ele>280.60535</ele>
        <time>2020-06-21T09:44:20.000Z</time>
      </trkpt>
      <trkpt lat="54.541863" lon="-2.700732">
        <ele>281.21246</ele>
        <time>2020-06-21T09:44:26.000Z</time>
      </trkpt>
      <trkpt lat="54.541402" lon="-2.699744">
        <ele>280.06145</ele>
        <time>2020-06-21T09:44:34.000Z</time>
      </trkpt>
      <trkpt lat="54.541175" lon="-2.699312">
        <ele>279.297779</ele>
        <time>2020-06-21T09:44:38.000Z</time>
      </trkpt>
      <trkpt lat="54.540721" lon="-2.698796">
        <ele>278.126279</ele>
        <time>2020-06-21T09:44:44.000Z</time>
      </trkpt>
      <trkpt lat="54.540228" lon="-2.698479">
        <ele>276.539778</ele>
        <time>2020-06-21T09:44:50.000Z</time>
      </trkpt>
      <trkpt lat="54.538237" lon="-2.69611">
        <ele>266.103225</ele>
        <time>2020-06-21T09:45:17.000Z</time>
      </trkpt>
      <trkpt lat="54.537733" lon="-2.695381">
        <ele>263.30851</ele>
        <time>2020-06-21T09:45:24.000Z</time>
      </trkpt>
      <trkpt lat="54.537467" lon="-2.694981">
        <ele>261.825956</ele>
        <time>2020-06-21T09:45:28.000Z</time>
      </trkpt>
      <trkpt lat="54.537437" lon="-2.69493">
        <ele>261.694829</ele>
        <time>2020-06-21T09:45:28.000Z</time>
      </trkpt>
      <trkpt lat="54.537066" lon="-2.694411">
        <ele>260.399559</ele>
        <time>2020-06-21T09:45:33.000Z</time>
      </trkpt>
      <trkpt lat="54.536601" lon="-2.69386">
        <ele>258.85264</ele>
        <time>2020-06-21T09:45:39.000Z</time>
      </trkpt>
      <trkpt lat="54.536561" lon="-2.693785">
        <ele>258.679566</ele>
        <time>2020-06-21T09:45:40.000Z</time>
      </trkpt>
      <trkpt lat="54.535889" lon="-2.692731">
        <ele>256.940541</ele>
        <time>2020-06-21T09:45:50.000Z</time>
      </trkpt>
      <trkpt lat="54.535609" lon="-2.692569">
        <ele>256.918058</ele>
        <time>2020-06-21T09:45:53.000Z</time>
      </trkpt>
      <trkpt lat="54.53535" lon="-2.692394">
        <ele>256.89792</ele>
        <time>2020-06-21T09:45:56.000Z</time>
      </trkpt>
      <trkpt lat="54.535119" lon="-2.692241">
        <ele>256.879299</ele>
        <time>2020-06-21T09:45:59.000Z</time>
      </trkpt>
      <trkpt lat="54.534903" lon="-2.69206">
        <ele>256.86164</ele>
        <time>2020-06-21T09:46:02.000Z</time>
      </trkpt>
      <trkpt lat="54.534076" lon="-2.691041">
        <ele>257.740191</ele>
        <time>2020-06-21T09:46:13.000Z</time>
      </trkpt>
      <trkpt lat="54.533513" lon="-2.690047">
        <ele>259.044783</ele>
        <time>2020-06-21T09:46:22.000Z</time>
      </trkpt>
      <trkpt lat="54.532956" lon="-2.689632">
        <ele>259.838762</ele>
        <time>2020-06-21T09:46:29.000Z</time>
      </trkpt>
      <trkpt lat="54.532507" lon="-2.689488">
        <ele>260.137415</ele>
        <time>2020-06-21T09:46:34.000Z</time>
      </trkpt>
      <trkpt lat="54.532314" lon="-2.68951">
        <ele>260.271072</ele>
        <time>2020-06-21T09:46:36.000Z</time>
      </trkpt>
      <trkpt lat="54.532233" lon="-2.689508">
        <ele>260.318944</ele>
        <time>2020-06-21T09:46:37.000Z</time>
      </trkpt>
      <trkpt lat="54.532134" lon="-2.689083">
        <ele>260.497582</ele>
        <time>2020-06-21T09:46:40.000Z</time>
      </trkpt>
      <trkpt lat="54.532047" lon="-2.688423">
        <ele>260.754757</ele>
        <time>2020-06-21T09:46:44.000Z</time>
      </trkpt>
      <trkpt lat="54.532079" lon="-2.687732">
        <ele>260.616934</ele>
        <time>2020-06-21T09:46:48.000Z</time>
      </trkpt>
      <trkpt lat="54.53221" lon="-2.686646">
        <ele>259.496967</ele>
        <time>2020-06-21T09:46:55.000Z</time>
      </trkpt>
      <trkpt lat="54.532421" lon="-2.685687">
        <ele>258.478713</ele>
        <time>2020-06-21T09:47:02.000Z</time>
      </trkpt>
      <trkpt lat="54.532336" lon="-2.684149">
        <ele>256.950705</ele>
        <time>2020-06-21T09:47:12.000Z</time>
      </trkpt>
      <trkpt lat="54.532397" lon="-2.683795">
        <ele>256.605221</ele>
        <time>2020-06-21T09:47:14.000Z</time>
      </trkpt>
      <trkpt lat="54.532427" lon="-2.68371">
        <ele>256.484586</ele>
        <time>2020-06-21T09:47:15.000Z</time>
      </trkpt>
      <trkpt lat="54.533022" lon="-2.682855">
        <ele>255.194196</ele>
        <time>2020-06-21T09:47:24.000Z</time>
      </trkpt>
      <trkpt lat="54.533381" lon="-2.682293">
        <ele>254.828238</ele>
        <time>2020-06-21T09:47:29.000Z</time>
      </trkpt>
      <trkpt lat="54.533878" lon="-2.681524">
        <ele>254.942711</ele>
        <time>2020-06-21T09:47:36.000Z</time>
      </trkpt>
      <trkpt lat="54.533991" lon="-2.681312">
        <ele>254.970765</ele>
        <time>2020-06-21T09:47:38.000Z</time>
      </trkpt>
      <trkpt lat="54.534034" lon="-2.681161">
        <ele>254.988662</ele>
        <time>2020-06-21T09:47:39.000Z</time>
      </trkpt>
      <trkpt lat="54.534045" lon="-2.680962">
        <ele>255.008375</ele>
        <time>2020-06-21T09:47:40.000Z</time>
      </trkpt>
      <trkpt lat="54.534018" lon="-2.680833">
        <ele>255.020741</ele>
        <time>2020-06-21T09:47:41.000Z</time>
      </trkpt>
      <trkpt lat="54.533915" lon="-2.680298">
        <ele>255.077866</ele>
        <time>2020-06-21T09:47:45.000Z</time>
      </trkpt>
      <trkpt lat="54.533748" lon="-2.679397">
        <ele>255.872731</ele>
        <time>2020-06-21T09:47:51.000Z</time>
      </trkpt>
      <trkpt lat="54.533717" lon="-2.679048">
        <ele>256.229799</ele>
        <time>2020-06-21T09:47:53.000Z</time>
      </trkpt>
      <trkpt lat="54.533744" lon="-2.679013">
        <ele>256.299857</ele>
        <time>2020-06-21T09:47:53.000Z</time>
      </trkpt>
      <trkpt lat="54.534167" lon="-2.678774">
        <ele>257.071835</ele>
        <time>2020-06-21T09:47:58.000Z</time>
      </trkpt>
      <trkpt lat="54.534301" lon="-2.678705">
        <ele>257.294339</ele>
        <time>2020-06-21T09:48:00.000Z</time>
      </trkpt>
      <trkpt lat="54.534378" lon="-2.678737">
        <ele>257.430894</ele>
        <time>2020-06-21T09:48:01.000Z</time>
      </trkpt>
      <trkpt lat="54.534496" lon="-2.678752">
        <ele>257.642839</ele>
        <time>2020-06-21T09:48:02.000Z</time>
      </trkpt>
      <trkpt lat="54.534755" lon="-2.678776">
        <ele>258.079953</ele>
        <time>2020-06-21T09:48:05.000Z</time>
      </trkpt>
      <trkpt lat="54.53502" lon="-2.678804">
        <ele>258.583502</ele>
        <time>2020-06-21T09:48:08.000Z</time>
      </trkpt>
      <trkpt lat="54.535297" lon="-2.678829">
        <ele>259.103055</ele>
        <time>2020-06-21T09:48:11.000Z</time>
      </trkpt>
      <trkpt lat="54.536025" lon="-2.678973">
        <ele>260.519168</ele>
        <time>2020-06-21T09:48:19.000Z</time>
      </trkpt>
      <trkpt lat="54.536828" lon="-2.679084">
        <ele>262.127769</ele>
        <time>2020-06-21T09:48:28.000Z</time>
      </trkpt>
      <trkpt lat="54.537642" lon="-2.679266">
        <ele>263.84829</ele>
        <time>2020-06-21T09:48:37.000Z</time>
      </trkpt>
      <trkpt lat="54.538488" lon="-2.679572">
        <ele>265.880167</ele>
        <time>2020-06-21T09:48:47.000Z</time>
      </trkpt>
      <trkpt lat="54.54002" lon="-2.68038">
        <ele>272.030646</ele>
        <time>2020-06-21T09:49:05.000Z</time>
      </trkpt>
      <trkpt lat="54.540561" lon="-2.680508">
        <ele>273.671889</ele>
        <time>2020-06-21T09:49:11.000Z</time>
      </trkpt>
      <trkpt lat="54.540965" lon="-2.680625">
        <ele>274.84992</ele>
        <time>2020-06-21T09:49:16.000Z</time>
      </trkpt>
      <trkpt lat="54.541135" lon="-2.680652">
        <ele>275.337164</ele>
        <time>2020-06-21T09:49:18.000Z</time>
      </trkpt>
      <trkpt lat="54.542764" lon="-2.68108">
        <ele>278.006144</ele>
        <time>2020-06-21T09:49:36.000Z</time>
      </trkpt>
      <trkpt lat="54.543233" lon="-2.681221">
        <ele>278.24736</ele>
        <time>2020-06-21T09:49:41.000Z</time>
      </trkpt>
      <trkpt lat="54.545498" lon="-2.682088">
        <ele>277.185645</ele>
        <time>2020-06-21T09:50:07.000Z</time>
      </trkpt>
      <trkpt lat="54.547045" lon="-2.682691">
        <ele>276.021625</ele>
        <time>2020-06-21T09:50:25.000Z</time>
      </trkpt>
      <trkpt lat="54.548251" lon="-2.683766">
        <ele>274.71784</ele>
        <time>2020-06-21T09:50:40.000Z</time>
      </trkpt>
      <trkpt lat="54.548939" lon="-2.684225">
        <ele>273.740766</ele>
        <time>2020-06-21T09:50:48.000Z</time>
      </trkpt>
      <trkpt lat="54.552316" lon="-2.685785">
        <ele>264.321996</ele>
        <time>2020-06-21T09:51:27.000Z</time>
      </trkpt>
      <trkpt lat="54.553488" lon="-2.686527">
        <ele>260.221404</ele>
        <time>2020-06-21T09:51:41.000Z</time>
      </trkpt>
      <trkpt lat="54.553972" lon="-2.686831">
        <ele>258.501654</ele>
        <time>2020-06-21T09:51:47.000Z</time>
      </trkpt>
      <trkpt lat="54.555791" lon="-2.687611">
        <ele>253.409777</ele>
        <time>2020-06-21T09:52:08.000Z</time>
      </trkpt>
      <trkpt lat="54.55675" lon="-2.687748">
        <ele>250.353548</ele>
        <time>2020-06-21T09:52:19.000Z</time>
      </trkpt>
      <trkpt lat="54.557528" lon="-2.687724">
        <ele>247.953867</ele>
        <time>2020-06-21T09:52:28.000Z</time>
      </trkpt>
      <trkpt lat="54.558784" lon="-2.687673">
        <ele>244.465864</ele>
        <time>2020-06-21T09:52:42.000Z</time>
      </trkpt>
      <trkpt lat="54.559203" lon="-2.687676">
        <ele>243.299709</ele>
        <time>2020-06-21T09:52:47.000Z</time>
      </trkpt>
      <trkpt lat="54.561507" lon="-2.68753">
        <ele>242.473496</ele>
        <time>2020-06-21T09:53:13.000Z</time>
      </trkpt>
      <trkpt lat="54.562288" lon="-2.687578">
        <ele>242.245938</ele>
        <time>2020-06-21T09:53:22.000Z</time>
      </trkpt>
      <trkpt lat="54.564622" lon="-2.687531">
        <ele>240.386772</ele>
        <time>2020-06-21T09:53:48.000Z</time>
      </trkpt>
      <trkpt lat="54.565382" lon="-2.687323">
        <ele>238.868975</ele>
        <time>2020-06-21T09:53:57.000Z</time>
      </trkpt>
      <trkpt lat="54.566965" lon="-2.686425">
        <ele>235.404347</ele>
        <time>2020-06-21T09:54:16.000Z</time>
      </trkpt>
      <trkpt lat="54.567803" lon="-2.686298">
        <ele>233.629775</ele>
        <time>2020-06-21T09:54:25.000Z</time>
      </trkpt>
      <trkpt lat="54.568495" lon="-2.686401">
        <ele>232.917667</ele>
        <time>2020-06-21T09:54:33.000Z</time>
      </trkpt>
      <trkpt lat="54.569096" lon="-2.6868">
        <ele>233.075689</ele>
        <time>2020-06-21T09:54:40.000Z</time>
      </trkpt>
      <trkpt lat="54.571168" lon="-2.688743">
        <ele>235.863593</ele>
        <time>2020-06-21T09:55:06.000Z</time>
      </trkpt>
      <trkpt lat="54.57368" lon="-2.690609">
        <ele>241.804448</ele>
        <time>2020-06-21T09:55:36.000Z</time>
      </trkpt>
      <trkpt lat="54.574432" lon="-2.691305">
        <ele>243.526551</ele>
        <time>2020-06-21T09:55:45.000Z</time>
      </trkpt>
      <trkpt lat="54.575572" lon="-2.692665">
        <ele>244.615074</ele>
        <time>2020-06-21T09:56:00.000Z</time>
      </trkpt>
      <trkpt lat="54.576431" lon="-2.693296">
        <ele>244.575019</ele>
        <time>2020-06-21T09:56:10.000Z</time>
      </trkpt>
      <trkpt lat="54.577372" lon="-2.694429">
        <ele>242.819233</ele>
        <time>2020-06-21T09:56:23.000Z</time>
      </trkpt>
      <trkpt lat="54.579305" lon="-2.695943">
        <ele>238.223301</ele>
        <time>2020-06-21T09:56:47.000Z</time>
      </trkpt>
      <trkpt lat="54.580205" lon="-2.696382">
        <ele>235.662513</ele>
        <time>2020-06-21T09:56:57.000Z</time>
      </trkpt>
      <trkpt lat="54.581227" lon="-2.696803">
        <ele>232.722215</ele>
        <time>2020-06-21T09:57:09.000Z</time>
      </trkpt>
      <trkpt lat="54.581628" lon="-2.697013">
        <ele>231.709536</ele>
        <time>2020-06-21T09:57:14.000Z</time>
      </trkpt>
      <trkpt lat="54.582097" lon="-2.69724">
        <ele>230.546287</ele>
        <time>2020-06-21T09:57:19.000Z</time>
      </trkpt>
      <trkpt lat="54.582901" lon="-2.697355">
        <ele>228.622485</ele>
        <time>2020-06-21T09:57:28.000Z</time>
      </trkpt>
      <trkpt lat="54.583756" lon="-2.697181">
        <ele>227.601736</ele>
        <time>2020-06-21T09:57:38.000Z</time>
      </trkpt>
      <trkpt lat="54.584599" lon="-2.697311">
        <ele>226.634056</ele>
        <time>2020-06-21T09:57:47.000Z</time>
      </trkpt>
      <trkpt lat="54.588633" lon="-2.69859">
        <ele>222.158374</ele>
        <time>2020-06-21T09:58:33.000Z</time>
      </trkpt>
      <trkpt lat="54.58881" lon="-2.698695">
        <ele>222.091923</ele>
        <time>2020-06-21T09:58:35.000Z</time>
      </trkpt>
      <trkpt lat="54.58903" lon="-2.698735">
        <ele>222.013061</ele>
        <time>2020-06-21T09:58:37.000Z</time>
      </trkpt>
      <trkpt lat="54.589097" lon="-2.698761">
        <ele>221.993031</ele>
        <time>2020-06-21T09:58:38.000Z</time>
      </trkpt>
      <trkpt lat="54.589261" lon="-2.698827">
        <ele>221.928936</ele>
        <time>2020-06-21T09:58:40.000Z</time>
      </trkpt>
      <trkpt lat="54.592338" lon="-2.699792">
        <ele>222.669646</ele>
        <time>2020-06-21T09:59:15.000Z</time>
      </trkpt>
      <trkpt lat="54.594658" lon="-2.701036">
        <ele>223.35741</ele>
        <time>2020-06-21T09:59:42.000Z</time>
      </trkpt>
      <trkpt lat="54.596244" lon="-2.701167">
        <ele>225.329982</ele>
        <time>2020-06-21T10:00:00.000Z</time>
      </trkpt>
      <trkpt lat="54.596482" lon="-2.701342">
        <ele>225.759458</ele>
        <time>2020-06-21T10:00:03.000Z</time>
      </trkpt>
      <trkpt lat="54.596672" lon="-2.701529">
        <ele>226.134966</ele>
        <time>2020-06-21T10:00:05.000Z</time>
      </trkpt>
      <trkpt lat="54.596838" lon="-2.701774">
        <ele>226.508163</ele>
        <time>2020-06-21T10:00:07.000Z</time>
      </trkpt>
      <trkpt lat="54.597015" lon="-2.702152">
        <ele>226.905985</ele>
        <time>2020-06-21T10:00:10.000Z</time>
      </trkpt>
      <trkpt lat="54.597285" lon="-2.703044">
        <ele>227.686476</ele>
        <time>2020-06-21T10:00:16.000Z</time>
      </trkpt>
      <trkpt lat="54.597614" lon="-2.703867">
        <ele>228.447012</ele>
        <time>2020-06-21T10:00:22.000Z</time>
      </trkpt>
      <trkpt lat="54.598977" lon="-2.705262">
        <ele>229.460548</ele>
        <time>2020-06-21T10:00:40.000Z</time>
      </trkpt>
      <trkpt lat="54.599762" lon="-2.706748">
        <ele>229.843707</ele>
        <time>2020-06-21T10:00:53.000Z</time>
      </trkpt>
      <trkpt lat="54.600095" lon="-2.707359">
        <ele>229.969543</ele>
        <time>2020-06-21T10:00:58.000Z</time>
      </trkpt>
      <trkpt lat="54.60049" lon="-2.707806">
        <ele>230.096005</ele>
        <time>2020-06-21T10:01:03.000Z</time>
      </trkpt>
      <trkpt lat="54.600527" lon="-2.707832">
        <ele>230.105295</ele>
        <time>2020-06-21T10:01:03.000Z</time>
      </trkpt>
      <trkpt lat="54.600591" lon="-2.707894">
        <ele>230.124392</ele>
        <time>2020-06-21T10:01:04.000Z</time>
      </trkpt>
      <trkpt lat="54.601064" lon="-2.708325">
        <ele>230.009201</ele>
        <time>2020-06-21T10:01:10.000Z</time>
      </trkpt>
      <trkpt lat="54.601241" lon="-2.708498">
        <ele>229.894581</ele>
        <time>2020-06-21T10:01:12.000Z</time>
      </trkpt>
      <trkpt lat="54.601586" lon="-2.708798">
        <ele>229.686001</ele>
        <time>2020-06-21T10:01:16.000Z</time>
      </trkpt>
      <trkpt lat="54.601608" lon="-2.70883">
        <ele>229.66602</ele>
        <time>2020-06-21T10:01:16.000Z</time>
      </trkpt>
      <trkpt lat="54.601796" lon="-2.709053">
        <ele>229.547685</ele>
        <time>2020-06-21T10:01:19.000Z</time>
      </trkpt>
      <trkpt lat="54.602099" lon="-2.709561">
        <ele>229.314697</ele>
        <time>2020-06-21T10:01:24.000Z</time>
      </trkpt>
      <trkpt lat="54.602218" lon="-2.709822">
        <ele>229.208975</ele>
        <time>2020-06-21T10:01:26.000Z</time>
      </trkpt>
      <trkpt lat="54.602628" lon="-2.710924">
        <ele>228.979439</ele>
        <time>2020-06-21T10:01:34.000Z</time>
      </trkpt>
      <trkpt lat="54.603105" lon="-2.71201">
        <ele>228.747754</ele>
        <time>2020-06-21T10:01:43.000Z</time>
      </trkpt>
      <trkpt lat="54.603434" lon="-2.712649">
        <ele>228.264911</ele>
        <time>2020-06-21T10:01:49.000Z</time>
      </trkpt>
      <trkpt lat="54.603904" lon="-2.713491">
        <ele>227.056192</ele>
        <time>2020-06-21T10:01:57.000Z</time>
      </trkpt>
      <trkpt lat="54.60473" lon="-2.714571">
        <ele>224.924346</ele>
        <time>2020-06-21T10:02:09.000Z</time>
      </trkpt>
      <trkpt lat="54.605325" lon="-2.715039">
        <ele>222.676308</ele>
        <time>2020-06-21T10:02:16.000Z</time>
      </trkpt>
      <trkpt lat="54.605892" lon="-2.715492">
        <ele>220.455019</ele>
        <time>2020-06-21T10:02:23.000Z</time>
      </trkpt>
      <trkpt lat="54.607445" lon="-2.716482">
        <ele>215.253585</ele>
        <time>2020-06-21T10:02:41.000Z</time>
      </trkpt>
      <trkpt lat="54.608394" lon="-2.71709">
        <ele>212.823594</ele>
        <time>2020-06-21T10:02:52.000Z</time>
      </trkpt>
      <trkpt lat="54.609168" lon="-2.717318">
        <ele>211.390186</ele>
        <time>2020-06-21T10:03:01.000Z</time>
      </trkpt>
      <trkpt lat="54.609675" lon="-2.717259">
        <ele>210.467875</ele>
        <time>2020-06-21T10:03:07.000Z</time>
      </trkpt>
      <trkpt lat="54.611697" lon="-2.716958">
        <ele>204.417841</ele>
        <time>2020-06-21T10:03:30.000Z</time>
      </trkpt>
      <trkpt lat="54.61234" lon="-2.716756">
        <ele>201.52501</ele>
        <time>2020-06-21T10:03:37.000Z</time>
      </trkpt>
      <trkpt lat="54.61303" lon="-2.716348">
        <ele>198.285721</ele>
        <time>2020-06-21T10:03:45.000Z</time>
      </trkpt>
      <trkpt lat="54.61357" lon="-2.715953">
        <ele>196.002651</ele>
        <time>2020-06-21T10:03:52.000Z</time>
      </trkpt>
      <trkpt lat="54.614092" lon="-2.715627">
        <ele>193.923143</ele>
        <time>2020-06-21T10:03:58.000Z</time>
      </trkpt>
      <trkpt lat="54.61468" lon="-2.715427">
        <ele>191.706588</ele>
        <time>2020-06-21T10:04:05.000Z</time>
      </trkpt>
      <trkpt lat="54.61543" lon="-2.715442">
        <ele>189.848053</ele>
        <time>2020-06-21T10:04:13.000Z</time>
      </trkpt>
      <trkpt lat="54.617182" lon="-2.715921">
        <ele>186.446391</ele>
        <time>2020-06-21T10:04:33.000Z</time>
      </trkpt>
      <trkpt lat="54.617716" lon="-2.715927">
        <ele>185.420217</ele>
        <time>2020-06-21T10:04:39.000Z</time>
      </trkpt>
      <trkpt lat="54.619604" lon="-2.715567">
        <ele>181.598422</ele>
        <time>2020-06-21T10:05:00.000Z</time>
      </trkpt>
      <trkpt lat="54.619654" lon="-2.715575">
        <ele>181.531187</ele>
        <time>2020-06-21T10:05:01.000Z</time>
      </trkpt>
      <trkpt lat="54.620135" lon="-2.715479">
        <ele>180.522428</ele>
        <time>2020-06-21T10:05:06.000Z</time>
      </trkpt>
      <trkpt lat="54.620224" lon="-2.715462">
        <ele>180.35536</ele>
        <time>2020-06-21T10:05:07.000Z</time>
      </trkpt>
      <trkpt lat="54.621324" lon="-2.71556">
        <ele>180.199862</ele>
        <time>2020-06-21T10:05:19.000Z</time>
      </trkpt>
      <trkpt lat="54.62262" lon="-2.715908">
        <ele>180.169521</ele>
        <time>2020-06-21T10:05:34.000Z</time>
      </trkpt>
      <trkpt lat="54.624103" lon="-2.716457">
        <ele>179.22177</ele>
        <time>2020-06-21T10:05:51.000Z</time>
      </trkpt>
      <trkpt lat="54.627188" lon="-2.718133">
        <ele>166.675249</ele>
        <time>2020-06-21T10:06:27.000Z</time>
      </trkpt>
      <trkpt lat="54.628358" lon="-2.718813">
        <ele>162.384062</ele>
        <time>2020-06-21T10:06:41.000Z</time>
      </trkpt>
      <trkpt lat="54.628895" lon="-2.719142">
        <ele>160.417464</ele>
        <time>2020-06-21T10:06:47.000Z</time>
      </trkpt>
      <trkpt lat="54.629479" lon="-2.719599">
        <ele>159.883924</ele>
        <time>2020-06-21T10:06:54.000Z</time>
      </trkpt>
      <trkpt lat="54.630171" lon="-2.720358">
        <ele>159.575322</ele>
        <time>2020-06-21T10:07:03.000Z</time>
      </trkpt>
      <trkpt lat="54.630962" lon="-2.721175">
        <ele>160.451018</ele>
        <time>2020-06-21T10:07:13.000Z</time>
      </trkpt>
      <trkpt lat="54.63128" lon="-2.72148">
        <ele>161.23782</ele>
        <time>2020-06-21T10:07:17.000Z</time>
      </trkpt>
      <trkpt lat="54.631311" lon="-2.721524">
        <ele>161.336496</ele>
        <time>2020-06-21T10:07:17.000Z</time>
      </trkpt>
      <trkpt lat="54.631408" lon="-2.721604">
        <ele>161.576554</ele>
        <time>2020-06-21T10:07:18.000Z</time>
      </trkpt>
      <trkpt lat="54.63156" lon="-2.72175">
        <ele>161.935304</ele>
        <time>2020-06-21T10:07:20.000Z</time>
      </trkpt>
      <trkpt lat="54.631789" lon="-2.721981">
        <ele>162.534652</ele>
        <time>2020-06-21T10:07:23.000Z</time>
      </trkpt>
      <trkpt lat="54.63185" lon="-2.722022">
        <ele>162.659663</ele>
        <time>2020-06-21T10:07:24.000Z</time>
      </trkpt>
      <trkpt lat="54.632203" lon="-2.722465">
        <ele>163.466117</ele>
        <time>2020-06-21T10:07:29.000Z</time>
      </trkpt>
      <trkpt lat="54.632427" lon="-2.72284">
        <ele>163.792892</ele>
        <time>2020-06-21T10:07:32.000Z</time>
      </trkpt>
      <trkpt lat="54.632898" lon="-2.723637">
        <ele>164.480684</ele>
        <time>2020-06-21T10:07:39.000Z</time>
      </trkpt>
      <trkpt lat="54.632957" lon="-2.723748">
        <ele>164.570653</ele>
        <time>2020-06-21T10:07:40.000Z</time>
      </trkpt>
      <trkpt lat="54.633214" lon="-2.724116">
        <ele>164.914558</ele>
        <time>2020-06-21T10:07:44.000Z</time>
      </trkpt>
      <trkpt lat="54.633285" lon="-2.724217">
        <ele>165.018131</ele>
        <time>2020-06-21T10:07:45.000Z</time>
      </trkpt>
      <trkpt lat="54.634037" lon="-2.72499">
        <ele>163.882727</ele>
        <time>2020-06-21T10:07:55.000Z</time>
      </trkpt>
      <trkpt lat="54.634324" lon="-2.72532">
        <ele>163.21923</ele>
        <time>2020-06-21T10:07:59.000Z</time>
      </trkpt>
      <trkpt lat="54.635041" lon="-2.726016">
        <ele>161.559896</ele>
        <time>2020-06-21T10:08:08.000Z</time>
      </trkpt>
      <trkpt lat="54.635753" lon="-2.726446">
        <ele>159.066246</ele>
        <time>2020-06-21T10:08:16.000Z</time>
      </trkpt>
      <trkpt lat="54.635837" lon="-2.726548">
        <ele>158.675122</ele>
        <time>2020-06-21T10:08:17.000Z</time>
      </trkpt>
      <trkpt lat="54.636092" lon="-2.726802">
        <ele>157.717727</ele>
        <time>2020-06-21T10:08:20.000Z</time>
      </trkpt>
      <trkpt lat="54.636328" lon="-2.727056">
        <ele>156.739299</ele>
        <time>2020-06-21T10:08:23.000Z</time>
      </trkpt>
      <trkpt lat="54.636438" lon="-2.727081">
        <ele>156.41151</ele>
        <time>2020-06-21T10:08:24.000Z</time>
      </trkpt>
      <trkpt lat="54.636475" lon="-2.727087">
        <ele>156.256525</ele>
        <time>2020-06-21T10:08:24.000Z</time>
      </trkpt>
      <trkpt lat="54.63661" lon="-2.726993">
        <ele>155.763751</ele>
        <time>2020-06-21T10:08:26.000Z</time>
      </trkpt>
      <trkpt lat="54.637093" lon="-2.726836">
        <ele>153.379909</ele>
        <time>2020-06-21T10:08:31.000Z</time>
      </trkpt>
      <trkpt lat="54.63768" lon="-2.727162">
        <ele>150.420015</ele>
        <time>2020-06-21T10:08:38.000Z</time>
      </trkpt>
      <trkpt lat="54.638038" lon="-2.727386">
        <ele>148.567559</ele>
        <time>2020-06-21T10:08:42.000Z</time>
      </trkpt>
      <trkpt lat="54.63847" lon="-2.727665">
        <ele>146.324729</ele>
        <time>2020-06-21T10:08:47.000Z</time>
      </trkpt>
      <trkpt lat="54.638981" lon="-2.728211">
        <ele>143.44687</ele>
        <time>2020-06-21T10:08:54.000Z</time>
      </trkpt>
      <trkpt lat="54.640425" lon="-2.729478">
        <ele>136.654711</ele>
        <time>2020-06-21T10:09:12.000Z</time>
      </trkpt>
      <trkpt lat="54.641255" lon="-2.729953">
        <ele>134.038499</ele>
        <time>2020-06-21T10:09:22.000Z</time>
      </trkpt>
      <trkpt lat="54.641899" lon="-2.730598">
        <ele>132.278343</ele>
        <time>2020-06-21T10:09:30.000Z</time>
      </trkpt>
      <trkpt lat="54.642508" lon="-2.731426">
        <ele>130.826036</ele>
        <time>2020-06-21T10:09:39.000Z</time>
      </trkpt>
      <trkpt lat="54.643285" lon="-2.732731">
        <ele>128.675781</ele>
        <time>2020-06-21T10:09:51.000Z</time>
      </trkpt>
      <trkpt lat="54.645077" lon="-2.73556">
        <ele>123.987998</ele>
        <time>2020-06-21T10:10:18.000Z</time>
      </trkpt>
      <trkpt lat="54.6459" lon="-2.736241">
        <ele>122.811687</ele>
        <time>2020-06-21T10:10:28.000Z</time>
      </trkpt>
      <trkpt lat="54.646168" lon="-2.736599">
        <ele>122.816071</ele>
        <time>2020-06-21T10:10:32.000Z</time>
      </trkpt>
      <trkpt lat="54.646385" lon="-2.737074">
        <ele>122.820492</ele>
        <time>2020-06-21T10:10:36.000Z</time>
      </trkpt>
      <trkpt lat="54.646469" lon="-2.737534">
        <ele>122.823971</ele>
        <time>2020-06-21T10:10:39.000Z</time>
      </trkpt>
      <trkpt lat="54.646716" lon="-2.738765">
        <ele>122.881363</ele>
        <time>2020-06-21T10:10:47.000Z</time>
      </trkpt>
      <trkpt lat="54.646796" lon="-2.73893">
        <ele>122.937923</ele>
        <time>2020-06-21T10:10:48.000Z</time>
      </trkpt>
      <trkpt lat="54.647106" lon="-2.739283">
        <ele>123.107532</ele>
        <time>2020-06-21T10:10:52.000Z</time>
      </trkpt>
      <trkpt lat="54.648066" lon="-2.739402">
        <ele>123.551128</ele>
        <time>2020-06-21T10:11:03.000Z</time>
      </trkpt>
      <trkpt lat="54.648295" lon="-2.73953">
        <ele>123.668129</ele>
        <time>2020-06-21T10:11:06.000Z</time>
      </trkpt>
      <trkpt lat="54.648633" lon="-2.73975">
        <ele>124.249824</ele>
        <time>2020-06-21T10:11:10.000Z</time>
      </trkpt>
      <trkpt lat="54.648551" lon="-2.740321">
        <ele>124.801834</ele>
        <time>2020-06-21T10:11:14.000Z</time>
      </trkpt>
      <trkpt lat="54.648368" lon="-2.741545">
        <ele>125.975613</ele>
        <time>2020-06-21T10:11:22.000Z</time>
      </trkpt>
      <trkpt lat="54.648329" lon="-2.741826">
        <ele>126.2325</ele>
        <time>2020-06-21T10:11:24.000Z</time>
      </trkpt>
      <trkpt lat="54.648222" lon="-2.742405">
        <ele>127.050719</ele>
        <time>2020-06-21T10:11:28.000Z</time>
      </trkpt>
      <trkpt lat="54.648043" lon="-2.74308">
        <ele>128.334311</ele>
        <time>2020-06-21T10:11:33.000Z</time>
      </trkpt>
      <trkpt lat="54.647802" lon="-2.743682">
        <ele>129.63118</ele>
        <time>2020-06-21T10:11:38.000Z</time>
      </trkpt>
      <trkpt lat="54.64749" lon="-2.744286">
        <ele>131.032659</ele>
        <time>2020-06-21T10:11:43.000Z</time>
      </trkpt>
      <trkpt lat="54.647253" lon="-2.744647">
        <ele>131.994032</ele>
        <time>2020-06-21T10:11:47.000Z</time>
      </trkpt>
      <trkpt lat="54.647067" lon="-2.744875">
        <ele>132.471874</ele>
        <time>2020-06-21T10:11:50.000Z</time>
      </trkpt>
      <trkpt lat="54.646518" lon="-2.745492">
        <ele>133.845827</ele>
        <time>2020-06-21T10:11:57.000Z</time>
      </trkpt>
      <trkpt lat="54.646224" lon="-2.745794">
        <ele>134.559811</ele>
        <time>2020-06-21T10:12:01.000Z</time>
      </trkpt>
      <trkpt lat="54.645985" lon="-2.746147">
        <ele>135.214158</ele>
        <time>2020-06-21T10:12:04.000Z</time>
      </trkpt>
      <trkpt lat="54.645826" lon="-2.74648">
        <ele>135.756862</ele>
        <time>2020-06-21T10:12:07.000Z</time>
      </trkpt>
      <trkpt lat="54.645272" lon="-2.747916">
        <ele>136.381351</ele>
        <time>2020-06-21T10:12:18.000Z</time>
      </trkpt>
      <trkpt lat="54.645037" lon="-2.748375">
        <ele>136.598483</ele>
        <time>2020-06-21T10:12:22.000Z</time>
      </trkpt>
      <trkpt lat="54.644156" lon="-2.749392">
        <ele>137.623521</ele>
        <time>2020-06-21T10:12:34.000Z</time>
      </trkpt>
      <trkpt lat="54.643947" lon="-2.749731">
        <ele>137.962114</ele>
        <time>2020-06-21T10:12:37.000Z</time>
      </trkpt>
      <trkpt lat="54.643797" lon="-2.750117">
        <ele>138.286555</ele>
        <time>2020-06-21T10:12:40.000Z</time>
      </trkpt>
      <trkpt lat="54.643639" lon="-2.750974">
        <ele>138.924686</ele>
        <time>2020-06-21T10:12:46.000Z</time>
      </trkpt>
      <trkpt lat="54.643398" lon="-2.753035">
        <ele>141.035032</ele>
        <time>2020-06-21T10:13:00.000Z</time>
      </trkpt>
      <trkpt lat="54.643163" lon="-2.754404">
        <ele>142.645805</ele>
        <time>2020-06-21T10:13:09.000Z</time>
      </trkpt>
      <trkpt lat="54.643094" lon="-2.754867">
        <ele>143.410011</ele>
        <time>2020-06-21T10:13:12.000Z</time>
      </trkpt>
      <trkpt lat="54.64303" lon="-2.755334">
        <ele>144.170288</ele>
        <time>2020-06-21T10:13:15.000Z</time>
      </trkpt>
      <trkpt lat="54.642838" lon="-2.756302">
        <ele>145.795275</ele>
        <time>2020-06-21T10:13:22.000Z</time>
      </trkpt>
      <trkpt lat="54.642796" lon="-2.756492">
        <ele>146.10449</ele>
        <time>2020-06-21T10:13:23.000Z</time>
      </trkpt>
      <trkpt lat="54.642602" lon="-2.75734">
        <ele>147.555556</ele>
        <time>2020-06-21T10:13:29.000Z</time>
      </trkpt>
      <trkpt lat="54.64221" lon="-2.758505">
        <ele>149.726446</ele>
        <time>2020-06-21T10:13:38.000Z</time>
      </trkpt>
      <trkpt lat="54.642005" lon="-2.758989">
        <ele>150.672475</ele>
        <time>2020-06-21T10:13:42.000Z</time>
      </trkpt>
      <trkpt lat="54.641731" lon="-2.759332">
        <ele>151.561738</ele>
        <time>2020-06-21T10:13:46.000Z</time>
      </trkpt>
      <trkpt lat="54.641339" lon="-2.759584">
        <ele>152.802519</ele>
        <time>2020-06-21T10:13:51.000Z</time>
      </trkpt>
      <trkpt lat="54.640651" lon="-2.759769">
        <ele>155.0274</ele>
        <time>2020-06-21T10:13:59.000Z</time>
      </trkpt>
      <trkpt lat="54.639665" lon="-2.75975">
        <ele>158.23217</ele>
        <time>2020-06-21T10:14:10.000Z</time>
      </trkpt>
      <trkpt lat="54.636995" lon="-2.759566">
        <ele>168.599751</ele>
        <time>2020-06-21T10:14:40.000Z</time>
      </trkpt>
      <trkpt lat="54.633888" lon="-2.75932">
        <ele>178.58676</ele>
        <time>2020-06-21T10:15:15.000Z</time>
      </trkpt>
      <trkpt lat="54.632509" lon="-2.759337">
        <ele>182.206358</ele>
        <time>2020-06-21T10:15:30.000Z</time>
      </trkpt>
      <trkpt lat="54.631661" lon="-2.759525">
        <ele>184.73932</ele>
        <time>2020-06-21T10:15:40.000Z</time>
      </trkpt>
      <trkpt lat="54.630967" lon="-2.759268">
        <ele>186.83363</ele>
        <time>2020-06-21T10:15:48.000Z</time>
      </trkpt>
      <trkpt lat="54.629964" lon="-2.758784">
        <ele>190.161255</ele>
        <time>2020-06-21T10:16:00.000Z</time>
      </trkpt>
      <trkpt lat="54.628218" lon="-2.757997">
        <ele>195.587111</ele>
        <time>2020-06-21T10:16:20.000Z</time>
      </trkpt>
      <trkpt lat="54.626699" lon="-2.757097">
        <ele>199.292518</ele>
        <time>2020-06-21T10:16:38.000Z</time>
      </trkpt>
      <trkpt lat="54.624792" lon="-2.756315">
        <ele>202.815866</ele>
        <time>2020-06-21T10:17:00.000Z</time>
      </trkpt>
      <trkpt lat="54.622396" lon="-2.756429">
        <ele>207.71678</ele>
        <time>2020-06-21T10:17:27.000Z</time>
      </trkpt>
      <trkpt lat="54.62177" lon="-2.756448">
        <ele>209.21463</ele>
        <time>2020-06-21T10:17:34.000Z</time>
      </trkpt>
      <trkpt lat="54.619461" lon="-2.756401">
        <ele>213.594847</ele>
        <time>2020-06-21T10:18:00.000Z</time>
      </trkpt>
      <trkpt lat="54.618925" lon="-2.756197">
        <ele>213.873298</ele>
        <time>2020-06-21T10:18:06.000Z</time>
      </trkpt>
      <trkpt lat="54.617873" lon="-2.755686">
        <ele>212.360701</ele>
        <time>2020-06-21T10:18:18.000Z</time>
      </trkpt>
      <trkpt lat="54.61735" lon="-2.755647">
        <ele>210.846388</ele>
        <time>2020-06-21T10:18:24.000Z</time>
      </trkpt>
      <trkpt lat="54.616842" lon="-2.755775">
        <ele>209.375329</ele>
        <time>2020-06-21T10:18:30.000Z</time>
      </trkpt>
      <trkpt lat="54.616271" lon="-2.755258">
        <ele>207.397698</ele>
        <time>2020-06-21T10:18:37.000Z</time>
      </trkpt>
      <trkpt lat="54.615107" lon="-2.755437">
        <ele>203.811669</ele>
        <time>2020-06-21T10:18:50.000Z</time>
      </trkpt>
      <trkpt lat="54.614444" lon="-2.75536">
        <ele>202.953005</ele>
        <time>2020-06-21T10:18:57.000Z</time>
      </trkpt>
      <trkpt lat="54.613395" lon="-2.755947">
        <ele>202.026563</ele>
        <time>2020-06-21T10:19:09.000Z</time>
      </trkpt>
      <trkpt lat="54.612644" lon="-2.756109">
        <ele>202.825517</ele>
        <time>2020-06-21T10:19:17.000Z</time>
      </trkpt>
      <trkpt lat="54.611508" lon="-2.756273">
        <ele>204.647672</ele>
        <time>2020-06-21T10:19:30.000Z</time>
      </trkpt>
      <trkpt lat="54.610303" lon="-2.756708">
        <ele>206.673657</ele>
        <time>2020-06-21T10:19:44.000Z</time>
      </trkpt>
      <trkpt lat="54.609513" lon="-2.756771">
        <ele>207.686922</ele>
        <time>2020-06-21T10:19:53.000Z</time>
      </trkpt>
      <trkpt lat="54.60802" lon="-2.757456">
        <ele>207.607352</ele>
        <time>2020-06-21T10:20:10.000Z</time>
      </trkpt>
      <trkpt lat="54.607366" lon="-2.756922">
        <ele>207.036276</ele>
        <time>2020-06-21T10:20:18.000Z</time>
      </trkpt>
      <trkpt lat="54.607111" lon="-2.756713">
        <ele>206.77482</ele>
        <time>2020-06-21T10:20:21.000Z</time>
      </trkpt>
      <trkpt lat="54.607078" lon="-2.756674">
        <ele>206.735798</ele>
        <time>2020-06-21T10:20:21.000Z</time>
      </trkpt>
      <trkpt lat="54.60675" lon="-2.756187">
        <ele>206.345941</ele>
        <time>2020-06-21T10:20:26.000Z</time>
      </trkpt>
      <trkpt lat="54.606479" lon="-2.755963">
        <ele>206.077937</ele>
        <time>2020-06-21T10:20:29.000Z</time>
      </trkpt>
      <trkpt lat="54.606367" lon="-2.755934">
        <ele>205.977588</ele>
        <time>2020-06-21T10:20:30.000Z</time>
      </trkpt>
      <trkpt lat="54.605914" lon="-2.755784">
        <ele>205.391287</ele>
        <time>2020-06-21T10:20:35.000Z</time>
      </trkpt>
      <trkpt lat="54.605844" lon="-2.755697">
        <ele>205.290652</ele>
        <time>2020-06-21T10:20:36.000Z</time>
      </trkpt>
      <trkpt lat="54.605699" lon="-2.755349">
        <ele>204.980391</ele>
        <time>2020-06-21T10:20:39.000Z</time>
      </trkpt>
      <trkpt lat="54.605609" lon="-2.755218">
        <ele>204.835488</ele>
        <time>2020-06-21T10:20:40.000Z</time>
      </trkpt>
      <trkpt lat="54.605519" lon="-2.755105">
        <ele>204.701521</ele>
        <time>2020-06-21T10:20:41.000Z</time>
      </trkpt>
      <trkpt lat="54.605247" lon="-2.754861">
        <ele>204.309766</ele>
        <time>2020-06-21T10:20:44.000Z</time>
      </trkpt>
      <trkpt lat="54.604856" lon="-2.75446">
        <ele>203.738</ele>
        <time>2020-06-21T10:20:49.000Z</time>
      </trkpt>
      <trkpt lat="54.604477" lon="-2.754117">
        <ele>202.867857</ele>
        <time>2020-06-21T10:20:54.000Z</time>
      </trkpt>
      <trkpt lat="54.603422" lon="-2.75324">
        <ele>200.478974</ele>
        <time>2020-06-21T10:21:07.000Z</time>
      </trkpt>
      <trkpt lat="54.602267" lon="-2.752958">
        <ele>199.402218</ele>
        <time>2020-06-21T10:21:20.000Z</time>
      </trkpt>
      <trkpt lat="54.60199" lon="-2.752937">
        <ele>199.213852</ele>
        <time>2020-06-21T10:21:23.000Z</time>
      </trkpt>
      <trkpt lat="54.601738" lon="-2.753068">
        <ele>199.03441</ele>
        <time>2020-06-21T10:21:26.000Z</time>
      </trkpt>
      <trkpt lat="54.600018" lon="-2.754203">
        <ele>201.14158</ele>
        <time>2020-06-21T10:21:46.000Z</time>
      </trkpt>
      <trkpt lat="54.599697" lon="-2.754268">
        <ele>201.618411</ele>
        <time>2020-06-21T10:21:50.000Z</time>
      </trkpt>
      <trkpt lat="54.599537" lon="-2.754285">
        <ele>201.798391</ele>
        <time>2020-06-21T10:21:52.000Z</time>
      </trkpt>
      <trkpt lat="54.599044" lon="-2.754499">
        <ele>202.406086</ele>
        <time>2020-06-21T10:21:58.000Z</time>
      </trkpt>
      <trkpt lat="54.597976" lon="-2.755431">
        <ele>203.714236</ele>
        <time>2020-06-21T10:22:11.000Z</time>
      </trkpt>
      <trkpt lat="54.597745" lon="-2.755547">
        <ele>203.79599</ele>
        <time>2020-06-21T10:22:14.000Z</time>
      </trkpt>
      <trkpt lat="54.597504" lon="-2.755561">
        <ele>203.872203</ele>
        <time>2020-06-21T10:22:17.000Z</time>
      </trkpt>
      <trkpt lat="54.596053" lon="-2.755131">
        <ele>204.440416</ele>
        <time>2020-06-21T10:22:33.000Z</time>
      </trkpt>
      <trkpt lat="54.594976" lon="-2.755188">
        <ele>205.079826</ele>
        <time>2020-06-21T10:22:45.000Z</time>
      </trkpt>
      <trkpt lat="54.594029" lon="-2.755894">
        <ele>206.453517</ele>
        <time>2020-06-21T10:22:56.000Z</time>
      </trkpt>
      <trkpt lat="54.593662" lon="-2.756305">
        <ele>207.303109</ele>
        <time>2020-06-21T10:23:01.000Z</time>
      </trkpt>
      <trkpt lat="54.593074" lon="-2.756545">
        <ele>208.454659</ele>
        <time>2020-06-21T10:23:08.000Z</time>
      </trkpt>
      <trkpt lat="54.59269" lon="-2.756937">
        <ele>209.096279</ele>
        <time>2020-06-21T10:23:13.000Z</time>
      </trkpt>
      <trkpt lat="54.592544" lon="-2.757249">
        <ele>209.356509</ele>
        <time>2020-06-21T10:23:16.000Z</time>
      </trkpt>
      <trkpt lat="54.592337" lon="-2.757665">
        <ele>209.734752</ele>
        <time>2020-06-21T10:23:20.000Z</time>
      </trkpt>
      <trkpt lat="54.592124" lon="-2.757931">
        <ele>210.038997</ele>
        <time>2020-06-21T10:23:23.000Z</time>
      </trkpt>
      <trkpt lat="54.591804" lon="-2.758148">
        <ele>210.420012</ele>
        <time>2020-06-21T10:23:27.000Z</time>
      </trkpt>
      <trkpt lat="54.590706" lon="-2.75828">
        <ele>210.688531</ele>
        <time>2020-06-21T10:23:39.000Z</time>
      </trkpt>
      <trkpt lat="54.590458" lon="-2.758366">
        <ele>210.63428</ele>
        <time>2020-06-21T10:23:42.000Z</time>
      </trkpt>
      <trkpt lat="54.590245" lon="-2.758428">
        <ele>210.59147</ele>
        <time>2020-06-21T10:23:44.000Z</time>
      </trkpt>
      <trkpt lat="54.589459" lon="-2.758506">
        <ele>210.779105</ele>
        <time>2020-06-21T10:23:53.000Z</time>
      </trkpt>
      <trkpt lat="54.589295" lon="-2.758523">
        <ele>211.065537</ele>
        <time>2020-06-21T10:23:55.000Z</time>
      </trkpt>
      <trkpt lat="54.589175" lon="-2.758579">
        <ele>211.273811</ele>
        <time>2020-06-21T10:23:56.000Z</time>
      </trkpt>
      <trkpt lat="54.588505" lon="-2.759078">
        <ele>212.500047</ele>
        <time>2020-06-21T10:24:04.000Z</time>
      </trkpt>
      <trkpt lat="54.588124" lon="-2.759584">
        <ele>213.310956</ele>
        <time>2020-06-21T10:24:09.000Z</time>
      </trkpt>
      <trkpt lat="54.58792" lon="-2.759924">
        <ele>213.897629</ele>
        <time>2020-06-21T10:24:12.000Z</time>
      </trkpt>
      <trkpt lat="54.587816" lon="-2.760037">
        <ele>214.194745</ele>
        <time>2020-06-21T10:24:13.000Z</time>
      </trkpt>
      <trkpt lat="54.58702" lon="-2.760577">
        <ele>216.168711</ele>
        <time>2020-06-21T10:24:23.000Z</time>
      </trkpt>
      <trkpt lat="54.586507" lon="-2.760765">
        <ele>217.407998</ele>
        <time>2020-06-21T10:24:29.000Z</time>
      </trkpt>
      <trkpt lat="54.586429" lon="-2.760799">
        <ele>217.584951</ele>
        <time>2020-06-21T10:24:30.000Z</time>
      </trkpt>
      <trkpt lat="54.586361" lon="-2.760888">
        <ele>217.738099</ele>
        <time>2020-06-21T10:24:31.000Z</time>
      </trkpt>
      <trkpt lat="54.585489" lon="-2.762564">
        <ele>219.607605</ele>
        <time>2020-06-21T10:24:46.000Z</time>
      </trkpt>
      <trkpt lat="54.585457" lon="-2.762644">
        <ele>219.692639</ele>
        <time>2020-06-21T10:24:47.000Z</time>
      </trkpt>
      <trkpt lat="54.585337" lon="-2.762809">
        <ele>219.901225</ele>
        <time>2020-06-21T10:24:49.000Z</time>
      </trkpt>
      <trkpt lat="54.585079" lon="-2.763201">
        <ele>220.215866</ele>
        <time>2020-06-21T10:24:53.000Z</time>
      </trkpt>
      <trkpt lat="54.583999" lon="-2.764046">
        <ele>219.84877</ele>
        <time>2020-06-21T10:25:06.000Z</time>
      </trkpt>
      <trkpt lat="54.583542" lon="-2.764369">
        <ele>219.697464</ele>
        <time>2020-06-21T10:25:11.000Z</time>
      </trkpt>
      <trkpt lat="54.582962" lon="-2.76463">
        <ele>217.745834</ele>
        <time>2020-06-21T10:25:18.000Z</time>
      </trkpt>
      <trkpt lat="54.582586" lon="-2.764802">
        <ele>216.469187</ele>
        <time>2020-06-21T10:25:22.000Z</time>
      </trkpt>
      <trkpt lat="54.582484" lon="-2.764816">
        <ele>216.155695</ele>
        <time>2020-06-21T10:25:23.000Z</time>
      </trkpt>
      <trkpt lat="54.58242" lon="-2.764823">
        <ele>215.923589</ele>
        <time>2020-06-21T10:25:24.000Z</time>
      </trkpt>
      <trkpt lat="54.580894" lon="-2.764828">
        <ele>209.629275</ele>
        <time>2020-06-21T10:25:41.000Z</time>
      </trkpt>
      <trkpt lat="54.579656" lon="-2.764623">
        <ele>203.664098</ele>
        <time>2020-06-21T10:25:55.000Z</time>
      </trkpt>
      <trkpt lat="54.577703" lon="-2.763514">
        <ele>194.420447</ele>
        <time>2020-06-21T10:26:18.000Z</time>
      </trkpt>
      <trkpt lat="54.577132" lon="-2.762865">
        <ele>191.829518</ele>
        <time>2020-06-21T10:26:26.000Z</time>
      </trkpt>
      <trkpt lat="54.576081" lon="-2.760775">
        <ele>186.501093</ele>
        <time>2020-06-21T10:26:44.000Z</time>
      </trkpt>
      <trkpt lat="54.575714" lon="-2.760506">
        <ele>185.275524</ele>
        <time>2020-06-21T10:26:48.000Z</time>
      </trkpt>
      <trkpt lat="54.575037" lon="-2.759621">
        <ele>182.98252</ele>
        <time>2020-06-21T10:26:57.000Z</time>
      </trkpt>
      <trkpt lat="54.574695" lon="-2.759142">
        <ele>181.898343</ele>
        <time>2020-06-21T10:27:02.000Z</time>
      </trkpt>
      <trkpt lat="54.574654" lon="-2.759082">
        <ele>181.771539</ele>
        <time>2020-06-21T10:27:03.000Z</time>
      </trkpt>
      <trkpt lat="54.574556" lon="-2.75887">
        <ele>181.362215</ele>
        <time>2020-06-21T10:27:05.000Z</time>
      </trkpt>
      <trkpt lat="54.574225" lon="-2.758628">
        <ele>180.482863</ele>
        <time>2020-06-21T10:27:09.000Z</time>
      </trkpt>
      <trkpt lat="54.571273" lon="-2.757744">
        <ele>176.223768</ele>
        <time>2020-06-21T10:27:42.000Z</time>
      </trkpt>
      <trkpt lat="54.570618" lon="-2.757769">
        <ele>175.584021</ele>
        <time>2020-06-21T10:27:49.000Z</time>
      </trkpt>
      <trkpt lat="54.569402" lon="-2.758185">
        <ele>175.200826</ele>
        <time>2020-06-21T10:28:03.000Z</time>
      </trkpt>
      <trkpt lat="54.568899" lon="-2.758125">
        <ele>175.120917</ele>
        <time>2020-06-21T10:28:09.000Z</time>
      </trkpt>
      <trkpt lat="54.568845" lon="-2.758122">
        <ele>175.114021</ele>
        <time>2020-06-21T10:28:10.000Z</time>
      </trkpt>
      <trkpt lat="54.568582" lon="-2.758175">
        <ele>175.091679</ele>
        <time>2020-06-21T10:28:13.000Z</time>
      </trkpt>
      <trkpt lat="54.568404" lon="-2.758111">
        <ele>175.152594</ele>
        <time>2020-06-21T10:28:15.000Z</time>
      </trkpt>
      <trkpt lat="54.568242" lon="-2.758048">
        <ele>175.209269</ele>
        <time>2020-06-21T10:28:17.000Z</time>
      </trkpt>
      <trkpt lat="54.567816" lon="-2.758027">
        <ele>175.350836</ele>
        <time>2020-06-21T10:28:22.000Z</time>
      </trkpt>
      <trkpt lat="54.567411" lon="-2.758129">
        <ele>175.484477</ele>
        <time>2020-06-21T10:28:27.000Z</time>
      </trkpt>
      <trkpt lat="54.566634" lon="-2.758244">
        <ele>175.72479</ele>
        <time>2020-06-21T10:28:36.000Z</time>
      </trkpt>
      <trkpt lat="54.566603" lon="-2.758245">
        <ele>175.73183</ele>
        <time>2020-06-21T10:28:36.000Z</time>
      </trkpt>
      <trkpt lat="54.565785" lon="-2.758107">
        <ele>175.910972</ele>
        <time>2020-06-21T10:28:45.000Z</time>
      </trkpt>
      <trkpt lat="54.565244" lon="-2.757862">
        <ele>176.034153</ele>
        <time>2020-06-21T10:28:51.000Z</time>
      </trkpt>
      <trkpt lat="54.564856" lon="-2.757817">
        <ele>176.129601</ele>
        <time>2020-06-21T10:28:55.000Z</time>
      </trkpt>
      <trkpt lat="54.564427" lon="-2.757928">
        <ele>176.239644</ele>
        <time>2020-06-21T10:29:00.000Z</time>
      </trkpt>
      <trkpt lat="54.563706" lon="-2.757787">
        <ele>176.429052</ele>
        <time>2020-06-21T10:29:08.000Z</time>
      </trkpt>
      <trkpt lat="54.562867" lon="-2.757618">
        <ele>177.21272</ele>
        <time>2020-06-21T10:29:17.000Z</time>
      </trkpt>
      <trkpt lat="54.562806" lon="-2.757632">
        <ele>177.314067</ele>
        <time>2020-06-21T10:29:18.000Z</time>
      </trkpt>
      <trkpt lat="54.562277" lon="-2.757829">
        <ele>178.154105</ele>
        <time>2020-06-21T10:29:24.000Z</time>
      </trkpt>
      <trkpt lat="54.56192" lon="-2.758108">
        <ele>178.786853</ele>
        <time>2020-06-21T10:29:28.000Z</time>
      </trkpt>
      <trkpt lat="54.561723" lon="-2.758124">
        <ele>179.098731</ele>
        <time>2020-06-21T10:29:30.000Z</time>
      </trkpt>
      <trkpt lat="54.561154" lon="-2.75789">
        <ele>180.25479</ele>
        <time>2020-06-21T10:29:37.000Z</time>
      </trkpt>
      <trkpt lat="54.560791" lon="-2.757449">
        <ele>181.232968</ele>
        <time>2020-06-21T10:29:42.000Z</time>
      </trkpt>
      <trkpt lat="54.560252" lon="-2.756648">
        <ele>182.806521</ele>
        <time>2020-06-21T10:29:50.000Z</time>
      </trkpt>
      <trkpt lat="54.559969" lon="-2.756393">
        <ele>183.409626</ele>
        <time>2020-06-21T10:29:54.000Z</time>
      </trkpt>
      <trkpt lat="54.559622" lon="-2.756199">
        <ele>183.795101</ele>
        <time>2020-06-21T10:29:58.000Z</time>
      </trkpt>
      <trkpt lat="54.559323" lon="-2.75613">
        <ele>184.122522</ele>
        <time>2020-06-21T10:30:01.000Z</time>
      </trkpt>
      <trkpt lat="54.559134" lon="-2.755863">
        <ele>184.393479</ele>
        <time>2020-06-21T10:30:04.000Z</time>
      </trkpt>
      <trkpt lat="54.558775" lon="-2.754952">
        <ele>185.070713</ele>
        <time>2020-06-21T10:30:11.000Z</time>
      </trkpt>
      <trkpt lat="54.558033" lon="-2.754009">
        <ele>184.261837</ele>
        <time>2020-06-21T10:30:21.000Z</time>
      </trkpt>
      <trkpt lat="54.557782" lon="-2.753467">
        <ele>183.714162</ele>
        <time>2020-06-21T10:30:25.000Z</time>
      </trkpt>
      <trkpt lat="54.557535" lon="-2.752858">
        <ele>183.129497</ele>
        <time>2020-06-21T10:30:30.000Z</time>
      </trkpt>
      <trkpt lat="54.55733" lon="-2.752623">
        <ele>182.795383</ele>
        <time>2020-06-21T10:30:33.000Z</time>
      </trkpt>
      <trkpt lat="54.557119" lon="-2.752314">
        <ele>182.253725</ele>
        <time>2020-06-21T10:30:36.000Z</time>
      </trkpt>
      <trkpt lat="54.557019" lon="-2.752035">
        <ele>181.904823</ele>
        <time>2020-06-21T10:30:38.000Z</time>
      </trkpt>
      <trkpt lat="54.556988" lon="-2.751809">
        <ele>181.637811</ele>
        <time>2020-06-21T10:30:39.000Z</time>
      </trkpt>
      <trkpt lat="54.556957" lon="-2.751713">
        <ele>181.52181</ele>
        <time>2020-06-21T10:30:40.000Z</time>
      </trkpt>
      <trkpt lat="54.556726" lon="-2.751477">
        <ele>181.007158</ele>
        <time>2020-06-21T10:30:43.000Z</time>
      </trkpt>
      <trkpt lat="54.556644" lon="-2.751456">
        <ele>180.853607</ele>
        <time>2020-06-21T10:30:44.000Z</time>
      </trkpt>
      <trkpt lat="54.556608" lon="-2.751335">
        <ele>180.719214</ele>
        <time>2020-06-21T10:30:45.000Z</time>
      </trkpt>
      <trkpt lat="54.556544" lon="-2.750836">
        <ele>180.148082</ele>
        <time>2020-06-21T10:30:48.000Z</time>
      </trkpt>
      <trkpt lat="54.556598" lon="-2.749987">
        <ele>179.335113</ele>
        <time>2020-06-21T10:30:54.000Z</time>
      </trkpt>
      <trkpt lat="54.556524" lon="-2.748857">
        <ele>178.685197</ele>
        <time>2020-06-21T10:31:01.000Z</time>
      </trkpt>
      <trkpt lat="54.556461" lon="-2.748629">
        <ele>178.533669</ele>
        <time>2020-06-21T10:31:03.000Z</time>
      </trkpt>
      <trkpt lat="54.556384" lon="-2.748405">
        <ele>178.384645</ele>
        <time>2020-06-21T10:31:05.000Z</time>
      </trkpt>
      <trkpt lat="54.556057" lon="-2.747012">
        <ele>177.633149</ele>
        <time>2020-06-21T10:31:15.000Z</time>
      </trkpt>
      <trkpt lat="54.555722" lon="-2.746136">
        <ele>177.483193</ele>
        <time>2020-06-21T10:31:22.000Z</time>
      </trkpt>
      <trkpt lat="54.555701" lon="-2.746068">
        <ele>177.471275</ele>
        <time>2020-06-21T10:31:22.000Z</time>
      </trkpt>
      <trkpt lat="54.555653" lon="-2.74591">
        <ele>177.446286</ele>
        <time>2020-06-21T10:31:23.000Z</time>
      </trkpt>
      <trkpt lat="54.555562" lon="-2.745522">
        <ele>177.385038</ele>
        <time>2020-06-21T10:31:26.000Z</time>
      </trkpt>
      <trkpt lat="54.555456" lon="-2.745065">
        <ele>177.313894</ele>
        <time>2020-06-21T10:31:29.000Z</time>
      </trkpt>
      <trkpt lat="54.555273" lon="-2.744379">
        <ele>177.269404</ele>
        <time>2020-06-21T10:31:34.000Z</time>
      </trkpt>
      <trkpt lat="54.554903" lon="-2.743544">
        <ele>177.63509</ele>
        <time>2020-06-21T10:31:41.000Z</time>
      </trkpt>
      <trkpt lat="54.554708" lon="-2.743137">
        <ele>177.824804</ele>
        <time>2020-06-21T10:31:44.000Z</time>
      </trkpt>
      <trkpt lat="54.55468" lon="-2.742993">
        <ele>177.874497</ele>
        <time>2020-06-21T10:31:45.000Z</time>
      </trkpt>
      <trkpt lat="54.554728" lon="-2.742919">
        <ele>177.914427</ele>
        <time>2020-06-21T10:31:46.000Z</time>
      </trkpt>
      <trkpt lat="54.554915" lon="-2.742872">
        <ele>178.027269</ele>
        <time>2020-06-21T10:31:48.000Z</time>
      </trkpt>
      <trkpt lat="54.554948" lon="-2.742793">
        <ele>178.064522</ele>
        <time>2020-06-21T10:31:49.000Z</time>
      </trkpt>
      <trkpt lat="54.555197" lon="-2.74228">
        <ele>178.297147</ele>
        <time>2020-06-21T10:31:53.000Z</time>
      </trkpt>
      <trkpt lat="54.555319" lon="-2.741921">
        <ele>178.719418</ele>
        <time>2020-06-21T10:31:56.000Z</time>
      </trkpt>
      <trkpt lat="54.555441" lon="-2.741558">
        <ele>179.176164</ele>
        <time>2020-06-21T10:31:59.000Z</time>
      </trkpt>
      <trkpt lat="54.55551" lon="-2.74121">
        <ele>179.584691</ele>
        <time>2020-06-21T10:32:01.000Z</time>
      </trkpt>
      <trkpt lat="54.555525" lon="-2.741151">
        <ele>179.643946</ele>
        <time>2020-06-21T10:32:01.000Z</time>
      </trkpt>
      <trkpt lat="54.555541" lon="-2.740837">
        <ele>179.991696</ele>
        <time>2020-06-21T10:32:03.000Z</time>
      </trkpt>
      <trkpt lat="54.55559" lon="-2.74014">
        <ele>180.728362</ele>
        <time>2020-06-21T10:32:08.000Z</time>
      </trkpt>
      <trkpt lat="54.555681" lon="-2.739641">
        <ele>181.293926</ele>
        <time>2020-06-21T10:32:11.000Z</time>
      </trkpt>
      <trkpt lat="54.555792" lon="-2.738952">
        <ele>182.777702</ele>
        <time>2020-06-21T10:32:16.000Z</time>
      </trkpt>
      <trkpt lat="54.555874" lon="-2.738612">
        <ele>183.8566</ele>
        <time>2020-06-21T10:32:18.000Z</time>
      </trkpt>
      <trkpt lat="54.556026" lon="-2.738098">
        <ele>185.501237</ele>
        <time>2020-06-21T10:32:22.000Z</time>
      </trkpt>
      <trkpt lat="54.556221" lon="-2.737545">
        <ele>187.348874</ele>
        <time>2020-06-21T10:32:26.000Z</time>
      </trkpt>
      <trkpt lat="54.556328" lon="-2.736991">
        <ele>189.053212</ele>
        <time>2020-06-21T10:32:30.000Z</time>
      </trkpt>
      <trkpt lat="54.556334" lon="-2.736934">
        <ele>189.203602</ele>
        <time>2020-06-21T10:32:30.000Z</time>
      </trkpt>
      <trkpt lat="54.556196" lon="-2.735691">
        <ele>193.017341</ele>
        <time>2020-06-21T10:32:38.000Z</time>
      </trkpt>
      <trkpt lat="54.555854" lon="-2.734044">
        <ele>198.403172</ele>
        <time>2020-06-21T10:32:49.000Z</time>
      </trkpt>
      <trkpt lat="54.555827" lon="-2.732433">
        <ele>202.785846</ele>
        <time>2020-06-21T10:32:59.000Z</time>
      </trkpt>
      <trkpt lat="54.555852" lon="-2.731804">
        <ele>204.374874</ele>
        <time>2020-06-21T10:33:03.000Z</time>
      </trkpt>
      <trkpt lat="54.556138" lon="-2.730792">
        <ele>207.185594</ele>
        <time>2020-06-21T10:33:10.000Z</time>
      </trkpt>
      <trkpt lat="54.556306" lon="-2.73039">
        <ele>208.594351</ele>
        <time>2020-06-21T10:33:13.000Z</time>
      </trkpt>
      <trkpt lat="54.556915" lon="-2.729675">
        <ele>212.429159</ele>
        <time>2020-06-21T10:33:21.000Z</time>
      </trkpt>
      <trkpt lat="54.557281" lon="-2.729138">
        <ele>214.943892</ele>
        <time>2020-06-21T10:33:26.000Z</time>
      </trkpt>
      <trkpt lat="54.557413" lon="-2.728817">
        <ele>216.178602</ele>
        <time>2020-06-21T10:33:29.000Z</time>
      </trkpt>
      <trkpt lat="54.557403" lon="-2.728463">
        <ele>217.252891</ele>
        <time>2020-06-21T10:33:31.000Z</time>
      </trkpt>
      <trkpt lat="54.557316" lon="-2.727192">
        <ele>222.69654</ele>
        <time>2020-06-21T10:33:39.000Z</time>
      </trkpt>
      <trkpt lat="54.557425" lon="-2.72524">
        <ele>231.11762</ele>
        <time>2020-06-21T10:33:52.000Z</time>
      </trkpt>
      <trkpt lat="54.557418" lon="-2.72475">
        <ele>233.45157</ele>
        <time>2020-06-21T10:33:55.000Z</time>
      </trkpt>
      <trkpt lat="54.557248" lon="-2.723646">
        <ele>239.057569</ele>
        <time>2020-06-21T10:34:02.000Z</time>
      </trkpt>
      <trkpt lat="54.557196" lon="-2.723487">
        <ele>239.871757</ele>
        <time>2020-06-21T10:34:03.000Z</time>
      </trkpt>
      <trkpt lat="54.556871" lon="-2.723057">
        <ele>243.338881</ele>
        <time>2020-06-21T10:34:08.000Z</time>
      </trkpt>
      <trkpt lat="54.556723" lon="-2.722764">
        <ele>245.188621</ele>
        <time>2020-06-21T10:34:11.000Z</time>
      </trkpt>
      <trkpt lat="54.55611" lon="-2.721171">
        <ele>253.167727</ele>
        <time>2020-06-21T10:34:23.000Z</time>
      </trkpt>
      <trkpt lat="54.555916" lon="-2.720442">
        <ele>256.430241</ele>
        <time>2020-06-21T10:34:28.000Z</time>
      </trkpt>
      <trkpt lat="54.555885" lon="-2.720158">
        <ele>257.636346</ele>
        <time>2020-06-21T10:34:30.000Z</time>
      </trkpt>
      <trkpt lat="54.555827" lon="-2.720052">
        <ele>258.179055</ele>
        <time>2020-06-21T10:34:31.000Z</time>
      </trkpt>
      <trkpt lat="54.555579" lon="-2.719808">
        <ele>259.302411</ele>
        <time>2020-06-21T10:34:34.000Z</time>
      </trkpt>
      <trkpt lat="54.555448" lon="-2.719742">
        <ele>259.741691</ele>
        <time>2020-06-21T10:34:36.000Z</time>
      </trkpt>
      <trkpt lat="54.555327" lon="-2.719788">
        <ele>260.167143</ele>
        <time>2020-06-21T10:34:37.000Z</time>
      </trkpt>
      <trkpt lat="54.555034" lon="-2.719767">
        <ele>261.110069</ele>
        <time>2020-06-21T10:34:40.000Z</time>
      </trkpt>
      <trkpt lat="54.553806" lon="-2.719072">
        <ele>264.818475</ele>
        <time>2020-06-21T10:34:54.000Z</time>
      </trkpt>
      <trkpt lat="54.55372" lon="-2.719064">
        <ele>264.938389</ele>
        <time>2020-06-21T10:34:55.000Z</time>
      </trkpt>
      <trkpt lat="54.55362" lon="-2.719115">
        <ele>265.073905</ele>
        <time>2020-06-21T10:34:56.000Z</time>
      </trkpt>
      <trkpt lat="54.55342" lon="-2.719285">
        <ele>265.360681</ele>
        <time>2020-06-21T10:34:58.000Z</time>
      </trkpt>
      <trkpt lat="54.552261" lon="-2.719399">
        <ele>266.87173</ele>
        <time>2020-06-21T10:35:11.000Z</time>
      </trkpt>
      <trkpt lat="54.551955" lon="-2.719311">
        <ele>267.240976</ele>
        <time>2020-06-21T10:35:14.000Z</time>
      </trkpt>
      <trkpt lat="54.551106" lon="-2.719032">
        <ele>268.281494</ele>
        <time>2020-06-21T10:35:24.000Z</time>
      </trkpt>
      <trkpt lat="54.550099" lon="-2.718387">
        <ele>269.710663</ele>
        <time>2020-06-21T10:35:36.000Z</time>
      </trkpt>
      <trkpt lat="54.549965" lon="-2.718112">
        <ele>270.032045</ele>
        <time>2020-06-21T10:35:38.000Z</time>
      </trkpt>
      <trkpt lat="54.549811" lon="-2.717751">
        <ele>270.428105</ele>
        <time>2020-06-21T10:35:41.000Z</time>
      </trkpt>
      <trkpt lat="54.549727" lon="-2.717589">
        <ele>270.599738</ele>
        <time>2020-06-21T10:35:42.000Z</time>
      </trkpt>
      <trkpt lat="54.549255" lon="-2.717112">
        <ele>271.427559</ele>
        <time>2020-06-21T10:35:48.000Z</time>
      </trkpt>
      <trkpt lat="54.548828" lon="-2.716467">
        <ele>272.127298</ele>
        <time>2020-06-21T10:35:54.000Z</time>
      </trkpt>
      <trkpt lat="54.54855" lon="-2.716184">
        <ele>272.499913</ele>
        <time>2020-06-21T10:35:58.000Z</time>
      </trkpt>
      <trkpt lat="54.548517" lon="-2.716155">
        <ele>272.540579</ele>
        <time>2020-06-21T10:35:58.000Z</time>
      </trkpt>
      <trkpt lat="54.547348" lon="-2.71422">
        <ele>274.23493</ele>
        <time>2020-06-21T10:36:16.000Z</time>
      </trkpt>
      <trkpt lat="54.547217" lon="-2.713788">
        <ele>274.483669</ele>
        <time>2020-06-21T10:36:19.000Z</time>
      </trkpt>
      <trkpt lat="54.546986" lon="-2.713395">
        <ele>274.765292</ele>
        <time>2020-06-21T10:36:23.000Z</time>
      </trkpt>
      <trkpt lat="54.546048" lon="-2.711333">
        <ele>275.267256</ele>
        <time>2020-06-21T10:36:40.000Z</time>
      </trkpt>
      <trkpt lat="54.545788" lon="-2.710623">
        <ele>275.262997</ele>
        <time>2020-06-21T10:36:45.000Z</time>
      </trkpt>
      <trkpt lat="54.545683" lon="-2.710041">
        <ele>275.259961</ele>
        <time>2020-06-21T10:36:49.000Z</time>
      </trkpt>
      <trkpt lat="54.545523" lon="-2.709124">
        <ele>274.770252</ele>
        <time>2020-06-21T10:36:55.000Z</time>
      </trkpt>
      <trkpt lat="54.545413" lon="-2.708698">
        <ele>274.524028</ele>
        <time>2020-06-21T10:36:58.000Z</time>
      </trkpt>
      <trkpt lat="54.54489" lon="-2.707083">
        <ele>273.703921</ele>
        <time>2020-06-21T10:37:10.000Z</time>
      </trkpt>
      <trkpt lat="54.54471" lon="-2.706504">
        <ele>274.080904</ele>
        <time>2020-06-21T10:37:14.000Z</time>
      </trkpt>
      <trkpt lat="54.544302" lon="-2.705242">
        <ele>274.912094</ele>
        <time>2020-06-21T10:37:23.000Z</time>
      </trkpt>
      <trkpt lat="54.543013" lon="-2.702459">
        <ele>279.282081</ele>
        <time>2020-06-21T10:37:46.000Z</time>
      </trkpt>
      <trkpt lat="54.542251" lon="-2.701781">
        <ele>280.319347</ele>
        <time>2020-06-21T10:37:56.000Z</time>
      </trkpt>
      <trkpt lat="54.542059" lon="-2.701521">
        <ele>280.488632</ele>
        <time>2020-06-21T10:37:59.000Z</time>
      </trkpt>
      <trkpt lat="54.541858" lon="-2.700743">
        <ele>280.856441</ele>
        <time>2020-06-21T10:38:04.000Z</time>
      </trkpt>
      <trkpt lat="54.54141" lon="-2.699737">
        <ele>280.344217</ele>
        <time>2020-06-21T10:38:12.000Z</time>
      </trkpt>
      <trkpt lat="54.541158" lon="-2.699321">
        <ele>279.39952</ele>
        <time>2020-06-21T10:38:16.000Z</time>
      </trkpt>
      <trkpt lat="54.540716" lon="-2.6988">
        <ele>277.950302</ele>
        <time>2020-06-21T10:38:22.000Z</time>
      </trkpt>
      <trkpt lat="54.540239" lon="-2.698472">
        <ele>276.509038</ele>
        <time>2020-06-21T10:38:28.000Z</time>
      </trkpt>
      <trkpt lat="54.538229" lon="-2.696105">
        <ele>266.12802</ele>
        <time>2020-06-21T10:38:55.000Z</time>
      </trkpt>
      <trkpt lat="54.537741" lon="-2.695363">
        <ele>263.401416</ele>
        <time>2020-06-21T10:39:02.000Z</time>
      </trkpt>
      <trkpt lat="54.537474" lon="-2.694985">
        <ele>261.892516</ele>
        <time>2020-06-21T10:39:06.000Z</time>
      </trkpt>
      <trkpt lat="54.537427" lon="-2.694936">
        <ele>261.692836</ele>
        <time>2020-06-21T10:39:07.000Z</time>
      </trkpt>
      <trkpt lat="54.537057" lon="-2.694424">
        <ele>260.21146</ele>
        <time>2020-06-21T10:39:12.000Z</time>
      </trkpt>
      <trkpt lat="54.536601" lon="-2.693859">
        <ele>258.897623</ele>
        <time>2020-06-21T10:39:18.000Z</time>
      </trkpt>
      <trkpt lat="54.536563" lon="-2.693794">
        <ele>258.750635</ele>
        <time>2020-06-21T10:39:19.000Z</time>
      </trkpt>
      <trkpt lat="54.535891" lon="-2.692737">
        <ele>256.620673</ele>
        <time>2020-06-21T10:39:29.000Z</time>
      </trkpt>
      <trkpt lat="54.53561" lon="-2.692562">
        <ele>256.70083</ele>
        <time>2020-06-21T10:39:32.000Z</time>
      </trkpt>
      <trkpt lat="54.535357" lon="-2.692395">
        <ele>256.791352</ele>
        <time>2020-06-21T10:39:35.000Z</time>
      </trkpt>
      <trkpt lat="54.535123" lon="-2.692231">
        <ele>256.875109</ele>
        <time>2020-06-21T10:39:38.000Z</time>
      </trkpt>
      <trkpt lat="54.534896" lon="-2.692061">
        <ele>256.954521</ele>
        <time>2020-06-21T10:39:41.000Z</time>
      </trkpt>
      <trkpt lat="54.534085" lon="-2.691036">
        <ele>257.652428</ele>
        <time>2020-06-21T10:39:52.000Z</time>
      </trkpt>
      <trkpt lat="54.533516" lon="-2.690034">
        <ele>258.997206</ele>
        <time>2020-06-21T10:40:01.000Z</time>
      </trkpt>
      <trkpt lat="54.532947" lon="-2.689628">
        <ele>259.995663</ele>
        <time>2020-06-21T10:40:08.000Z</time>
      </trkpt>
      <trkpt lat="54.53252" lon="-2.689503">
        <ele>260.264218</ele>
        <time>2020-06-21T10:40:13.000Z</time>
      </trkpt>
      <trkpt lat="54.532319" lon="-2.689504">
        <ele>260.317641</ele>
        <time>2020-06-21T10:40:15.000Z</time>
      </trkpt>
      <trkpt lat="54.532238" lon="-2.68952">
        <ele>260.336792</ele>
        <time>2020-06-21T10:40:16.000Z</time>
      </trkpt>
      <trkpt lat="54.532129" lon="-2.689075">
        <ele>260.408198</ele>
        <time>2020-06-21T10:40:19.000Z</time>
      </trkpt>
      <trkpt lat="54.532047" lon="-2.688427">
        <ele>260.511015</ele>
        <time>2020-06-21T10:40:23.000Z</time>
      </trkpt>
      <trkpt lat="54.532072" lon="-2.687732">
        <ele>260.618497</ele>
        <time>2020-06-21T10:40:27.000Z</time>
      </trkpt>
      <trkpt lat="54.532219" lon="-2.686652">
        <ele>259.632671</ele>
        <time>2020-06-21T10:40:34.000Z</time>
      </trkpt>
      <trkpt lat="54.532427" lon="-2.685685">
        <ele>258.48943</ele>
        <time>2020-06-21T10:40:41.000Z</time>
      </trkpt>
      <trkpt lat="54.532334" lon="-2.684144">
        <ele>256.852393</ele>
        <time>2020-06-21T10:40:51.000Z</time>
      </trkpt>
      <trkpt lat="54.5324" lon="-2.683799">
        <ele>256.55529</ele>
        <time>2020-06-21T10:40:53.000Z</time>
      </trkpt>
      <trkpt lat="54.532441" lon="-2.683701">
        <ele>256.451557</ele>
        <time>2020-06-21T10:40:54.000Z</time>
      </trkpt>
      <trkpt lat="54.533031" lon="-2.68286">
        <ele>255.341901</ele>
        <time>2020-06-21T10:41:03.000Z</time>
      </trkpt>
      <trkpt lat="54.533394" lon="-2.682293">
        <ele>254.635292</ele>
        <time>2020-06-21T10:41:08.000Z</time>
      </trkpt>
      <trkpt lat="54.533887" lon="-2.681529">
        <ele>254.885613</ele>
        <time>2020-06-21T10:41:15.000Z</time>
      </trkpt>
      <trkpt lat="54.533985" lon="-2.681317">
        <ele>254.969416</ele>
        <time>2020-06-21T10:41:17.000Z</time>
      </trkpt>
      <trkpt lat="54.53403" lon="-2.681154">
        <ele>255.022892</ele>
        <time>2020-06-21T10:41:18.000Z</time>
      </trkpt>
      <trkpt lat="54.534053" lon="-2.680965">
        <ele>255.081754</ele>
        <time>2020-06-21T10:41:19.000Z</time>
      </trkpt>
      <trkpt lat="54.534017" lon="-2.680848">
        <ele>255.11873</ele>
        <time>2020-06-21T10:41:20.000Z</time>
      </trkpt>
      <trkpt lat="54.533929" lon="-2.680296">
        <ele>255.289347</ele>
        <time>2020-06-21T10:41:24.000Z</time>
      </trkpt>
      <trkpt lat="54.533752" lon="-2.679391">
        <ele>255.779671</ele>
        <time>2020-06-21T10:41:30.000Z</time>
      </trkpt>
      <trkpt lat="54.533716" lon="-2.679046">
        <ele>256.159395</ele>
        <time>2020-06-21T10:41:32.000Z</time>
      </trkpt>
      <trkpt lat="54.533741" lon="-2.679003">
        <ele>256.233891</ele>
        <time>2020-06-21T10:41:32.000Z</time>
      </trkpt>
      <trkpt lat="54.534167" lon="-2.678771">
        <ele>257.054832</ele>
        <time>2020-06-21T10:41:37.000Z</time>
      </trkpt>
      <trkpt lat="54.534292" lon="-2.678712">
        <ele>257.291462</ele>
        <time>2020-06-21T10:41:38.000Z</time>
      </trkpt>
      <trkpt lat="54.534368" lon="-2.67873">
        <ele>257.436653</ele>
        <time>2020-06-21T10:41:39.000Z</time>
      </trkpt>
      <trkpt lat="54.534501" lon="-2.67875">
        <ele>257.662068</ele>
        <time>2020-06-21T10:41:40.000Z</time>
      </trkpt>
      <trkpt lat="54.534756" lon="-2.678785">
        <ele>258.126904</ele>
        <time>2020-06-21T10:41:43.000Z</time>
      </trkpt>
      <trkpt lat="54.535011" lon="-2.678795">
        <ele>258.623703</ele>
        <time>2020-06-21T10:41:46.000Z</time>
      </trkpt>
      <trkpt lat="54.535298" lon="-2.678825">
        <ele>259.12713</ele>
        <time>2020-06-21T10:41:49.000Z</time>
      </trkpt>
      <trkpt lat="54.536022" lon="-2.678965">
        <ele>260.505648</ele>
        <time>2020-06-21T10:41:57.000Z</time>
      </trkpt>
      <trkpt lat="54.536835" lon="-2.679096">
        <ele>262.022867</ele>
        <time>2020-06-21T10:42:06.000Z</time>
      </trkpt>
      <trkpt lat="54.53763" lon="-2.679263">
        <ele>263.907825</ele>
        <time>2020-06-21T10:42:15.000Z</time>
      </trkpt>
      <trkpt lat="54.538491" lon="-2.679568">
        <ele>265.985664</ele>
        <time>2020-06-21T10:42:25.000Z</time>
      </trkpt>
      <trkpt lat="54.540018" lon="-2.680367">
        <ele>272.01666</ele>
        <time>2020-06-21T10:42:43.000Z</time>
      </trkpt>
      <trkpt lat="54.540549" lon="-2.680504">
        <ele>273.922117</ele>
        <time>2020-06-21T10:42:49.000Z</time>
      </trkpt>
      <trkpt lat="54.540959" lon="-2.680616">
        <ele>274.92927</ele>
        <time>2020-06-21T10:42:54.000Z</time>
      </trkpt>
      <trkpt lat="54.541121" lon="-2.680661">
        <ele>275.345827</ele>
        <time>2020-06-21T10:42:56.000Z</time>
      </trkpt>
      <trkpt lat="54.542779" lon="-2.681079">
        <ele>278.069908</ele>
        <time>2020-06-21T10:43:15.000Z</time>
      </trkpt>
      <trkpt lat="54.543242" lon="-2.681219">
        <ele>278.157221</ele>
        <time>2020-06-21T10:43:20.000Z</time>
      </trkpt>
      <trkpt lat="54.545505" lon="-2.68209">
        <ele>277.181134</ele>
        <time>2020-06-21T10:43:46.000Z</time>
      </trkpt>
      <trkpt lat="54.547055" lon="-2.682705">
        <ele>276.029216</ele>
        <time>2020-06-21T10:44:04.000Z</time>
      </trkpt>
      <trkpt lat="54.548247" lon="-2.683773">
        <ele>274.617082</ele>
        <time>2020-06-21T10:44:19.000Z</time>
      </trkpt>
      <trkpt lat="54.54893" lon="-2.684229">
        <ele>273.737263</ele>
        <time>2020-06-21T10:44:27.000Z</time>
      </trkpt>
      <trkpt lat="54.552307" lon="-2.685791">
        <ele>264.265416</ele>
        <time>2020-06-21T10:45:06.000Z</time>
      </trkpt>
      <trkpt lat="54.553471" lon="-2.686525">
        <ele>260.289076</ele>
        <time>2020-06-21T10:45:20.000Z</time>
      </trkpt>
      <trkpt lat="54.553973" lon="-2.686836">
        <ele>258.570493</ele>
        <time>2020-06-21T10:45:26.000Z</time>
      </trkpt>
      <trkpt lat="54.555792" lon="-2.68761">
        <ele>253.446818</ele>
        <time>2020-06-21T10:45:47.000Z</time>
      </trkpt>
      <trkpt lat="54.556762" lon="-2.687752">
        <ele>250.376029</ele>
        <time>2020-06-21T10:45:58.000Z</time>
      </trkpt>
      <trkpt lat="54.557523" lon="-2.687719">
        <ele>247.855151</ele>
        <time>2020-06-21T10:46:06.000Z</time>
      </trkpt>
      <trkpt lat="54.558784" lon="-2.68768">
        <ele>244.649381</ele>
        <time>2020-06-21T10:46:20.000Z</time>
      </trkpt>
      <trkpt lat="54.559198" lon="-2.687692">
        <ele>243.656852</ele>
        <time>2020-06-21T10:46:25.000Z</time>
      </trkpt>
      <trkpt lat="54.561522" lon="-2.687532">
        <ele>242.540853</ele>
        <time>2020-06-21T10:46:51.000Z</time>
      </trkpt>
      <trkpt lat="54.562289" lon="-2.687569">
        <ele>242.214254</ele>
        <time>2020-06-21T10:47:00.000Z</time>
      </trkpt>
      <trkpt lat="54.564631" lon="-2.687531">
        <ele>240.267954</ele>
        <time>2020-06-21T10:47:26.000Z</time>
      </trkpt>
      <trkpt lat="54.565374" lon="-2.687321">
        <ele>238.965822</ele>
        <time>2020-06-21T10:47:34.000Z</time>
      </trkpt>
      <trkpt lat="54.566965" lon="-2.68644">
        <ele>235.372464</ele>
        <time>2020-06-21T10:47:53.000Z</time>
      </trkpt>
      <trkpt lat="54.567799" lon="-2.686293">
        <ele>233.783083</ele>
        <time>2020-06-21T10:48:02.000Z</time>
      </trkpt>
      <trkpt lat="54.568498" lon="-2.686403">
        <ele>232.538492</ele>
        <time>2020-06-21T10:48:10.000Z</time>
      </trkpt>
      <trkpt lat="54.569088" lon="-2.686806">
        <ele>232.966899</ele>
        <time>2020-06-21T10:48:17.000Z</time>
      </trkpt>
      <trkpt lat="54.571168" lon="-2.688731">
        <ele>235.931264</ele>
        <time>2020-06-21T10:48:43.000Z</time>
      </trkpt>
      <trkpt lat="54.573687" lon="-2.690602">
        <ele>241.830668</ele>
        <time>2020-06-21T10:49:14.000Z</time>
      </trkpt>
      <trkpt lat="54.574431" lon="-2.691302">
        <ele>243.42926</ele>
        <time>2020-06-21T10:49:23.000Z</time>
      </trkpt>
      <trkpt lat="54.575576" lon="-2.692661">
        <ele>244.584744</ele>
        <time>2020-06-21T10:49:38.000Z</time>
      </trkpt>
      <trkpt lat="54.576417" lon="-2.693302">
        <ele>244.64308</ele>
        <time>2020-06-21T10:49:48.000Z</time>
      </trkpt>
      <trkpt lat="54.577373" lon="-2.694423">
        <ele>242.773531</ele>
        <time>2020-06-21T10:50:01.000Z</time>
      </trkpt>
      <trkpt lat="54.579302" lon="-2.695957">
        <ele>238.181459</ele>
        <time>2020-06-21T10:50:25.000Z</time>
      </trkpt>
      <trkpt lat="54.580196" lon="-2.696381">
        <ele>235.708542</ele>
        <time>2020-06-21T10:50:35.000Z</time>
      </trkpt>
      <trkpt lat="54.581229" lon="-2.696798">
        <ele>232.667992</ele>
        <time>2020-06-21T10:50:47.000Z</time>
      </trkpt>
      <trkpt lat="54.581638" lon="-2.697017">
        <ele>231.611733</ele>
        <time>2020-06-21T10:50:52.000Z</time>
      </trkpt>
      <trkpt lat="54.582102" lon="-2.697244">
        <ele>230.557072</ele>
        <time>2020-06-21T10:50:57.000Z</time>
      </trkpt>
      <trkpt lat="54.582894" lon="-2.697352">
        <ele>228.811178</ele>
        <time>2020-06-21T10:51:06.000Z</time>
      </trkpt>
      <trkpt lat="54.583759" lon="-2.697179">
        <ele>227.539184</ele>
        <time>2020-06-21T10:51:16.000Z</time>
      </trkpt>
      <trkpt lat="54.58459" lon="-2.697324">
        <ele>226.634404</ele>
        <time>2020-06-21T10:51:25.000Z</time>
      </trkpt>
      <trkpt lat="54.588622" lon="-2.698598">
        <ele>221.984157</ele>
        <time>2020-06-21T10:52:11.000Z</time>
      </trkpt>
      <trkpt lat="54.588816" lon="-2.698703">
        <ele>221.965724</ele>
        <time>2020-06-21T10:52:13.000Z</time>
      </trkpt>
      <trkpt lat="54.589036" lon="-2.698726">
        <ele>221.94384</ele>
        <time>2020-06-21T10:52:15.000Z</time>
      </trkpt>
      <trkpt lat="54.589088" lon="-2.698743">
        <ele>221.938266</ele>
        <time>2020-06-21T10:52:16.000Z</time>
      </trkpt>
      <trkpt lat="54.589262" lon="-2.698826">
        <ele>221.920472</ele>
        <time>2020-06-21T10:52:18.000Z</time>
      </trkpt>
      <trkpt lat="54.592346" lon="-2.6998">
        <ele>222.714466</ele>
        <time>2020-06-21T10:52:53.000Z</time>
      </trkpt>
      <trkpt lat="54.594668" lon="-2.701038">
        <ele>223.417988</ele>
        <time>2020-06-21T10:53:20.000Z</time>
      </trkpt>
      <trkpt lat="54.596249" lon="-2.701157">
        <ele>225.282795</ele>
        <time>2020-06-21T10:53:38.000Z</time>
      </trkpt>
      <trkpt lat="54.596489" lon="-2.70133">
        <ele>225.744772</ele>
        <time>2020-06-21T10:53:41.000Z</time>
      </trkpt>
      <trkpt lat="54.596685" lon="-2.701526">
        <ele>226.148681</ele>
        <time>2020-06-21T10:53:44.000Z</time>
      </trkpt>
      <trkpt lat="54.596841" lon="-2.701782">
        <ele>226.550129</ele>
        <time>2020-06-21T10:53:46.000Z</time>
      </trkpt>
      <trkpt lat="54.597004" lon="-2.702155">
        <ele>227.058059</ele>
        <time>2020-06-21T10:53:49.000Z</time>
      </trkpt>
      <trkpt lat="54.597285" lon="-2.703059">
        <ele>227.757152</ele>
        <time>2020-06-21T10:53:56.000Z</time>
      </trkpt>
      <trkpt lat="54.59761" lon="-2.703872">
        <ele>228.363752</ele>
        <time>2020-06-21T10:54:02.000Z</time>
      </trkpt>
      <trkpt lat="54.598971" lon="-2.705267">
        <ele>229.48955</ele>
        <time>2020-06-21T10:54:20.000Z</time>
      </trkpt>
      <trkpt lat="54.59976" lon="-2.706744">
        <ele>229.907532</ele>
        <time>2020-06-21T10:54:33.000Z</time>
      </trkpt>
      <trkpt lat="54.600092" lon="-2.707364">
        <ele>229.948025</ele>
        <time>2020-06-21T10:54:38.000Z</time>
      </trkpt>
      <trkpt lat="54.600501" lon="-2.707807">
        <ele>229.988704</ele>
        <time>2020-06-21T10:54:43.000Z</time>
      </trkpt>
      <trkpt lat="54.600517" lon="-2.707844">
        <ele>229.991707</ele>
        <time>2020-06-21T10:54:43.000Z</time>
      </trkpt>
      <trkpt lat="54.600581" lon="-2.707894">
        <ele>229.997836</ele>
        <time>2020-06-21T10:54:44.000Z</time>
      </trkpt>
      <trkpt lat="54.601059" lon="-2.708321">
        <ele>230.029388</ele>
        <time>2020-06-21T10:54:50.000Z</time>
      </trkpt>
      <trkpt lat="54.601252" lon="-2.708485">
        <ele>229.919536</ele>
        <time>2020-06-21T10:54:52.000Z</time>
      </trkpt>
      <trkpt lat="54.601587" lon="-2.708786">
        <ele>229.71964</ele>
        <time>2020-06-21T10:54:56.000Z</time>
      </trkpt>
      <trkpt lat="54.601625" lon="-2.70884">
        <ele>229.700486</ele>
        <time>2020-06-21T10:54:57.000Z</time>
      </trkpt>
      <trkpt lat="54.60179" lon="-2.70905">
        <ele>229.587071</ele>
        <time>2020-06-21T10:54:59.000Z</time>
      </trkpt>
      <trkpt lat="54.60209" lon="-2.70956">
        <ele>229.363784</ele>
        <time>2020-06-21T10:55:04.000Z</time>
      </trkpt>
      <trkpt lat="54.602217" lon="-2.709824">
        <ele>229.262457</ele>
        <time>2020-06-21T10:55:06.000Z</time>
      </trkpt>
      <trkpt lat="54.602633" lon="-2.710934">
        <ele>228.939127</ele>
        <time>2020-06-21T10:55:15.000Z</time>
      </trkpt>
      <trkpt lat="54.603107" lon="-2.712011">
        <ele>228.659362</ele>
        <time>2020-06-21T10:55:24.000Z</time>
      </trkpt>
      <trkpt lat="54.603446" lon="-2.712642">
        <ele>228.480535</ele>
        <time>2020-06-21T10:55:30.000Z</time>
      </trkpt>
      <trkpt lat="54.603908" lon="-2.713489">
        <ele>227.125011</ele>
        <time>2020-06-21T10:55:37.000Z</time>
      </trkpt>
      <trkpt lat="54.604737" lon="-2.714576">
        <ele>224.830169</ele>
        <time>2020-06-21T10:55:49.000Z</time>
      </trkpt>
      <trkpt lat="54.605315" lon="-2.715044">
        <ele>222.743712</ele>
        <time>2020-06-21T10:55:56.000Z</time>
      </trkpt>
      <trkpt lat="54.605886" lon="-2.71548">
        <ele>220.482542</ele>
        <time>2020-06-21T10:56:03.000Z</time>
      </trkpt>
      <trkpt lat="54.607457" lon="-2.716495">
        <ele>215.34056</ele>
        <time>2020-06-21T10:56:22.000Z</time>
      </trkpt>
      <trkpt lat="54.608401" lon="-2.717093">
        <ele>212.763257</ele>
        <time>2020-06-21T10:56:33.000Z</time>
      </trkpt>
      <trkpt lat="54.609175" lon="-2.717302">
        <ele>211.293602</ele>
        <time>2020-06-21T10:56:42.000Z</time>
      </trkpt>
      <trkpt lat="54.609676" lon="-2.717258">
        <ele>210.347959</ele>
        <time>2020-06-21T10:56:48.000Z</time>
      </trkpt>
      <trkpt lat="54.611711" lon="-2.716954">
        <ele>204.514235</ele>
        <time>2020-06-21T10:57:11.000Z</time>
      </trkpt>
      <trkpt lat="54.612355" lon="-2.71676">
        <ele>201.648631</ele>
        <time>2020-06-21T10:57:18.000Z</time>
      </trkpt>
      <trkpt lat="54.613047" lon="-2.716347">
        <ele>198.313885</ele>
        <time>2020-06-21T10:57:26.000Z</time>
      </trkpt>
      <trkpt lat="54.613574" lon="-2.715945">
        <ele>195.787418</ele>
        <time>2020-06-21T10:57:32.000Z</time>
      </trkpt>
      <trkpt lat="54.614097" lon="-2.71563">
        <ele>193.905996</ele>
        <time>2020-06-21T10:57:38.000Z</time>
      </trkpt>
      <trkpt lat="54.614678" lon="-2.715417">
        <ele>191.90056</ele>
        <time>2020-06-21T10:57:45.000Z</time>
      </trkpt>
      <trkpt lat="54.615429" lon="-2.715438">
        <ele>189.728552</ele>
        <time>2020-06-21T10:57:53.000Z</time>
      </trkpt>
      <trkpt lat="54.617184" lon="-2.715928">
        <ele>186.50848</ele>
        <time>2020-06-21T10:58:13.000Z</time>
      </trkpt>
      <trkpt lat="54.617705" lon="-2.715928">
        <ele>185.428495</ele>
        <time>2020-06-21T10:58:19.000Z</time>
      </trkpt>
      <trkpt lat="54.619615" lon="-2.715567">
        <ele>181.671941</ele>
        <time>2020-06-21T10:58:40.000Z</time>
      </trkpt>
      <trkpt lat="54.619639" lon="-2.715561">
        <ele>181.611033</ele>
        <time>2020-06-21T10:58:40.000Z</time>
      </trkpt>
      <trkpt lat="54.620131" lon="-2.715468">
        <ele>180.697123</ele>
        <time>2020-06-21T10:58:46.000Z</time>
      </trkpt>
      <trkpt lat="54.620218" lon="-2.715454">
        <ele>180.545785</ele>
        <time>2020-06-21T10:58:47.000Z</time>
      </trkpt>
      <trkpt lat="54.62132" lon="-2.715566">
        <ele>180.095583</ele>
        <time>2020-06-21T10:58:59.000Z</time>
      </trkpt>
      <trkpt lat="54.622611" lon="-2.71589">
        <ele>180.298956</ele>
        <time>2020-06-21T10:59:14.000Z</time>
      </trkpt>
      <trkpt lat="54.624105" lon="-2.71646">
        <ele>179.528835</ele>
        <time>2020-06-21T10:59:31.000Z</time>
      </trkpt>
      <trkpt lat="54.627192" lon="-2.718137">
        <ele>166.705261</ele>
        <time>2020-06-21T11:00:07.000Z</time>
      </trkpt>
      <trkpt lat="54.628353" lon="-2.718814">
        <ele>162.493864</ele>
        <time>2020-06-21T11:00:21.000Z</time>
      </trkpt>
      <trkpt lat="54.628896" lon="-2.719135">
        <ele>160.734555</ele>
        <time>2020-06-21T11:00:27.000Z</time>
      </trkpt>
      <trkpt lat="54.629483" lon="-2.7196">
        <ele>159.58617</ele>
        <time>2020-06-21T11:00:34.000Z</time>
      </trkpt>
      <trkpt lat="54.63016" lon="-2.720355">
        <ele>159.721043</ele>
        <time>2020-06-21T11:00:43.000Z</time>
      </trkpt>
      <trkpt lat="54.630959" lon="-2.721177">
        <ele>160.272552</ele>
        <time>2020-06-21T11:00:53.000Z</time>
      </trkpt>
      <trkpt lat="54.631263" lon="-2.721469">
        <ele>161.104228</ele>
        <time>2020-06-21T11:00:57.000Z</time>
      </trkpt>
      <trkpt lat="54.631317" lon="-2.721517">
        <ele>161.208548</ele>
        <time>2020-06-21T11:00:58.000Z</time>
      </trkpt>
      <trkpt lat="54.631409" lon="-2.721607">
        <ele>161.4623</ele>
        <time>2020-06-21T11:00:59.000Z</time>
      </trkpt>
      <trkpt lat="54.631552" lon="-2.72175">
        <ele>161.841512</ele>
        <time>2020-06-21T11:01:01.000Z</time>
      </trkpt>
      <trkpt lat="54.631783" lon="-2.721978">
        <ele>162.475049</ele>
        <time>2020-06-21T11:01:04.000Z</time>
      </trkpt>
      <trkpt lat="54.63185" lon="-2.722024">
        <ele>162.60719</ele>
        <time>2020-06-21T11:01:05.000Z</time>
      </trkpt>
      <trkpt lat="54.632201" lon="-2.722465">
        <ele>163.627792</ele>
        <time>2020-06-21T11:01:10.000Z</time>
      </trkpt>
      <trkpt lat="54.632442" lon="-2.722836">
        <ele>164.063724</ele>
        <time>2020-06-21T11:01:14.000Z</time>
      </trkpt>
      <trkpt lat="54.63291" lon="-2.723624">
        <ele>164.414577</ele>
        <time>2020-06-21T11:01:21.000Z</time>
      </trkpt>
      <trkpt lat="54.632962" lon="-2.723738">
        <ele>164.460487</ele>
        <time>2020-06-21T11:01:22.000Z</time>
      </trkpt>
      <trkpt lat="54.633205" lon="-2.724104">
        <ele>164.63592</ele>
        <time>2020-06-21T11:01:26.000Z</time>
      </trkpt>
      <trkpt lat="54.633287" lon="-2.724218">
        <ele>164.688743</ele>
        <time>2020-06-21T11:01:27.000Z</time>
      </trkpt>
      <trkpt lat="54.634027" lon="-2.725008">
        <ele>164.049048</ele>
        <time>2020-06-21T11:01:37.000Z</time>
      </trkpt>
      <trkpt lat="54.63432" lon="-2.725328">
        <ele>163.275341</ele>
        <time>2020-06-21T11:01:41.000Z</time>
      </trkpt>
      <trkpt lat="54.63504" lon="-2.726011">
        <ele>161.462831</ele>
        <time>2020-06-21T11:01:50.000Z</time>
      </trkpt>
      <trkpt lat="54.635751" lon="-2.726441">
        <ele>159.104026</ele>
        <time>2020-06-21T11:01:58.000Z</time>
      </trkpt>
      <trkpt lat="54.635853" lon="-2.726545">
        <ele>158.685251</ele>
        <time>2020-06-21T11:01:59.000Z</time>
      </trkpt>
      <trkpt lat="54.636094" lon="-2.726804">
        <ele>157.660124</ele>
        <time>2020-06-21T11:02:02.000Z</time>
      </trkpt>
      <trkpt lat="54.636334" lon="-2.727064">
        <ele>156.612465</ele>
        <time>2020-06-21T11:02:05.000Z</time>
      </trkpt>
      <trkpt lat="54.636432" lon="-2.727083">
        <ele>156.261476</ele>
        <time>2020-06-21T11:02:06.000Z</time>
      </trkpt>
      <trkpt lat="54.636474" lon="-2.72708">
        <ele>156.095537</ele>
        <time>2020-06-21T11:02:06.000Z</time>
      </trkpt>
      <trkpt lat="54.636606" lon="-2.727003">
        <ele>155.567879</ele>
        <time>2020-06-21T11:02:08.000Z</time>
      </trkpt>
      <trkpt lat="54.637092" lon="-2.726838">
        <ele>153.520705</ele>
        <time>2020-06-21T11:02:14.000Z</time>
      </trkpt>
      <trkpt lat="54.637681" lon="-2.727167">
        <ele>150.461403</ele>
        <time>2020-06-21T11:02:21.000Z</time>
      </trkpt>
      <trkpt lat="54.638039" lon="-2.727374">
        <ele>148.54673</ele>
        <time>2020-06-21T11:02:25.000Z</time>
      </trkpt>
      <trkpt lat="54.638457" lon="-2.727674">
        <ele>146.223654</ele>
        <time>2020-06-21T11:02:30.000Z</time>
      </trkpt>
      <trkpt lat="54.638971" lon="-2.728203">
        <ele>143.416992</ele>
        <time>2020-06-21T11:02:37.000Z</time>
      </trkpt>
      <trkpt lat="54.640418" lon="-2.729488">
        <ele>136.471017</ele>
        <time>2020-06-21T11:02:55.000Z</time>
      </trkpt>
      <trkpt lat="54.641256" lon="-2.729956">
        <ele>134.131634</ele>
        <time>2020-06-21T11:03:05.000Z</time>
      </trkpt>
      <trkpt lat="54.641901" lon="-2.730607">
        <ele>132.253974</ele>
        <time>2020-06-21T11:03:13.000Z</time>
      </trkpt>
      <trkpt lat="54.642522" lon="-2.731416">
        <ele>130.790324</ele>
        <time>2020-06-21T11:03:22.000Z</time>
      </trkpt>
      <trkpt lat="54.643285" lon="-2.732725">
        <ele>128.711153</ele>
        <time>2020-06-21T11:03:34.000Z</time>
      </trkpt>
      <trkpt lat="54.645082" lon="-2.735555">
        <ele>124.034496</ele>
        <time>2020-06-21T11:04:01.000Z</time>
      </trkpt>
      <trkpt lat="54.645909" lon="-2.736236">
        <ele>122.822866</ele>
        <time>2020-06-21T11:04:11.000Z</time>
      </trkpt>
      <trkpt lat="54.646174" lon="-2.736612">
        <ele>122.712825</ele>
        <time>2020-06-21T11:04:15.000Z</time>
      </trkpt>
      <trkpt lat="54.646393" lon="-2.737082">
        <ele>122.760424</ele>
        <time>2020-06-21T11:04:19.000Z</time>
      </trkpt>
      <trkpt lat="54.646465" lon="-2.737534">
        <ele>122.798235</ele>
        <time>2020-06-21T11:04:22.000Z</time>
      </trkpt>
      <trkpt lat="54.64672" lon="-2.738752">
        <ele>122.901733</ele>
        <time>2020-06-21T11:04:30.000Z</time>
      </trkpt>
      <trkpt lat="54.646787" lon="-2.738936">
        <ele>122.91868</ele>
        <time>2020-06-21T11:04:31.000Z</time>
      </trkpt>
      <trkpt lat="54.647095" lon="-2.739267">
        <ele>123.09786</ele>
        <time>2020-06-21T11:04:35.000Z</time>
      </trkpt>
      <trkpt lat="54.64807" lon="-2.739391">
        <ele>123.635328</ele>
        <time>2020-06-21T11:04:46.000Z</time>
      </trkpt>
      <trkpt lat="54.648299" lon="-2.739538">
        <ele>123.768086</ele>
        <time>2020-06-21T11:04:49.000Z</time>
      </trkpt>
      <trkpt lat="54.648629" lon="-2.739735">
        <ele>124.072502</ele>
        <time>2020-06-21T11:04:53.000Z</time>
      </trkpt>
      <trkpt lat="54.648555" lon="-2.740315">
        <ele>124.721086</ele>
        <time>2020-06-21T11:04:57.000Z</time>
      </trkpt>
      <trkpt lat="54.648357" lon="-2.741552">
        <ele>126.100196</ele>
        <time>2020-06-21T11:05:05.000Z</time>
      </trkpt>
      <trkpt lat="54.648333" lon="-2.741825">
        <ele>126.402037</ele>
        <time>2020-06-21T11:05:07.000Z</time>
      </trkpt>
      <trkpt lat="54.648214" lon="-2.742409">
        <ele>127.076541</ele>
        <time>2020-06-21T11:05:11.000Z</time>
      </trkpt>
      <trkpt lat="54.648048" lon="-2.743079">
        <ele>128.233966</ele>
        <time>2020-06-21T11:05:16.000Z</time>
      </trkpt>
      <trkpt lat="54.647792" lon="-2.74369">
        <ele>129.550501</ele>
        <time>2020-06-21T11:05:21.000Z</time>
      </trkpt>
      <trkpt lat="54.6475" lon="-2.744286">
        <ele>130.973257</ele>
        <time>2020-06-21T11:05:26.000Z</time>
      </trkpt>
      <trkpt lat="54.647236" lon="-2.744644">
        <ele>131.957788</ele>
        <time>2020-06-21T11:05:30.000Z</time>
      </trkpt>
      <trkpt lat="54.647072" lon="-2.744886">
        <ele>132.653612</ele>
        <time>2020-06-21T11:05:32.000Z</time>
      </trkpt>
      <trkpt lat="54.646511" lon="-2.745488">
        <ele>133.884651</ele>
        <time>2020-06-21T11:05:39.000Z</time>
      </trkpt>
      <trkpt lat="54.646229" lon="-2.745805">
        <ele>134.485669</ele>
        <time>2020-06-21T11:05:43.000Z</time>
      </trkpt>
      <trkpt lat="54.645989" lon="-2.74615">
        <ele>135.036474</ele>
        <time>2020-06-21T11:05:46.000Z</time>
      </trkpt>
      <trkpt lat="54.645815" lon="-2.746479">
        <ele>135.493312</ele>
        <time>2020-06-21T11:05:49.000Z</time>
      </trkpt>
      <trkpt lat="54.645277" lon="-2.747923">
        <ele>136.45354</ele>
        <time>2020-06-21T11:06:00.000Z</time>
      </trkpt>
      <trkpt lat="54.645039" lon="-2.748377">
        <ele>136.669498</ele>
        <time>2020-06-21T11:06:04.000Z</time>
      </trkpt>
      <trkpt lat="54.644149" lon="-2.749404">
        <ele>137.552239</ele>
        <time>2020-06-21T11:06:16.000Z</time>
      </trkpt>
      <trkpt lat="54.643945" lon="-2.749733">
        <ele>137.92052</ele>
        <time>2020-06-21T11:06:19.000Z</time>
      </trkpt>
      <trkpt lat="54.643796" lon="-2.750118">
        <ele>138.273412</ele>
        <time>2020-06-21T11:06:22.000Z</time>
      </trkpt>
      <trkpt lat="54.64363" lon="-2.75097">
        <ele>138.967464</ele>
        <time>2020-06-21T11:06:28.000Z</time>
      </trkpt>
      <trkpt lat="54.643393" lon="-2.753037">
        <ele>141.071232</ele>
        <time>2020-06-21T11:06:42.000Z</time>
      </trkpt>
      <trkpt lat="54.643157" lon="-2.754401">
        <ele>142.681086</ele>
        <time>2020-06-21T11:06:51.000Z</time>
      </trkpt>
      <trkpt lat="54.643094" lon="-2.75486">
        <ele>143.326059</ele>
        <time>2020-06-21T11:06:54.000Z</time>
      </trkpt>
      <trkpt lat="54.643028" lon="-2.755338">
        <ele>144.107813</ele>
        <time>2020-06-21T11:06:57.000Z</time>
      </trkpt>
      <trkpt lat="54.642836" lon="-2.756301">
        <ele>145.778679</ele>
        <time>2020-06-21T11:07:04.000Z</time>
      </trkpt>
      <trkpt lat="54.64281" lon="-2.756488">
        <ele>146.096644</ele>
        <time>2020-06-21T11:07:05.000Z</time>
      </trkpt>
      <trkpt lat="54.642595" lon="-2.757324">
        <ele>147.588386</ele>
        <time>2020-06-21T11:07:11.000Z</time>
      </trkpt>
      <trkpt lat="54.642211" lon="-2.75851">
        <ele>149.754609</ele>
        <time>2020-06-21T11:07:20.000Z</time>
      </trkpt>
      <trkpt lat="54.641996" lon="-2.758995">
        <ele>150.690955</ele>
        <time>2020-06-21T11:07:24.000Z</time>
      </trkpt>
      <trkpt lat="54.641734" lon="-2.759328">
        <ele>151.571121</ele>
        <time>2020-06-21T11:07:28.000Z</time>
      </trkpt>
      <trkpt lat="54.641343" lon="-2.759585">
        <ele>152.711199</ele>
        <time>2020-06-21T11:07:33.000Z</time>
      </trkpt>
      <trkpt lat="54.640659" lon="-2.759757">
        <ele>155.002513</ele>
        <time>2020-06-21T11:07:41.000Z</time>
      </trkpt>
      <trkpt lat="54.639667" lon="-2.759758">
        <ele>158.314798</ele>
        <time>2020-06-21T11:07:52.000Z</time>
      </trkpt>
      <trkpt lat="54.636989" lon="-2.759576">
        <ele>168.615986</ele>
        <time>2020-06-21T11:08:22.000Z</time>
      </trkpt>
      <trkpt lat="54.633894" lon="-2.759332">
        <ele>178.662714</ele>
        <time>2020-06-21T11:08:56.000Z</time>
      </trkpt>
      <trkpt lat="54.632502" lon="-2.759335">
        <ele>182.182621</ele>
        <time>2020-06-21T11:09:11.000Z</time>
      </trkpt>
      <trkpt lat="54.631656" lon="-2.759531">
        <ele>184.709126</ele>
        <time>2020-06-21T11:09:20.000Z</time>
      </trkpt>
      <trkpt lat="54.630952" lon="-2.759273">
        <ele>186.898991</ele>
        <time>2020-06-21T11:09:28.000Z</time>
      </trkpt>
      <trkpt lat="54.629976" lon="-2.758778">
        <ele>190.156191</ele>
        <time>2020-06-21T11:09:39.000Z</time>
      </trkpt>
      <trkpt lat="54.628218" lon="-2.758008">
        <ele>195.609185</ele>
        <time>2020-06-21T11:09:59.000Z</time>
      </trkpt>
      <trkpt lat="54.626709" lon="-2.757104">
        <ele>199.346171</ele>
        <time>2020-06-21T11:10:17.000Z</time>
      </trkpt>
      <trkpt lat="54.624791" lon="-2.756332">
        <ele>202.79526</ele>
        <time>2020-06-21T11:10:39.000Z</time>
      </trkpt>
      <trkpt lat="54.622407" lon="-2.756425">
        <ele>207.761773</ele>
        <time>2020-06-21T11:11:06.000Z</time>
      </trkpt>
      <trkpt lat="54.621779" lon="-2.75645">
        <ele>209.222551</ele>
        <time>2020-06-21T11:11:13.000Z</time>
      </trkpt>
      <trkpt lat="54.619466" lon="-2.756396">
        <ele>213.748551</ele>
        <time>2020-06-21T11:11:39.000Z</time>
      </trkpt>
      <trkpt lat="54.618927" lon="-2.7562">
        <ele>213.659763</ele>
        <time>2020-06-21T11:11:45.000Z</time>
      </trkpt>
      <trkpt lat="54.617875" lon="-2.755694">
        <ele>212.547189</ele>
        <time>2020-06-21T11:11:57.000Z</time>
      </trkpt>
      <trkpt lat="54.617349" lon="-2.755651">
        <ele>210.904935</ele>
        <time>2020-06-21T11:12:03.000Z</time>
      </trkpt>
      <trkpt lat="54.616834" lon="-2.755768">
        <ele>209.309604</ele>
        <time>2020-06-21T11:12:09.000Z</time>
      </trkpt>
      <trkpt lat="54.616267" lon="-2.755271">
        <ele>207.342322</ele>
        <time>2020-06-21T11:12:16.000Z</time>
      </trkpt>
      <trkpt lat="54.615112" lon="-2.75542">
        <ele>204.017158</ele>
        <time>2020-06-21T11:12:29.000Z</time>
      </trkpt>
      <trkpt lat="54.614437" lon="-2.755362">
        <ele>202.714136</ele>
        <time>2020-06-21T11:12:37.000Z</time>
      </trkpt>
      <trkpt lat="54.613407" lon="-2.755939">
        <ele>202.302191</ele>
        <time>2020-06-21T11:12:49.000Z</time>
      </trkpt>
      <trkpt lat="54.612649" lon="-2.75611">
        <ele>202.659541</ele>
        <time>2020-06-21T11:12:58.000Z</time>
      </trkpt>
      <trkpt lat="54.611516" lon="-2.756269">
        <ele>204.7088</ele>
        <time>2020-06-21T11:13:11.000Z</time>
      </trkpt>
      <trkpt lat="54.6103" lon="-2.756721">
        <ele>206.584818</ele>
        <time>2020-06-21T11:13:25.000Z</time>
      </trkpt>
      <trkpt lat="54.609521" lon="-2.756782">
        <ele>207.669004</ele>
        <time>2020-06-21T11:13:34.000Z</time>
      </trkpt>
      <trkpt lat="54.608014" lon="-2.757448">
        <ele>207.505979</ele>
        <time>2020-06-21T11:13:51.000Z</time>
      </trkpt>
      <trkpt lat="54.607361" lon="-2.756923">
        <ele>206.959048</ele>
        <time>2020-06-21T11:13:59.000Z</time>
      </trkpt>
      <trkpt lat="54.607112" lon="-2.756717">
        <ele>206.567226</ele>
        <time>2020-06-21T11:14:02.000Z</time>
      </trkpt>
      <trkpt lat="54.607075" lon="-2.756673">
        <ele>206.508744</ele>
        <time>2020-06-21T11:14:02.000Z</time>
      </trkpt>
      <trkpt lat="54.606755" lon="-2.756174">
        <ele>205.924456</ele>
        <time>2020-06-21T11:14:07.000Z</time>
      </trkpt>
      <trkpt lat="54.606474" lon="-2.755956">
        <ele>205.522819</ele>
        <time>2020-06-21T11:14:10.000Z</time>
      </trkpt>
      <trkpt lat="54.606376" lon="-2.75594">
        <ele>205.372434</ele>
        <time>2020-06-21T11:14:11.000Z</time>
      </trkpt>
      <trkpt lat="54.605916" lon="-2.755783">
        <ele>204.424653</ele>
        <time>2020-06-21T11:14:16.000Z</time>
      </trkpt>
      <trkpt lat="54.605845" lon="-2.755681">
        <ele>204.170535</ele>
        <time>2020-06-21T11:14:17.000Z</time>
      </trkpt>
      <trkpt lat="54.605695" lon="-2.755344">
        <ele>203.38704</ele>
        <time>2020-06-21T11:14:20.000Z</time>
      </trkpt>
      <trkpt lat="54.60571" lon="-2.755263">
        <ele>203.211749</ele>
        <time>2020-06-21T11:14:21.000Z</time>
      </trkpt>
      <trkpt lat="54.605862" lon="-2.754221">
        <ele>201.250492</ele>
        <time>2020-06-21T11:14:28.000Z</time>
      </trkpt>
      <trkpt lat="54.606001" lon="-2.753715">
        <ele>200.219178</ele>
        <time>2020-06-21T11:14:32.000Z</time>
      </trkpt>
      <trkpt lat="54.606197" lon="-2.75334">
        <ele>199.281657</ele>
        <time>2020-06-21T11:14:35.000Z</time>
      </trkpt>
      <trkpt lat="54.606572" lon="-2.752784">
        <ele>196.761324</ele>
        <time>2020-06-21T11:14:41.000Z</time>
      </trkpt>
      <trkpt lat="54.606806" lon="-2.752191">
        <ele>194.563612</ele>
        <time>2020-06-21T11:14:46.000Z</time>
      </trkpt>
      <trkpt lat="54.607009" lon="-2.751472">
        <ele>192.126687</ele>
        <time>2020-06-21T11:14:51.000Z</time>
      </trkpt>
      <trkpt lat="54.60704" lon="-2.751382">
        <ele>191.816435</ele>
        <time>2020-06-21T11:14:52.000Z</time>
      </trkpt>
      <trkpt lat="54.60712" lon="-2.751069">
        <ele>190.7779</ele>
        <time>2020-06-21T11:14:54.000Z</time>
      </trkpt>
      <trkpt lat="54.607149" lon="-2.751005">
        <ele>190.581875</ele>
        <time>2020-06-21T11:14:55.000Z</time>
      </trkpt>
      <trkpt lat="54.607241" lon="-2.750546">
        <ele>189.429341</ele>
        <time>2020-06-21T11:14:58.000Z</time>
      </trkpt>
      <trkpt lat="54.607507" lon="-2.749413">
        <ele>187.309654</ele>
        <time>2020-06-21T11:15:06.000Z</time>
      </trkpt>
      <trkpt lat="54.607632" lon="-2.748931">
        <ele>186.424327</ele>
        <time>2020-06-21T11:15:09.000Z</time>
      </trkpt>
      <trkpt lat="54.60782" lon="-2.747867">
        <ele>184.533194</ele>
        <time>2020-06-21T11:15:16.000Z</time>
      </trkpt>
      <trkpt lat="54.607963" lon="-2.747313">
        <ele>184.446833</ele>
        <time>2020-06-21T11:15:20.000Z</time>
      </trkpt>
      <trkpt lat="54.607996" lon="-2.747177">
        <ele>184.426871</ele>
        <time>2020-06-21T11:15:21.000Z</time>
      </trkpt>
      <trkpt lat="54.608074" lon="-2.746801">
        <ele>184.3698</ele>
        <time>2020-06-21T11:15:24.000Z</time>
      </trkpt>
      <trkpt lat="54.608123" lon="-2.746763">
        <ele>184.354769</ele>
        <time>2020-06-21T11:15:25.000Z</time>
      </trkpt>
      <trkpt lat="54.608254" lon="-2.746849">
        <ele>184.320729</ele>
        <time>2020-06-21T11:15:27.000Z</time>
      </trkpt>
      <trkpt lat="54.608479" lon="-2.747122">
        <ele>184.25331</ele>
        <time>2020-06-21T11:15:30.000Z</time>
      </trkpt>
      <trkpt lat="54.609107" lon="-2.747882">
        <ele>184.26384</ele>
        <time>2020-06-21T11:15:39.000Z</time>
      </trkpt>
      <trkpt lat="54.609638" lon="-2.748277">
        <ele>185.154493</ele>
        <time>2020-06-21T11:15:45.000Z</time>
      </trkpt>
      <trkpt lat="54.609868" lon="-2.748297">
        <ele>185.522465</ele>
        <time>2020-06-21T11:15:48.000Z</time>
      </trkpt>
      <trkpt lat="54.610038" lon="-2.74818">
        <ele>185.804514</ele>
        <time>2020-06-21T11:15:50.000Z</time>
      </trkpt>
      <trkpt lat="54.611702" lon="-2.746601">
        <ele>189.962864</ele>
        <time>2020-06-21T11:16:11.000Z</time>
      </trkpt>
      <trkpt lat="54.611849" lon="-2.746351">
        <ele>190.485814</ele>
        <time>2020-06-21T11:16:13.000Z</time>
      </trkpt>
      <trkpt lat="54.611885" lon="-2.746111">
        <ele>190.869252</ele>
        <time>2020-06-21T11:16:15.000Z</time>
      </trkpt>
      <trkpt lat="54.611904" lon="-2.745866">
        <ele>191.228535</ele>
        <time>2020-06-21T11:16:17.000Z</time>
      </trkpt>
      <trkpt lat="54.61198" lon="-2.742822">
        <ele>195.035857</ele>
        <time>2020-06-21T11:16:37.000Z</time>
      </trkpt>
      <trkpt lat="54.611899" lon="-2.741406">
        <ele>198.330764</ele>
        <time>2020-06-21T11:16:46.000Z</time>
      </trkpt>
      <trkpt lat="54.611912" lon="-2.740818">
        <ele>199.839353</ele>
        <time>2020-06-21T11:16:50.000Z</time>
      </trkpt>
      <trkpt lat="54.611826" lon="-2.740014">
        <ele>201.877339</ele>
        <time>2020-06-21T11:16:55.000Z</time>
      </trkpt>
      <trkpt lat="54.611548" lon="-2.738876">
        <ele>206.15277</ele>
        <time>2020-06-21T11:17:03.000Z</time>
      </trkpt>
      <trkpt lat="54.611157" lon="-2.737844">
        <ele>211.182891</ele>
        <time>2020-06-21T11:17:11.000Z</time>
      </trkpt>
      <trkpt lat="54.611035" lon="-2.737376">
        <ele>213.221</ele>
        <time>2020-06-21T11:17:14.000Z</time>
      </trkpt>
      <trkpt lat="54.611021" lon="-2.737116">
        <ele>214.297197</ele>
        <time>2020-06-21T11:17:16.000Z</time>
      </trkpt>
      <trkpt lat="54.611469" lon="-2.735993">
        <ele>219.3861</ele>
        <time>2020-06-21T11:17:25.000Z</time>
      </trkpt>
      <trkpt lat="54.611626" lon="-2.735579">
        <ele>221.141469</ele>
        <time>2020-06-21T11:17:28.000Z</time>
      </trkpt>
      <trkpt lat="54.611868" lon="-2.734719">
        <ele>224.594219</ele>
        <time>2020-06-21T11:17:34.000Z</time>
      </trkpt>
      <trkpt lat="54.611984" lon="-2.733875">
        <ele>227.396039</ele>
        <time>2020-06-21T11:17:40.000Z</time>
      </trkpt>
      <trkpt lat="54.61201" lon="-2.73271">
        <ele>229.793604</ele>
        <time>2020-06-21T11:17:48.000Z</time>
      </trkpt>
      <trkpt lat="54.611934" lon="-2.732026">
        <ele>231.255281</ele>
        <time>2020-06-21T11:17:52.000Z</time>
      </trkpt>
      <trkpt lat="54.61187" lon="-2.731521">
        <ele>232.320984</ele>
        <time>2020-06-21T11:17:55.000Z</time>
      </trkpt>
      <trkpt lat="54.611701" lon="-2.730084">
        <ele>233.331678</ele>
        <time>2020-06-21T11:18:04.000Z</time>
      </trkpt>
      <trkpt lat="54.611689" lon="-2.729992">
        <ele>233.32379</ele>
        <time>2020-06-21T11:18:05.000Z</time>
      </trkpt>
      <trkpt lat="54.611438" lon="-2.727963">
        <ele>233.136369</ele>
        <time>2020-06-21T11:18:18.000Z</time>
      </trkpt>
      <trkpt lat="54.611438" lon="-2.727908">
        <ele>233.050943</ele>
        <time>2020-06-21T11:18:18.000Z</time>
      </trkpt>
      <trkpt lat="54.611317" lon="-2.726798">
        <ele>230.744645</ele>
        <time>2020-06-21T11:18:25.000Z</time>
      </trkpt>
      <trkpt lat="54.611441" lon="-2.726114">
        <ele>229.30525</ele>
        <time>2020-06-21T11:18:30.000Z</time>
      </trkpt>
      <trkpt lat="54.611554" lon="-2.724522">
        <ele>225.841623</ele>
        <time>2020-06-21T11:18:40.000Z</time>
      </trkpt>
      <trkpt lat="54.611593" lon="-2.722814">
        <ele>221.572714</ele>
        <time>2020-06-21T11:18:51.000Z</time>
      </trkpt>
      <trkpt lat="54.611701" lon="-2.716967">
        <ele>205.483784</ele>
        <time>2020-06-21T11:19:29.000Z</time>
      </trkpt>
      <trkpt lat="54.612339" lon="-2.716753">
        <ele>202.198483</ele>
        <time>2020-06-21T11:19:36.000Z</time>
      </trkpt>
      <trkpt lat="54.613044" lon="-2.716346">
        <ele>198.756964</ele>
        <time>2020-06-21T11:19:44.000Z</time>
      </trkpt>
      <trkpt lat="54.613576" lon="-2.715959">
        <ele>196.077358</ele>
        <time>2020-06-21T11:19:50.000Z</time>
      </trkpt>
      <trkpt lat="54.614099" lon="-2.715625">
        <ele>193.476554</ele>
        <time>2020-06-21T11:19:56.000Z</time>
      </trkpt>
      <trkpt lat="54.61469" lon="-2.715426">
        <ele>191.845992</ele>
        <time>2020-06-21T11:20:03.000Z</time>
      </trkpt>
      <trkpt lat="54.615433" lon="-2.715442">
        <ele>189.986442</ele>
        <time>2020-06-21T11:20:11.000Z</time>
      </trkpt>
      <trkpt lat="54.617185" lon="-2.71593">
        <ele>186.480869</ele>
        <time>2020-06-21T11:20:31.000Z</time>
      </trkpt>
      <trkpt lat="54.617711" lon="-2.715938">
        <ele>185.562233</ele>
        <time>2020-06-21T11:20:37.000Z</time>
      </trkpt>
      <trkpt lat="54.619606" lon="-2.715566">
        <ele>181.446797</ele>
        <time>2020-06-21T11:20:58.000Z</time>
      </trkpt>
      <trkpt lat="54.619642" lon="-2.71557">
        <ele>181.412799</ele>
        <time>2020-06-21T11:20:58.000Z</time>
      </trkpt>
      <trkpt lat="54.620142" lon="-2.715475">
        <ele>180.902601</ele>
        <time>2020-06-21T11:21:04.000Z</time>
      </trkpt>
      <trkpt lat="54.620217" lon="-2.715464">
        <ele>180.818102</ele>
        <time>2020-06-21T11:21:05.000Z</time>
      </trkpt>
      <trkpt lat="54.62133" lon="-2.715574">
        <ele>179.722649</ele>
        <time>2020-06-21T11:21:17.000Z</time>
      </trkpt>
      <trkpt lat="54.622612" lon="-2.715896">
        <ele>180.443571</ele>
        <time>2020-06-21T11:21:31.000Z</time>
      </trkpt>
      <trkpt lat="54.624107" lon="-2.716454">
        <ele>178.69653</ele>
        <time>2020-06-21T11:21:48.000Z</time>
      </trkpt>
      <trkpt lat="54.627196" lon="-2.718146">
        <ele>166.796151</ele>
        <time>2020-06-21T11:22:24.000Z</time>
      </trkpt>
      <trkpt lat="54.628359" lon="-2.718804">
        <ele>162.143764</ele>
        <time>2020-06-21T11:22:38.000Z</time>
      </trkpt>
      <trkpt lat="54.628908" lon="-2.719138">
        <ele>161.040602</ele>
        <time>2020-06-21T11:22:44.000Z</time>
      </trkpt>
      <trkpt lat="54.629486" lon="-2.719593">
        <ele>159.801449</ele>
        <time>2020-06-21T11:22:51.000Z</time>
      </trkpt>
      <trkpt lat="54.630156" lon="-2.720363">
        <ele>159.403342</ele>
        <time>2020-06-21T11:23:00.000Z</time>
      </trkpt>
      <trkpt lat="54.630954" lon="-2.721174">
        <ele>160.65818</ele>
        <time>2020-06-21T11:23:10.000Z</time>
      </trkpt>
      <trkpt lat="54.631263" lon="-2.721486">
        <ele>161.151354</ele>
        <time>2020-06-21T11:23:14.000Z</time>
      </trkpt>
      <trkpt lat="54.631305" lon="-2.721524">
        <ele>161.213208</ele>
        <time>2020-06-21T11:23:15.000Z</time>
      </trkpt>
      <trkpt lat="54.631408" lon="-2.721612">
        <ele>161.363671</ele>
        <time>2020-06-21T11:23:16.000Z</time>
      </trkpt>
      <trkpt lat="54.631548" lon="-2.721753">
        <ele>161.697926</ele>
        <time>2020-06-21T11:23:18.000Z</time>
      </trkpt>
      <trkpt lat="54.631785" lon="-2.721977">
        <ele>162.26529</ele>
        <time>2020-06-21T11:23:21.000Z</time>
      </trkpt>
      <trkpt lat="54.631834" lon="-2.722035">
        <ele>162.383636</ele>
        <time>2020-06-21T11:23:22.000Z</time>
      </trkpt>
      <trkpt lat="54.632205" lon="-2.722465">
        <ele>163.297601</ele>
        <time>2020-06-21T11:23:27.000Z</time>
      </trkpt>
      <trkpt lat="54.632436" lon="-2.722833">
        <ele>163.941611</ele>
        <time>2020-06-21T11:23:30.000Z</time>
      </trkpt>
      <trkpt lat="54.632914" lon="-2.723626">
        <ele>164.997163</ele>
        <time>2020-06-21T11:23:37.000Z</time>
      </trkpt>
      <trkpt lat="54.632966" lon="-2.723744">
        <ele>164.932676</ele>
        <time>2020-06-21T11:23:38.000Z</time>
      </trkpt>
      <trkpt lat="54.63322" lon="-2.724111">
        <ele>164.686203</ele>
        <time>2020-06-21T11:23:42.000Z</time>
      </trkpt>
      <trkpt lat="54.633286" lon="-2.724217">
        <ele>164.611973</ele>
        <time>2020-06-21T11:23:43.000Z</time>
      </trkpt>
      <trkpt lat="54.634039" lon="-2.72499">
        <ele>163.961867</ele>
        <time>2020-06-21T11:23:53.000Z</time>
      </trkpt>
      <trkpt lat="54.63432" lon="-2.725333">
        <ele>163.613597</ele>
        <time>2020-06-21T11:23:57.000Z</time>
      </trkpt>
      <trkpt lat="54.635053" lon="-2.726015">
        <ele>161.328461</ele>
        <time>2020-06-21T11:24:06.000Z</time>
      </trkpt>
      <trkpt lat="54.635749" lon="-2.726441">
        <ele>159.270824</ele>
        <time>2020-06-21T11:24:14.000Z</time>
      </trkpt>
      <trkpt lat="54.635846" lon="-2.726541">
        <ele>158.948106</ele>
        <time>2020-06-21T11:24:15.000Z</time>
      </trkpt>
      <trkpt lat="54.636079" lon="-2.726806">
        <ele>157.858736</ele>
        <time>2020-06-21T11:24:18.000Z</time>
      </trkpt>
      <trkpt lat="54.636337" lon="-2.727062">
        <ele>156.631416</ele>
        <time>2020-06-21T11:24:21.000Z</time>
      </trkpt>
      <trkpt lat="54.636426" lon="-2.727096">
        <ele>156.220226</ele>
        <time>2020-06-21T11:24:22.000Z</time>
      </trkpt>
      <trkpt lat="54.636481" lon="-2.727078">
        <ele>156.025819</ele>
        <time>2020-06-21T11:24:23.000Z</time>
      </trkpt>
      <trkpt lat="54.636608" lon="-2.727002">
        <ele>155.407668</ele>
        <time>2020-06-21T11:24:24.000Z</time>
      </trkpt>
      <trkpt lat="54.637102" lon="-2.726843">
        <ele>153.330663</ele>
        <time>2020-06-21T11:24:30.000Z</time>
      </trkpt>
      <trkpt lat="54.637673" lon="-2.727173">
        <ele>150.678222</ele>
        <time>2020-06-21T11:24:37.000Z</time>
      </trkpt>
      <trkpt lat="54.63803" lon="-2.727386">
        <ele>148.714274</ele>
        <time>2020-06-21T11:24:41.000Z</time>
      </trkpt>
      <trkpt lat="54.638467" lon="-2.727668">
        <ele>146.331394</ele>
        <time>2020-06-21T11:24:46.000Z</time>
      </trkpt>
      <trkpt lat="54.638969" lon="-2.728205">
        <ele>143.25854</ele>
        <time>2020-06-21T11:24:53.000Z</time>
      </trkpt>
      <trkpt lat="54.640424" lon="-2.729486">
        <ele>136.578485</ele>
        <time>2020-06-21T11:25:11.000Z</time>
      </trkpt>
      <trkpt lat="54.641253" lon="-2.72997">
        <ele>133.926426</ele>
        <time>2020-06-21T11:25:21.000Z</time>
      </trkpt>
      <trkpt lat="54.641888" lon="-2.730608">
        <ele>132.407089</ele>
        <time>2020-06-21T11:25:29.000Z</time>
      </trkpt>
      <trkpt lat="54.642511" lon="-2.731411">
        <ele>130.810658</ele>
        <time>2020-06-21T11:25:38.000Z</time>
      </trkpt>
      <trkpt lat="54.64329" lon="-2.732737">
        <ele>128.644572</ele>
        <time>2020-06-21T11:25:50.000Z</time>
      </trkpt>
      <trkpt lat="54.645083" lon="-2.735557">
        <ele>123.67817</ele>
        <time>2020-06-21T11:26:17.000Z</time>
      </trkpt>
      <trkpt lat="54.645906" lon="-2.736245">
        <ele>123.126417</ele>
        <time>2020-06-21T11:26:27.000Z</time>
      </trkpt>
      <trkpt lat="54.646181" lon="-2.73661">
        <ele>122.917776</ele>
        <time>2020-06-21T11:26:31.000Z</time>
      </trkpt>
      <trkpt lat="54.646386" lon="-2.73707">
        <ele>122.70822</ele>
        <time>2020-06-21T11:26:35.000Z</time>
      </trkpt>
      <trkpt lat="54.646464" lon="-2.737542">
        <ele>122.675922</ele>
        <time>2020-06-21T11:26:38.000Z</time>
      </trkpt>
      <trkpt lat="54.64671" lon="-2.738755">
        <ele>122.906157</ele>
        <time>2020-06-21T11:26:46.000Z</time>
      </trkpt>
      <trkpt lat="54.646786" lon="-2.738922">
        <ele>122.943821</ele>
        <time>2020-06-21T11:26:47.000Z</time>
      </trkpt>
      <trkpt lat="54.647104" lon="-2.739267">
        <ele>123.056771</ele>
        <time>2020-06-21T11:26:51.000Z</time>
      </trkpt>
      <trkpt lat="54.648076" lon="-2.739401">
        <ele>123.708692</ele>
        <time>2020-06-21T11:27:02.000Z</time>
      </trkpt>
      <trkpt lat="54.648286" lon="-2.739525">
        <ele>123.933316</ele>
        <time>2020-06-21T11:27:04.000Z</time>
      </trkpt>
      <trkpt lat="54.648636" lon="-2.739739">
        <ele>124.275667</ele>
        <time>2020-06-21T11:27:08.000Z</time>
      </trkpt>
      <trkpt lat="54.648558" lon="-2.740322">
        <ele>124.600546</ele>
        <time>2020-06-21T11:27:12.000Z</time>
      </trkpt>
      <trkpt lat="54.648368" lon="-2.741553">
        <ele>126.011445</ele>
        <time>2020-06-21T11:27:20.000Z</time>
      </trkpt>
      <trkpt lat="54.648322" lon="-2.741813">
        <ele>126.422762</ele>
        <time>2020-06-21T11:27:22.000Z</time>
      </trkpt>
      <trkpt lat="54.648224" lon="-2.742416">
        <ele>127.341914</ele>
        <time>2020-06-21T11:27:26.000Z</time>
      </trkpt>
      <trkpt lat="54.648039" lon="-2.743078">
        <ele>128.427834</ele>
        <time>2020-06-21T11:27:31.000Z</time>
      </trkpt>
      <trkpt lat="54.647804" lon="-2.743689">
        <ele>129.530161</ele>
        <time>2020-06-21T11:27:36.000Z</time>
      </trkpt>
      <trkpt lat="54.647501" lon="-2.744296">
        <ele>130.842513</ele>
        <time>2020-06-21T11:27:41.000Z</time>
      </trkpt>
      <trkpt lat="54.647243" lon="-2.744648">
        <ele>131.750637</ele>
        <time>2020-06-21T11:27:45.000Z</time>
      </trkpt>
      <trkpt lat="54.647071" lon="-2.744884">
        <ele>132.392461</ele>
        <time>2020-06-21T11:27:47.000Z</time>
      </trkpt>
      <trkpt lat="54.646511" lon="-2.74548">
        <ele>134.237959</ele>
        <time>2020-06-21T11:27:54.000Z</time>
      </trkpt>
      <trkpt lat="54.646227" lon="-2.745794">
        <ele>134.80271</ele>
        <time>2020-06-21T11:27:58.000Z</time>
      </trkpt>
      <trkpt lat="54.645996" lon="-2.746147">
        <ele>135.126998</ele>
        <time>2020-06-21T11:28:01.000Z</time>
      </trkpt>
      <trkpt lat="54.645813" lon="-2.746467">
        <ele>135.395944</ele>
        <time>2020-06-21T11:28:04.000Z</time>
      </trkpt>
      <trkpt lat="54.645278" lon="-2.747921">
        <ele>136.441246</ele>
        <time>2020-06-21T11:28:15.000Z</time>
      </trkpt>
      <trkpt lat="54.645034" lon="-2.748364">
        <ele>136.744154</ele>
        <time>2020-06-21T11:28:19.000Z</time>
      </trkpt>
      <trkpt lat="54.644895" lon="-2.748541">
        <ele>136.896208</ele>
        <time>2020-06-21T11:28:21.000Z</time>
      </trkpt>
      <trkpt lat="54.644143" lon="-2.749398">
        <ele>137.656803</ele>
        <time>2020-06-21T11:28:31.000Z</time>
      </trkpt>
      <trkpt lat="54.643942" lon="-2.749717">
        <ele>137.89572</ele>
        <time>2020-06-21T11:28:34.000Z</time>
      </trkpt>
      <trkpt lat="54.643802" lon="-2.750106">
        <ele>138.226691</ele>
        <time>2020-06-21T11:28:37.000Z</time>
      </trkpt>
      <trkpt lat="54.643631" lon="-2.750971">
        <ele>139.01441</ele>
        <time>2020-06-21T11:28:43.000Z</time>
      </trkpt>
      <trkpt lat="54.643397" lon="-2.753036">
        <ele>140.907546</ele>
        <time>2020-06-21T11:28:57.000Z</time>
      </trkpt>
      <trkpt lat="54.643174" lon="-2.754397">
        <ele>142.849813</ele>
        <time>2020-06-21T11:29:06.000Z</time>
      </trkpt>
      <trkpt lat="54.643096" lon="-2.754856">
        <ele>143.50354</ele>
        <time>2020-06-21T11:29:09.000Z</time>
      </trkpt>
      <trkpt lat="54.643025" lon="-2.755326">
        <ele>144.153908</ele>
        <time>2020-06-21T11:29:12.000Z</time>
      </trkpt>
      <trkpt lat="54.642847" lon="-2.756314">
        <ele>145.683872</ele>
        <time>2020-06-21T11:29:19.000Z</time>
      </trkpt>
      <trkpt lat="54.642793" lon="-2.756479">
        <ele>146.005715</ele>
        <time>2020-06-21T11:29:20.000Z</time>
      </trkpt>
      <trkpt lat="54.642593" lon="-2.75734">
        <ele>147.515701</ele>
        <time>2020-06-21T11:29:26.000Z</time>
      </trkpt>
      <trkpt lat="54.642197" lon="-2.75851">
        <ele>149.773095</ele>
        <time>2020-06-21T11:29:35.000Z</time>
      </trkpt>
      <trkpt lat="54.641996" lon="-2.758988">
        <ele>150.691088</ele>
        <time>2020-06-21T11:29:39.000Z</time>
      </trkpt>
      <trkpt lat="54.64173" lon="-2.75932">
        <ele>151.53153</ele>
        <time>2020-06-21T11:29:43.000Z</time>
      </trkpt>
      <trkpt lat="54.641346" lon="-2.759593">
        <ele>152.620156</ele>
        <time>2020-06-21T11:29:48.000Z</time>
      </trkpt>
      <trkpt lat="54.640659" lon="-2.759767">
        <ele>154.432627</ele>
        <time>2020-06-21T11:29:56.000Z</time>
      </trkpt>
      <trkpt lat="54.640274" lon="-2.760066">
        <ele>155.562133</ele>
        <time>2020-06-21T11:30:01.000Z</time>
      </trkpt>
      <trkpt lat="54.638896" lon="-2.761226">
        <ele>159.798449</ele>
        <time>2020-06-21T11:30:18.000Z</time>
      </trkpt>
      <trkpt lat="54.638227" lon="-2.76169">
        <ele>161.176158</ele>
        <time>2020-06-21T11:30:26.000Z</time>
      </trkpt>
      <trkpt lat="54.63807" lon="-2.761901">
        <ele>161.577676</ele>
        <time>2020-06-21T11:30:28.000Z</time>
      </trkpt>
      <trkpt lat="54.637718" lon="-2.762476">
        <ele>162.516188</ele>
        <time>2020-06-21T11:30:33.000Z</time>
      </trkpt>
      <trkpt lat="54.637319" lon="-2.763214">
        <ele>163.368767</ele>
        <time>2020-06-21T11:30:39.000Z</time>
      </trkpt>
      <trkpt lat="54.636498" lon="-2.764814">
        <ele>164.372754</ele>
        <time>2020-06-21T11:30:53.000Z</time>
      </trkpt>
      <trkpt lat="54.635809" lon="-2.766106">
        <ele>165.396017</ele>
        <time>2020-06-21T11:31:04.000Z</time>
      </trkpt>
      <trkpt lat="54.635303" lon="-2.767051">
        <ele>166.229559</ele>
        <time>2020-06-21T11:31:12.000Z</time>
      </trkpt>
      <trkpt lat="54.634727" lon="-2.768102">
        <ele>167.571494</ele>
        <time>2020-06-21T11:31:21.000Z</time>
      </trkpt>
      <trkpt lat="54.634431" lon="-2.768625">
        <ele>168.409076</ele>
        <time>2020-06-21T11:31:26.000Z</time>
      </trkpt>
      <trkpt lat="54.633792" lon="-2.769274">
        <ele>169.870897</ele>
        <time>2020-06-21T11:31:34.000Z</time>
      </trkpt>
      <trkpt lat="54.63323" lon="-2.769593">
        <ele>170.202044</ele>
        <time>2020-06-21T11:31:41.000Z</time>
      </trkpt>
      <trkpt lat="54.633086" lon="-2.769842">
        <ele>170.219875</ele>
        <time>2020-06-21T11:31:43.000Z</time>
      </trkpt>
      <trkpt lat="54.632982" lon="-2.770016">
        <ele>170.231142</ele>
        <time>2020-06-21T11:31:45.000Z</time>
      </trkpt>
      <trkpt lat="54.632865" lon="-2.770377">
        <ele>170.249956</ele>
        <time>2020-06-21T11:31:48.000Z</time>
      </trkpt>
      <trkpt lat="54.632759" lon="-2.770749">
        <ele>170.270362</ele>
        <time>2020-06-21T11:31:51.000Z</time>
      </trkpt>
      <trkpt lat="54.632714" lon="-2.771642">
        <ele>170.31178</ele>
        <time>2020-06-21T11:31:57.000Z</time>
      </trkpt>
      <trkpt lat="54.632707" lon="-2.772303">
        <ele>169.9994</ele>
        <time>2020-06-21T11:32:01.000Z</time>
      </trkpt>
      <trkpt lat="54.632709" lon="-2.772805">
        <ele>169.747212</ele>
        <time>2020-06-21T11:32:04.000Z</time>
      </trkpt>
      <trkpt lat="54.632699" lon="-2.773023">
        <ele>169.644073</ele>
        <time>2020-06-21T11:32:05.000Z</time>
      </trkpt>
      <trkpt lat="54.632667" lon="-2.773154">
        <ele>169.571078</ele>
        <time>2020-06-21T11:32:06.000Z</time>
      </trkpt>
      <trkpt lat="54.632502" lon="-2.77411">
        <ele>169.08432</ele>
        <time>2020-06-21T11:32:12.000Z</time>
      </trkpt>
      <trkpt lat="54.632344" lon="-2.774717">
        <ele>168.807513</ele>
        <time>2020-06-21T11:32:16.000Z</time>
      </trkpt>
      <trkpt lat="54.632241" lon="-2.774924">
        <ele>168.982622</ele>
        <time>2020-06-21T11:32:18.000Z</time>
      </trkpt>
      <trkpt lat="54.631685" lon="-2.776007">
        <ele>169.8996</ele>
        <time>2020-06-21T11:32:27.000Z</time>
      </trkpt>
      <trkpt lat="54.631538" lon="-2.776562">
        <ele>170.275707</ele>
        <time>2020-06-21T11:32:31.000Z</time>
      </trkpt>
      <trkpt lat="54.631489" lon="-2.776895">
        <ele>170.492938</ele>
        <time>2020-06-21T11:32:33.000Z</time>
      </trkpt>
      <trkpt lat="54.631427" lon="-2.777127">
        <ele>170.659288</ele>
        <time>2020-06-21T11:32:35.000Z</time>
      </trkpt>
      <trkpt lat="54.63118" lon="-2.777763">
        <ele>171.317419</ele>
        <time>2020-06-21T11:32:40.000Z</time>
      </trkpt>
      <trkpt lat="54.630575" lon="-2.779091">
        <ele>172.790503</ele>
        <time>2020-06-21T11:32:51.000Z</time>
      </trkpt>
      <trkpt lat="54.630403" lon="-2.779495">
        <ele>173.248872</ele>
        <time>2020-06-21T11:32:54.000Z</time>
      </trkpt>
      <trkpt lat="54.629775" lon="-2.780799">
        <ele>172.924796</ele>
        <time>2020-06-21T11:33:05.000Z</time>
      </trkpt>
      <trkpt lat="54.629609" lon="-2.781134">
        <ele>172.744459</ele>
        <time>2020-06-21T11:33:08.000Z</time>
      </trkpt>
      <trkpt lat="54.629376" lon="-2.781835">
        <ele>172.429242</ele>
        <time>2020-06-21T11:33:13.000Z</time>
      </trkpt>
      <trkpt lat="54.629311" lon="-2.782301">
        <ele>172.19924</ele>
        <time>2020-06-21T11:33:16.000Z</time>
      </trkpt>
      <trkpt lat="54.629241" lon="-2.783039">
        <ele>170.903069</ele>
        <time>2020-06-21T11:33:21.000Z</time>
      </trkpt>
      <trkpt lat="54.629215" lon="-2.783825">
        <ele>169.541775</ele>
        <time>2020-06-21T11:33:26.000Z</time>
      </trkpt>
      <trkpt lat="54.629227" lon="-2.784621">
        <ele>168.161397</ele>
        <time>2020-06-21T11:33:31.000Z</time>
      </trkpt>
      <trkpt lat="54.629407" lon="-2.786471">
        <ele>165.771367</ele>
        <time>2020-06-21T11:33:43.000Z</time>
      </trkpt>
      <trkpt lat="54.629375" lon="-2.787544">
        <ele>164.716407</ele>
        <time>2020-06-21T11:33:50.000Z</time>
      </trkpt>
      <trkpt lat="54.629195" lon="-2.78815">
        <ele>164.044231</ele>
        <time>2020-06-21T11:33:54.000Z</time>
      </trkpt>
      <trkpt lat="54.628626" lon="-2.789591">
        <ele>163.260079</ele>
        <time>2020-06-21T11:34:05.000Z</time>
      </trkpt>
      <trkpt lat="54.628136" lon="-2.790571">
        <ele>162.77078</ele>
        <time>2020-06-21T11:34:13.000Z</time>
      </trkpt>
      <trkpt lat="54.628094" lon="-2.790705">
        <ele>162.708234</ele>
        <time>2020-06-21T11:34:14.000Z</time>
      </trkpt>
      <trkpt lat="54.628069" lon="-2.790757">
        <ele>162.692547</ele>
        <time>2020-06-21T11:34:14.000Z</time>
      </trkpt>
      <trkpt lat="54.628023" lon="-2.790906">
        <ele>162.617908</ele>
        <time>2020-06-21T11:34:15.000Z</time>
      </trkpt>
      <trkpt lat="54.627844" lon="-2.791614">
        <ele>162.259436</ele>
        <time>2020-06-21T11:34:20.000Z</time>
      </trkpt>
      <trkpt lat="54.627767" lon="-2.792449">
        <ele>161.864506</ele>
        <time>2020-06-21T11:34:25.000Z</time>
      </trkpt>
      <trkpt lat="54.627613" lon="-2.793123">
        <ele>161.52274</ele>
        <time>2020-06-21T11:34:30.000Z</time>
      </trkpt>
      <trkpt lat="54.627493" lon="-2.793467">
        <ele>161.338768</ele>
        <time>2020-06-21T11:34:33.000Z</time>
      </trkpt>
      <trkpt lat="54.62731" lon="-2.793909">
        <ele>161.330767</ele>
        <time>2020-06-21T11:34:36.000Z</time>
      </trkpt>
      <trkpt lat="54.626821" lon="-2.794332">
        <ele>161.696089</ele>
        <time>2020-06-21T11:34:42.000Z</time>
      </trkpt>
      <trkpt lat="54.626307" lon="-2.794476">
        <ele>162.051561</ele>
        <time>2020-06-21T11:34:48.000Z</time>
      </trkpt>
      <trkpt lat="54.626059" lon="-2.794656">
        <ele>162.232556</ele>
        <time>2020-06-21T11:34:51.000Z</time>
      </trkpt>
      <trkpt lat="54.6254" lon="-2.795342">
        <ele>163.615498</ele>
        <time>2020-06-21T11:35:00.000Z</time>
      </trkpt>
      <trkpt lat="54.624158" lon="-2.796413">
        <ele>167.068433</ele>
        <time>2020-06-21T11:35:15.000Z</time>
      </trkpt>
      <trkpt lat="54.623404" lon="-2.797214">
        <ele>169.552741</ele>
        <time>2020-06-21T11:35:25.000Z</time>
      </trkpt>
      <trkpt lat="54.621919" lon="-2.798806">
        <ele>174.595422</ele>
        <time>2020-06-21T11:35:44.000Z</time>
      </trkpt>
      <trkpt lat="54.621202" lon="-2.79989">
        <ele>177.328023</ele>
        <time>2020-06-21T11:35:55.000Z</time>
      </trkpt>
      <trkpt lat="54.619827" lon="-2.801445">
        <ele>181.531938</ele>
        <time>2020-06-21T11:36:13.000Z</time>
      </trkpt>
      <trkpt lat="54.619487" lon="-2.801861">
        <ele>181.807307</ele>
        <time>2020-06-21T11:36:18.000Z</time>
      </trkpt>
      <trkpt lat="54.619311" lon="-2.802754">
        <ele>181.784323</ele>
        <time>2020-06-21T11:36:24.000Z</time>
      </trkpt>
      <trkpt lat="54.618957" lon="-2.804442">
        <ele>181.654091</ele>
        <time>2020-06-21T11:36:36.000Z</time>
      </trkpt>
      <trkpt lat="54.618701" lon="-2.805418">
        <ele>181.017548</ele>
        <time>2020-06-21T11:36:43.000Z</time>
      </trkpt>
      <trkpt lat="54.618568" lon="-2.805987">
        <ele>180.656524</ele>
        <time>2020-06-21T11:36:47.000Z</time>
      </trkpt>
      <trkpt lat="54.618466" lon="-2.806399">
        <ele>180.383589</ele>
        <time>2020-06-21T11:36:50.000Z</time>
      </trkpt>
      <trkpt lat="54.618321" lon="-2.806843">
        <ele>180.070266</ele>
        <time>2020-06-21T11:36:53.000Z</time>
      </trkpt>
      <trkpt lat="54.618093" lon="-2.807466">
        <ele>179.861658</ele>
        <time>2020-06-21T11:36:58.000Z</time>
      </trkpt>
      <trkpt lat="54.617875" lon="-2.808084">
        <ele>179.801406</ele>
        <time>2020-06-21T11:37:03.000Z</time>
      </trkpt>
      <trkpt lat="54.617435" lon="-2.809366">
        <ele>179.677604</ele>
        <time>2020-06-21T11:37:13.000Z</time>
      </trkpt>
      <trkpt lat="54.616906" lon="-2.810356">
        <ele>178.741435</ele>
        <time>2020-06-21T11:37:22.000Z</time>
      </trkpt>
      <trkpt lat="54.616245" lon="-2.811037">
        <ele>177.413369</ele>
        <time>2020-06-21T11:37:31.000Z</time>
      </trkpt>
      <trkpt lat="54.616212" lon="-2.811076">
        <ele>177.344379</ele>
        <time>2020-06-21T11:37:31.000Z</time>
      </trkpt>
      <trkpt lat="54.615978" lon="-2.811315">
        <ele>176.893033</ele>
        <time>2020-06-21T11:37:34.000Z</time>
      </trkpt>
      <trkpt lat="54.615347" lon="-2.812162">
        <ele>174.285345</ele>
        <time>2020-06-21T11:37:43.000Z</time>
      </trkpt>
      <trkpt lat="54.615113" lon="-2.812441">
        <ele>173.173568</ele>
        <time>2020-06-21T11:37:46.000Z</time>
      </trkpt>
      <trkpt lat="54.614584" lon="-2.813066">
        <ele>170.696886</ele>
        <time>2020-06-21T11:37:53.000Z</time>
      </trkpt>
      <trkpt lat="54.614405" lon="-2.813208">
        <ele>169.957014</ele>
        <time>2020-06-21T11:37:55.000Z</time>
      </trkpt>
      <trkpt lat="54.613853" lon="-2.813632">
        <ele>168.431745</ele>
        <time>2020-06-21T11:38:02.000Z</time>
      </trkpt>
      <trkpt lat="54.613495" lon="-2.813665">
        <ele>167.58836</ele>
        <time>2020-06-21T11:38:06.000Z</time>
      </trkpt>
      <trkpt lat="54.612785" lon="-2.813775">
        <ele>165.870549</ele>
        <time>2020-06-21T11:38:14.000Z</time>
      </trkpt>
      <trkpt lat="54.612636" lon="-2.813988">
        <ele>165.396911</ele>
        <time>2020-06-21T11:38:16.000Z</time>
      </trkpt>
      <trkpt lat="54.612384" lon="-2.814292">
        <ele>165.089304</ele>
        <time>2020-06-21T11:38:19.000Z</time>
      </trkpt>
      <trkpt lat="54.611962" lon="-2.814535">
        <ele>164.653576</ele>
        <time>2020-06-21T11:38:24.000Z</time>
      </trkpt>
      <trkpt lat="54.61183" lon="-2.814581">
        <ele>164.531009</ele>
        <time>2020-06-21T11:38:25.000Z</time>
      </trkpt>
      <trkpt lat="54.61177" lon="-2.814625">
        <ele>164.475692</ele>
        <time>2020-06-21T11:38:26.000Z</time>
      </trkpt>
      <trkpt lat="54.611473" lon="-2.814967">
        <ele>164.121328</ele>
        <time>2020-06-21T11:38:30.000Z</time>
      </trkpt>
      <trkpt lat="54.610664" lon="-2.815477">
        <ele>163.304981</ele>
        <time>2020-06-21T11:38:40.000Z</time>
      </trkpt>
      <trkpt lat="54.609399" lon="-2.816871">
        <ele>161.885712</ele>
        <time>2020-06-21T11:38:57.000Z</time>
      </trkpt>
      <trkpt lat="54.608478" lon="-2.817455">
        <ele>161.050202</ele>
        <time>2020-06-21T11:39:08.000Z</time>
      </trkpt>
      <trkpt lat="54.608136" lon="-2.818268">
        <ele>160.543481</ele>
        <time>2020-06-21T11:39:14.000Z</time>
      </trkpt>
      <trkpt lat="54.607868" lon="-2.818575">
        <ele>160.309695</ele>
        <time>2020-06-21T11:39:18.000Z</time>
      </trkpt>
      <trkpt lat="54.606957" lon="-2.81963">
        <ele>159.605539</ele>
        <time>2020-06-21T11:39:30.000Z</time>
      </trkpt>
      <trkpt lat="54.60652" lon="-2.820322">
        <ele>159.214737</ele>
        <time>2020-06-21T11:39:37.000Z</time>
      </trkpt>
      <trkpt lat="54.606136" lon="-2.820787">
        <ele>158.675766</ele>
        <time>2020-06-21T11:39:42.000Z</time>
      </trkpt>
      <trkpt lat="54.606014" lon="-2.820977">
        <ele>158.485835</ele>
        <time>2020-06-21T11:39:44.000Z</time>
      </trkpt>
      <trkpt lat="54.605999" lon="-2.820986">
        <ele>158.461607</ele>
        <time>2020-06-21T11:39:44.000Z</time>
      </trkpt>
      <trkpt lat="54.605851" lon="-2.821209">
        <ele>158.24209</ele>
        <time>2020-06-21T11:39:46.000Z</time>
      </trkpt>
      <trkpt lat="54.605532" lon="-2.822042">
        <ele>157.584112</ele>
        <time>2020-06-21T11:39:52.000Z</time>
      </trkpt>
      <trkpt lat="54.605081" lon="-2.822793">
        <ele>157.037730989</ele>
        <time>2020-06-21T11:39:59.000Z</time>
      </trkpt>
      <trkpt lat="54.604928" lon="-2.822938">
        <ele>156.885537108</ele>
        <time>2020-06-21T11:40:01.000Z</time>
      </trkpt>
      <trkpt lat="54.605073" lon="-2.823062">
        <ele>156.744437081</ele>
        <time>2020-06-21T11:40:03.000Z</time>
      </trkpt>
      <trkpt lat="54.606123" lon="-2.823979">
        <ele>155.718370176</ele>
        <time>2020-06-21T11:40:16.000Z</time>
      </trkpt>
      <trkpt lat="54.606283" lon="-2.824124">
        <ele>155.5607991</ele>
        <time>2020-06-21T11:40:18.000Z</time>
      </trkpt>
    </trkseg>
  </trk>
</gpx>

<!--
Performance optimized by W3 Total Cache. Learn more: https://www.boldgrid.com/w3-total-cache/?utm_source=w3tc&utm_medium=footer_comment&utm_campaign=free_plugin

Page Caching using Disk: Enhanced{w3tc_pagecache_reject_reason} 

Served from: www.aquabike.world @ 2026-05-10 20:29:01 by W3 Total Cache
-->